<?xml version="1.0" encoding="UTF-8" standalone="no" ?>
<gpx xmlns="http://www.topografix.com/GPX/1/1" xmlns:xsi="http://www.w3.org/2001/XMLSchema-instance" xsi:schemaLocation="http://www.topografix.com/GPX/1/1 http://www.topografix.com/GPX/1/1/gpx.xsd" version="1.1" creator="VisuGPX - https://www.visugpx.com">
  <metadata>
    <name>Entrecasteaux Nord</name>
    <desc><![CDATA[Une petite promenade sans difficulté au nord d'Entrecasteaux.]]></desc>
  </metadata>
  <trk>
    <name><![CDATA[Entrecasteaux]]></name>
    <extensions>
      <line xmlns="http://www.topografix.com/GPX/gpx_style/0/2">
        <color>0000FF</color>
        <opacity>1</opacity>
        <width>4</width>
      </line>
    </extensions>
    <trkseg>
      <trkpt lat="43.51584" lon="6.24229">
        <ele>151.7</ele>
        <time>2025-07-25T06:56:42.000Z</time>
      </trkpt>
      <trkpt lat="43.51588" lon="6.24234">
        <ele>152.1</ele>
        <time>2025-07-25T06:56:42.398Z</time>
      </trkpt>
      <trkpt lat="43.51589" lon="6.24243">
        <ele>152.7</ele>
        <time>2025-07-25T06:56:42.881Z</time>
      </trkpt>
      <trkpt lat="43.51589" lon="6.24252">
        <ele>153.4</ele>
        <time>2025-07-25T06:56:43.364Z</time>
      </trkpt>
      <trkpt lat="43.51589" lon="6.24259">
        <ele>154</ele>
        <time>2025-07-25T06:56:43.739Z</time>
      </trkpt>
      <trkpt lat="43.51589" lon="6.24266">
        <ele>154.6</ele>
        <time>2025-07-25T06:56:44.114Z</time>
      </trkpt>
      <trkpt lat="43.51589" lon="6.24274">
        <ele>155.2</ele>
        <time>2025-07-25T06:56:44.544Z</time>
      </trkpt>
      <trkpt lat="43.51588" lon="6.24282">
        <ele>155.6</ele>
        <time>2025-07-25T06:56:44.974Z</time>
      </trkpt>
      <trkpt lat="43.51587" lon="6.24289">
        <ele>155.6</ele>
        <time>2025-07-25T06:56:45.329Z</time>
      </trkpt>
      <trkpt lat="43.51586" lon="6.24295">
        <ele>155.6</ele>
        <time>2025-07-25T06:56:45.685Z</time>
      </trkpt>
      <trkpt lat="43.51584" lon="6.24301">
        <ele>156</ele>
        <time>2025-07-25T06:56:46.023Z</time>
      </trkpt>
      <trkpt lat="43.51582" lon="6.24306">
        <ele>156.4</ele>
        <time>2025-07-25T06:56:46.361Z</time>
      </trkpt>
      <trkpt lat="43.51579" lon="6.24312">
        <ele>156.6</ele>
        <time>2025-07-25T06:56:46.699Z</time>
      </trkpt>
      <trkpt lat="43.51577" lon="6.24317">
        <ele>156.4</ele>
        <time>2025-07-25T06:56:47.037Z</time>
      </trkpt>
      <trkpt lat="43.51576" lon="6.24326">
        <ele>155.2</ele>
        <time>2025-07-25T06:56:47.531Z</time>
      </trkpt>
      <trkpt lat="43.51574" lon="6.24335">
        <ele>154.4</ele>
        <time>2025-07-25T06:56:48.026Z</time>
      </trkpt>
      <trkpt lat="43.51571" lon="6.24345">
        <ele>153.9</ele>
        <time>2025-07-25T06:56:48.581Z</time>
      </trkpt>
      <trkpt lat="43.51568" lon="6.24354">
        <ele>153.2</ele>
        <time>2025-07-25T06:56:49.136Z</time>
      </trkpt>
      <trkpt lat="43.51565" lon="6.24364">
        <ele>152.1</ele>
        <time>2025-07-25T06:56:49.716Z</time>
      </trkpt>
      <trkpt lat="43.51562" lon="6.24374">
        <ele>151.2</ele>
        <time>2025-07-25T06:56:50.296Z</time>
      </trkpt>
      <trkpt lat="43.51563" lon="6.24382">
        <ele>149.6</ele>
        <time>2025-07-25T06:56:50.722Z</time>
      </trkpt>
      <trkpt lat="43.51565" lon="6.2439">
        <ele>147.7</ele>
        <time>2025-07-25T06:56:51.148Z</time>
      </trkpt>
      <trkpt lat="43.51566" lon="6.24397">
        <ele>146.1</ele>
        <time>2025-07-25T06:56:51.574Z</time>
      </trkpt>
      <trkpt lat="43.51567" lon="6.24405">
        <ele>144.3</ele>
        <time>2025-07-25T06:56:52.000Z</time>
      </trkpt>
      <trkpt lat="43.5157" lon="6.24415">
        <ele>142.3</ele>
        <time>2025-07-25T06:56:57.000Z</time>
      </trkpt>
      <trkpt lat="43.51573" lon="6.24425">
        <ele>142.8</ele>
        <time>2025-07-25T06:57:02.000Z</time>
      </trkpt>
      <trkpt lat="43.51575" lon="6.24433">
        <ele>143.9</ele>
        <time>2025-07-25T06:57:07.000Z</time>
      </trkpt>
      <trkpt lat="43.51576" lon="6.24441">
        <ele>145</ele>
        <time>2025-07-25T06:57:12.000Z</time>
      </trkpt>
      <trkpt lat="43.51579" lon="6.2445">
        <ele>146.4</ele>
        <time>2025-07-25T06:57:22.000Z</time>
      </trkpt>
      <trkpt lat="43.5158" lon="6.24462">
        <ele>147.4</ele>
        <time>2025-07-25T06:57:32.000Z</time>
      </trkpt>
      <trkpt lat="43.51585" lon="6.24464">
        <ele>148.6</ele>
        <time>2025-07-25T06:57:37.000Z</time>
      </trkpt>
      <trkpt lat="43.51589" lon="6.24465">
        <ele>149.1</ele>
        <time>2025-07-25T06:57:42.000Z</time>
      </trkpt>
      <trkpt lat="43.51592" lon="6.24472">
        <ele>150.2</ele>
        <time>2025-07-25T06:57:52.000Z</time>
      </trkpt>
      <trkpt lat="43.516" lon="6.24471">
        <ele>151.2</ele>
        <time>2025-07-25T06:57:59.257Z</time>
      </trkpt>
      <trkpt lat="43.51605" lon="6.24472">
        <ele>152.1</ele>
        <time>2025-07-25T06:58:03.597Z</time>
      </trkpt>
      <trkpt lat="43.5161" lon="6.24473">
        <ele>152.9</ele>
        <time>2025-07-25T06:58:07.937Z</time>
      </trkpt>
      <trkpt lat="43.51614" lon="6.24474">
        <ele>153.2</ele>
        <time>2025-07-25T06:58:12.277Z</time>
      </trkpt>
      <trkpt lat="43.51619" lon="6.24475">
        <ele>153.3</ele>
        <time>2025-07-25T06:58:16.618Z</time>
      </trkpt>
      <trkpt lat="43.51624" lon="6.24476">
        <ele>153.5</ele>
        <time>2025-07-25T06:58:20.959Z</time>
      </trkpt>
      <trkpt lat="43.51629" lon="6.24477">
        <ele>153.8</ele>
        <time>2025-07-25T06:58:25.300Z</time>
      </trkpt>
      <trkpt lat="43.51633" lon="6.24478">
        <ele>154.1</ele>
        <time>2025-07-25T06:58:29.641Z</time>
      </trkpt>
      <trkpt lat="43.51638" lon="6.24479">
        <ele>154.4</ele>
        <time>2025-07-25T06:58:33.982Z</time>
      </trkpt>
      <trkpt lat="43.51643" lon="6.24479">
        <ele>154.5</ele>
        <time>2025-07-25T06:58:38.276Z</time>
      </trkpt>
      <trkpt lat="43.51648" lon="6.2448">
        <ele>154.7</ele>
        <time>2025-07-25T06:58:42.570Z</time>
      </trkpt>
      <trkpt lat="43.51652" lon="6.2448">
        <ele>154.7</ele>
        <time>2025-07-25T06:58:46.864Z</time>
      </trkpt>
      <trkpt lat="43.51657" lon="6.2448">
        <ele>154.7</ele>
        <time>2025-07-25T06:58:51.158Z</time>
      </trkpt>
      <trkpt lat="43.51662" lon="6.24482">
        <ele>155.1</ele>
        <time>2025-07-25T06:58:55.861Z</time>
      </trkpt>
      <trkpt lat="43.51668" lon="6.24485">
        <ele>155.6</ele>
        <time>2025-07-25T06:59:01.225Z</time>
      </trkpt>
      <trkpt lat="43.51673" lon="6.24487">
        <ele>155.5</ele>
        <time>2025-07-25T06:59:06.589Z</time>
      </trkpt>
      <trkpt lat="43.51679" lon="6.2449">
        <ele>155.3</ele>
        <time>2025-07-25T06:59:11.953Z</time>
      </trkpt>
      <trkpt lat="43.51685" lon="6.24493">
        <ele>154.9</ele>
        <time>2025-07-25T06:59:17.317Z</time>
      </trkpt>
      <trkpt lat="43.5169" lon="6.24495">
        <ele>154.3</ele>
        <time>2025-07-25T06:59:22.681Z</time>
      </trkpt>
      <trkpt lat="43.51696" lon="6.24498">
        <ele>153.9</ele>
        <time>2025-07-25T06:59:28.045Z</time>
      </trkpt>
      <trkpt lat="43.51701" lon="6.245">
        <ele>154</ele>
        <time>2025-07-25T06:59:33.409Z</time>
      </trkpt>
      <trkpt lat="43.51707" lon="6.24503">
        <ele>155.6</ele>
        <time>2025-07-25T06:59:38.773Z</time>
      </trkpt>
      <trkpt lat="43.51714" lon="6.24505">
        <ele>156.5</ele>
        <time>2025-07-25T06:59:44.727Z</time>
      </trkpt>
      <trkpt lat="43.5172" lon="6.24506">
        <ele>156.9</ele>
        <time>2025-07-25T06:59:50.681Z</time>
      </trkpt>
      <trkpt lat="43.51726" lon="6.24506">
        <ele>157.2</ele>
        <time>2025-07-25T06:59:55.649Z</time>
      </trkpt>
      <trkpt lat="43.51731" lon="6.24506">
        <ele>157.7</ele>
        <time>2025-07-25T07:00:00.617Z</time>
      </trkpt>
      <trkpt lat="43.51737" lon="6.24504">
        <ele>157.4</ele>
        <time>2025-07-25T07:00:06.193Z</time>
      </trkpt>
      <trkpt lat="43.51743" lon="6.24502">
        <ele>157.1</ele>
        <time>2025-07-25T07:00:11.769Z</time>
      </trkpt>
      <trkpt lat="43.51745" lon="6.245">
        <ele>156.5</ele>
        <time>2025-07-25T07:00:14.001Z</time>
      </trkpt>
      <trkpt lat="43.5175" lon="6.24496">
        <ele>156.6</ele>
        <time>2025-07-25T07:00:19.223Z</time>
      </trkpt>
      <trkpt lat="43.51754" lon="6.24492">
        <ele>156.6</ele>
        <time>2025-07-25T07:00:23.546Z</time>
      </trkpt>
      <trkpt lat="43.51757" lon="6.24487">
        <ele>156.3</ele>
        <time>2025-07-25T07:00:27.869Z</time>
      </trkpt>
      <trkpt lat="43.51761" lon="6.24483">
        <ele>156</ele>
        <time>2025-07-25T07:00:31.975Z</time>
      </trkpt>
      <trkpt lat="43.51764" lon="6.24479">
        <ele>155.6</ele>
        <time>2025-07-25T07:00:36.081Z</time>
      </trkpt>
      <trkpt lat="43.51766" lon="6.24477">
        <ele>155.4</ele>
        <time>2025-07-25T07:00:38.313Z</time>
      </trkpt>
      <trkpt lat="43.51768" lon="6.24474">
        <ele>155</ele>
        <time>2025-07-25T07:00:40.982Z</time>
      </trkpt>
      <trkpt lat="43.51772" lon="6.24467">
        <ele>154.6</ele>
        <time>2025-07-25T07:00:46.820Z</time>
      </trkpt>
      <trkpt lat="43.51776" lon="6.24464">
        <ele>154.6</ele>
        <time>2025-07-25T07:00:50.933Z</time>
      </trkpt>
      <trkpt lat="43.5178" lon="6.24461">
        <ele>154.9</ele>
        <time>2025-07-25T07:00:55.046Z</time>
      </trkpt>
      <trkpt lat="43.51784" lon="6.24457">
        <ele>155.1</ele>
        <time>2025-07-25T07:00:59.608Z</time>
      </trkpt>
      <trkpt lat="43.51788" lon="6.24453">
        <ele>155.1</ele>
        <time>2025-07-25T07:01:04.170Z</time>
      </trkpt>
      <trkpt lat="43.51792" lon="6.24448">
        <ele>154.9</ele>
        <time>2025-07-25T07:01:08.732Z</time>
      </trkpt>
      <trkpt lat="43.51796" lon="6.24444">
        <ele>154.6</ele>
        <time>2025-07-25T07:01:13.294Z</time>
      </trkpt>
      <trkpt lat="43.51799" lon="6.24444">
        <ele>154.7</ele>
        <time>2025-07-25T07:01:16.004Z</time>
      </trkpt>
      <trkpt lat="43.51802" lon="6.24451">
        <ele>155.9</ele>
        <time>2025-07-25T07:01:21.331Z</time>
      </trkpt>
      <trkpt lat="43.51805" lon="6.24458">
        <ele>157.4</ele>
        <time>2025-07-25T07:01:26.658Z</time>
      </trkpt>
      <trkpt lat="43.51808" lon="6.24459">
        <ele>158.7</ele>
        <time>2025-07-25T07:01:29.446Z</time>
      </trkpt>
      <trkpt lat="43.51812" lon="6.24459">
        <ele>160.4</ele>
        <time>2025-07-25T07:01:33.059Z</time>
      </trkpt>
      <trkpt lat="43.51815" lon="6.24453">
        <ele>160.5</ele>
        <time>2025-07-25T07:01:37.833Z</time>
      </trkpt>
      <trkpt lat="43.51818" lon="6.24456">
        <ele>162.4</ele>
        <time>2025-07-25T07:01:41.181Z</time>
      </trkpt>
      <trkpt lat="43.51815" lon="6.24453">
        <ele>160.5</ele>
        <time>2025-07-25T07:01:44.529Z</time>
      </trkpt>
      <trkpt lat="43.51819" lon="6.24447">
        <ele>160.9</ele>
        <time>2025-07-25T07:01:49.574Z</time>
      </trkpt>
      <trkpt lat="43.51822" lon="6.24441">
        <ele>161.2</ele>
        <time>2025-07-25T07:01:54.619Z</time>
      </trkpt>
      <trkpt lat="43.51825" lon="6.24432">
        <ele>161.3</ele>
        <time>2025-07-25T07:02:01.168Z</time>
      </trkpt>
      <trkpt lat="43.51828" lon="6.24423">
        <ele>161.2</ele>
        <time>2025-07-25T07:02:07.717Z</time>
      </trkpt>
      <trkpt lat="43.5183" lon="6.24413">
        <ele>160.3</ele>
        <time>2025-07-25T07:02:14.266Z</time>
      </trkpt>
      <trkpt lat="43.51833" lon="6.24404">
        <ele>159.2</ele>
        <time>2025-07-25T07:02:20.815Z</time>
      </trkpt>
      <trkpt lat="43.51836" lon="6.24397">
        <ele>159.7</ele>
        <time>2025-07-25T07:02:25.927Z</time>
      </trkpt>
      <trkpt lat="43.51838" lon="6.2439">
        <ele>159.6</ele>
        <time>2025-07-25T07:02:31.039Z</time>
      </trkpt>
      <trkpt lat="43.51841" lon="6.24383">
        <ele>160.7</ele>
        <time>2025-07-25T07:02:36.151Z</time>
      </trkpt>
      <trkpt lat="43.51843" lon="6.24376">
        <ele>160.9</ele>
        <time>2025-07-25T07:02:41.263Z</time>
      </trkpt>
      <trkpt lat="43.51847" lon="6.24366">
        <ele>161.4</ele>
        <time>2025-07-25T07:02:49.033Z</time>
      </trkpt>
      <trkpt lat="43.51851" lon="6.24355">
        <ele>161.4</ele>
        <time>2025-07-25T07:02:56.803Z</time>
      </trkpt>
      <trkpt lat="43.51853" lon="6.24348">
        <ele>161.2</ele>
        <time>2025-07-25T07:03:01.580Z</time>
      </trkpt>
      <trkpt lat="43.51855" lon="6.24342">
        <ele>160.9</ele>
        <time>2025-07-25T07:03:06.357Z</time>
      </trkpt>
      <trkpt lat="43.51857" lon="6.24335">
        <ele>160.3</ele>
        <time>2025-07-25T07:03:11.134Z</time>
      </trkpt>
      <trkpt lat="43.51859" lon="6.24328">
        <ele>159.9</ele>
        <time>2025-07-25T07:03:15.911Z</time>
      </trkpt>
      <trkpt lat="43.5186" lon="6.24322">
        <ele>159.5</ele>
        <time>2025-07-25T07:03:20.001Z</time>
      </trkpt>
      <trkpt lat="43.51862" lon="6.24316">
        <ele>159.9</ele>
        <time>2025-07-25T07:03:24.091Z</time>
      </trkpt>
      <trkpt lat="43.51863" lon="6.2431">
        <ele>160.1</ele>
        <time>2025-07-25T07:03:28.181Z</time>
      </trkpt>
      <trkpt lat="43.51864" lon="6.24304">
        <ele>160.3</ele>
        <time>2025-07-25T07:03:32.271Z</time>
      </trkpt>
      <trkpt lat="43.51865" lon="6.24302">
        <ele>160.9</ele>
        <time>2025-07-25T07:03:33.862Z</time>
      </trkpt>
      <trkpt lat="43.51867" lon="6.24293">
        <ele>161.5</ele>
        <time>2025-07-25T07:03:40.125Z</time>
      </trkpt>
      <trkpt lat="43.51869" lon="6.24284">
        <ele>161.9</ele>
        <time>2025-07-25T07:03:46.388Z</time>
      </trkpt>
      <trkpt lat="43.5187" lon="6.24274">
        <ele>161.8</ele>
        <time>2025-07-25T07:03:52.651Z</time>
      </trkpt>
      <trkpt lat="43.51872" lon="6.24265">
        <ele>163</ele>
        <time>2025-07-25T07:03:58.914Z</time>
      </trkpt>
      <trkpt lat="43.51873" lon="6.24259">
        <ele>163.5</ele>
        <time>2025-07-25T07:04:03.196Z</time>
      </trkpt>
      <trkpt lat="43.51873" lon="6.24252">
        <ele>163.4</ele>
        <time>2025-07-25T07:04:07.478Z</time>
      </trkpt>
      <trkpt lat="43.51873" lon="6.24244">
        <ele>164.2</ele>
        <time>2025-07-25T07:04:12.719Z</time>
      </trkpt>
      <trkpt lat="43.51873" lon="6.24236">
        <ele>165.1</ele>
        <time>2025-07-25T07:04:17.960Z</time>
      </trkpt>
      <trkpt lat="43.51873" lon="6.24229">
        <ele>166</ele>
        <time>2025-07-25T07:04:22.894Z</time>
      </trkpt>
      <trkpt lat="43.51872" lon="6.24221">
        <ele>166.5</ele>
        <time>2025-07-25T07:04:27.828Z</time>
      </trkpt>
      <trkpt lat="43.51871" lon="6.24212">
        <ele>167.7</ele>
        <time>2025-07-25T07:04:33.793Z</time>
      </trkpt>
      <trkpt lat="43.5187" lon="6.24203">
        <ele>168.8</ele>
        <time>2025-07-25T07:04:39.758Z</time>
      </trkpt>
      <trkpt lat="43.5187" lon="6.24203">
        <ele>168.8</ele>
        <time>2025-07-25T07:04:39.758Z</time>
      </trkpt>
      <trkpt lat="43.51869" lon="6.24191">
        <ele>170.2</ele>
        <time>2025-07-25T07:04:47.736Z</time>
      </trkpt>
      <trkpt lat="43.51867" lon="6.24179">
        <ele>171</ele>
        <time>2025-07-25T07:04:55.714Z</time>
      </trkpt>
      <trkpt lat="43.51866" lon="6.24168">
        <ele>172.4</ele>
        <time>2025-07-25T07:05:03.303Z</time>
      </trkpt>
      <trkpt lat="43.51865" lon="6.24156">
        <ele>174.4</ele>
        <time>2025-07-25T07:05:10.892Z</time>
      </trkpt>
      <trkpt lat="43.51863" lon="6.2415">
        <ele>174.9</ele>
        <time>2025-07-25T07:05:15.426Z</time>
      </trkpt>
      <trkpt lat="43.5186" lon="6.24144">
        <ele>175.1</ele>
        <time>2025-07-25T07:05:19.960Z</time>
      </trkpt>
      <trkpt lat="43.51858" lon="6.24138">
        <ele>175.4</ele>
        <time>2025-07-25T07:05:24.494Z</time>
      </trkpt>
      <trkpt lat="43.51855" lon="6.24132">
        <ele>174.8</ele>
        <time>2025-07-25T07:05:29.028Z</time>
      </trkpt>
      <trkpt lat="43.51852" lon="6.24127">
        <ele>174.3</ele>
        <time>2025-07-25T07:05:33.537Z</time>
      </trkpt>
      <trkpt lat="43.51849" lon="6.24121">
        <ele>174.4</ele>
        <time>2025-07-25T07:05:38.046Z</time>
      </trkpt>
      <trkpt lat="43.51846" lon="6.24116">
        <ele>174.4</ele>
        <time>2025-07-25T07:05:42.555Z</time>
      </trkpt>
      <trkpt lat="43.51843" lon="6.2411">
        <ele>174.9</ele>
        <time>2025-07-25T07:05:47.064Z</time>
      </trkpt>
      <trkpt lat="43.51837" lon="6.24103">
        <ele>174.3</ele>
        <time>2025-07-25T07:05:54.165Z</time>
      </trkpt>
      <trkpt lat="43.51831" lon="6.24096">
        <ele>174.3</ele>
        <time>2025-07-25T07:06:01.267Z</time>
      </trkpt>
      <trkpt lat="43.51827" lon="6.24093">
        <ele>174.3</ele>
        <time>2025-07-25T07:06:05.658Z</time>
      </trkpt>
      <trkpt lat="43.51823" lon="6.2409">
        <ele>174.5</ele>
        <time>2025-07-25T07:06:10.049Z</time>
      </trkpt>
      <trkpt lat="43.51818" lon="6.24086">
        <ele>175.1</ele>
        <time>2025-07-25T07:06:14.440Z</time>
      </trkpt>
      <trkpt lat="43.51814" lon="6.24083">
        <ele>175.6</ele>
        <time>2025-07-25T07:06:18.831Z</time>
      </trkpt>
      <trkpt lat="43.51812" lon="6.24082">
        <ele>175.5</ele>
        <time>2025-07-25T07:06:20.753Z</time>
      </trkpt>
      <trkpt lat="43.51814" lon="6.24076">
        <ele>175.7</ele>
        <time>2025-07-25T07:06:25.081Z</time>
      </trkpt>
      <trkpt lat="43.5181" lon="6.24067">
        <ele>175.7</ele>
        <time>2025-07-25T07:06:32.000Z</time>
      </trkpt>
      <trkpt lat="43.5181" lon="6.24058">
        <ele>175.9</ele>
        <time>2025-07-25T07:06:36.999Z</time>
      </trkpt>
      <trkpt lat="43.51809" lon="6.24048">
        <ele>175.7</ele>
        <time>2025-07-25T07:06:42.000Z</time>
      </trkpt>
      <trkpt lat="43.51809" lon="6.24038">
        <ele>175.4</ele>
        <time>2025-07-25T07:06:46.999Z</time>
      </trkpt>
      <trkpt lat="43.51808" lon="6.24028">
        <ele>175</ele>
        <time>2025-07-25T07:06:52.000Z</time>
      </trkpt>
      <trkpt lat="43.51809" lon="6.2402">
        <ele>175</ele>
        <time>2025-07-25T07:06:57.000Z</time>
      </trkpt>
      <trkpt lat="43.51809" lon="6.24012">
        <ele>174.9</ele>
        <time>2025-07-25T07:07:02.000Z</time>
      </trkpt>
      <trkpt lat="43.51814" lon="6.2401">
        <ele>174.8</ele>
        <time>2025-07-25T07:07:07.000Z</time>
      </trkpt>
      <trkpt lat="43.51818" lon="6.24007">
        <ele>174.7</ele>
        <time>2025-07-25T07:07:12.000Z</time>
      </trkpt>
      <trkpt lat="43.51823" lon="6.24007">
        <ele>174.5</ele>
        <time>2025-07-25T07:07:17.000Z</time>
      </trkpt>
      <trkpt lat="43.51828" lon="6.24006">
        <ele>174.4</ele>
        <time>2025-07-25T07:07:22.000Z</time>
      </trkpt>
      <trkpt lat="43.51834" lon="6.24004">
        <ele>174.2</ele>
        <time>2025-07-25T07:07:27.000Z</time>
      </trkpt>
      <trkpt lat="43.5184" lon="6.24002">
        <ele>174.3</ele>
        <time>2025-07-25T07:07:32.000Z</time>
      </trkpt>
      <trkpt lat="43.51842" lon="6.24002">
        <ele>174.4</ele>
        <time>2025-07-25T07:07:33.993Z</time>
      </trkpt>
      <trkpt lat="43.51842" lon="6.24">
        <ele>174.3</ele>
        <time>2025-07-25T07:07:35.438Z</time>
      </trkpt>
      <trkpt lat="43.51847" lon="6.23999">
        <ele>174.5</ele>
        <time>2025-07-25T07:07:40.698Z</time>
      </trkpt>
      <trkpt lat="43.51853" lon="6.23999">
        <ele>174.7</ele>
        <time>2025-07-25T07:07:45.958Z</time>
      </trkpt>
      <trkpt lat="43.51858" lon="6.23998">
        <ele>174.8</ele>
        <time>2025-07-25T07:07:51.218Z</time>
      </trkpt>
      <trkpt lat="43.51863" lon="6.23997">
        <ele>175</ele>
        <time>2025-07-25T07:07:56.478Z</time>
      </trkpt>
      <trkpt lat="43.51867" lon="6.23997">
        <ele>175.1</ele>
        <time>2025-07-25T07:08:00.464Z</time>
      </trkpt>
      <trkpt lat="43.5187" lon="6.23998">
        <ele>175.2</ele>
        <time>2025-07-25T07:08:03.539Z</time>
      </trkpt>
      <trkpt lat="43.51871" lon="6.24">
        <ele>175.4</ele>
        <time>2025-07-25T07:08:05.294Z</time>
      </trkpt>
      <trkpt lat="43.51873" lon="6.23998">
        <ele>175.3</ele>
        <time>2025-07-25T07:08:07.756Z</time>
      </trkpt>
      <trkpt lat="43.51875" lon="6.23996">
        <ele>175.3</ele>
        <time>2025-07-25T07:08:10.218Z</time>
      </trkpt>
      <trkpt lat="43.51878" lon="6.23994">
        <ele>175.3</ele>
        <time>2025-07-25T07:08:13.538Z</time>
      </trkpt>
      <trkpt lat="43.51884" lon="6.23994">
        <ele>175.4</ele>
        <time>2025-07-25T07:08:19.031Z</time>
      </trkpt>
      <trkpt lat="43.51889" lon="6.23993">
        <ele>175.5</ele>
        <time>2025-07-25T07:08:24.524Z</time>
      </trkpt>
      <trkpt lat="43.51894" lon="6.23993">
        <ele>175.5</ele>
        <time>2025-07-25T07:08:29.023Z</time>
      </trkpt>
      <trkpt lat="43.51898" lon="6.23992">
        <ele>175.4</ele>
        <time>2025-07-25T07:08:33.522Z</time>
      </trkpt>
      <trkpt lat="43.51903" lon="6.23993">
        <ele>175.5</ele>
        <time>2025-07-25T07:08:38.064Z</time>
      </trkpt>
      <trkpt lat="43.51907" lon="6.23994">
        <ele>175.6</ele>
        <time>2025-07-25T07:08:42.606Z</time>
      </trkpt>
      <trkpt lat="43.51914" lon="6.23993">
        <ele>175.5</ele>
        <time>2025-07-25T07:08:49.124Z</time>
      </trkpt>
      <trkpt lat="43.5192" lon="6.23992">
        <ele>175.7</ele>
        <time>2025-07-25T07:08:55.642Z</time>
      </trkpt>
      <trkpt lat="43.51925" lon="6.2399">
        <ele>175.9</ele>
        <time>2025-07-25T07:09:00.830Z</time>
      </trkpt>
      <trkpt lat="43.5193" lon="6.23988">
        <ele>176.1</ele>
        <time>2025-07-25T07:09:06.018Z</time>
      </trkpt>
      <trkpt lat="43.51935" lon="6.23985">
        <ele>176.2</ele>
        <time>2025-07-25T07:09:11.452Z</time>
      </trkpt>
      <trkpt lat="43.5194" lon="6.23982">
        <ele>176.4</ele>
        <time>2025-07-25T07:09:16.886Z</time>
      </trkpt>
      <trkpt lat="43.51945" lon="6.23978">
        <ele>176.5</ele>
        <time>2025-07-25T07:09:22.221Z</time>
      </trkpt>
      <trkpt lat="43.51949" lon="6.23974">
        <ele>176.5</ele>
        <time>2025-07-25T07:09:27.556Z</time>
      </trkpt>
      <trkpt lat="43.51954" lon="6.2397">
        <ele>176.5</ele>
        <time>2025-07-25T07:09:32.891Z</time>
      </trkpt>
      <trkpt lat="43.51958" lon="6.23966">
        <ele>176.5</ele>
        <time>2025-07-25T07:09:38.226Z</time>
      </trkpt>
      <trkpt lat="43.51963" lon="6.23962">
        <ele>176.6</ele>
        <time>2025-07-25T07:09:43.561Z</time>
      </trkpt>
      <trkpt lat="43.51967" lon="6.23958">
        <ele>176.6</ele>
        <time>2025-07-25T07:09:48.896Z</time>
      </trkpt>
      <trkpt lat="43.51973" lon="6.23956">
        <ele>176.9</ele>
        <time>2025-07-25T07:09:54.764Z</time>
      </trkpt>
      <trkpt lat="43.51979" lon="6.23955">
        <ele>177.2</ele>
        <time>2025-07-25T07:10:00.632Z</time>
      </trkpt>
      <trkpt lat="43.51984" lon="6.23953">
        <ele>177.5</ele>
        <time>2025-07-25T07:10:06.500Z</time>
      </trkpt>
      <trkpt lat="43.5199" lon="6.23951">
        <ele>177.8</ele>
        <time>2025-07-25T07:10:12.368Z</time>
      </trkpt>
      <trkpt lat="43.51995" lon="6.23951">
        <ele>178.1</ele>
        <time>2025-07-25T07:10:16.867Z</time>
      </trkpt>
      <trkpt lat="43.51999" lon="6.2395">
        <ele>178.3</ele>
        <time>2025-07-25T07:10:21.366Z</time>
      </trkpt>
      <trkpt lat="43.52004" lon="6.2395">
        <ele>178.4</ele>
        <time>2025-07-25T07:10:25.865Z</time>
      </trkpt>
      <trkpt lat="43.52008" lon="6.23949">
        <ele>178.3</ele>
        <time>2025-07-25T07:10:30.364Z</time>
      </trkpt>
      <trkpt lat="43.52014" lon="6.2395">
        <ele>178.4</ele>
        <time>2025-07-25T07:10:36.354Z</time>
      </trkpt>
      <trkpt lat="43.5202" lon="6.2395">
        <ele>178.4</ele>
        <time>2025-07-25T07:10:42.344Z</time>
      </trkpt>
      <trkpt lat="43.52026" lon="6.23951">
        <ele>178.5</ele>
        <time>2025-07-25T07:10:48.334Z</time>
      </trkpt>
      <trkpt lat="43.52032" lon="6.23951">
        <ele>178.5</ele>
        <time>2025-07-25T07:10:54.324Z</time>
      </trkpt>
      <trkpt lat="43.52037" lon="6.23951">
        <ele>178.5</ele>
        <time>2025-07-25T07:10:59.307Z</time>
      </trkpt>
      <trkpt lat="43.52042" lon="6.23951">
        <ele>178.5</ele>
        <time>2025-07-25T07:11:04.290Z</time>
      </trkpt>
      <trkpt lat="43.52048" lon="6.23951">
        <ele>178.5</ele>
        <time>2025-07-25T07:11:09.771Z</time>
      </trkpt>
      <trkpt lat="43.52053" lon="6.23951">
        <ele>178.5</ele>
        <time>2025-07-25T07:11:15.252Z</time>
      </trkpt>
      <trkpt lat="43.52059" lon="6.23951">
        <ele>178.6</ele>
        <time>2025-07-25T07:11:20.733Z</time>
      </trkpt>
      <trkpt lat="43.52064" lon="6.23951">
        <ele>178.8</ele>
        <time>2025-07-25T07:11:26.214Z</time>
      </trkpt>
      <trkpt lat="43.52069" lon="6.23951">
        <ele>178.9</ele>
        <time>2025-07-25T07:11:30.458Z</time>
      </trkpt>
      <trkpt lat="43.52073" lon="6.2395">
        <ele>179</ele>
        <time>2025-07-25T07:11:34.702Z</time>
      </trkpt>
      <trkpt lat="43.52081" lon="6.2395">
        <ele>179.3</ele>
        <time>2025-07-25T07:11:43.190Z</time>
      </trkpt>
      <trkpt lat="43.52086" lon="6.2395">
        <ele>179.5</ele>
        <time>2025-07-25T07:11:47.434Z</time>
      </trkpt>
      <trkpt lat="43.5209" lon="6.23949">
        <ele>179.6</ele>
        <time>2025-07-25T07:11:51.678Z</time>
      </trkpt>
      <trkpt lat="43.52098" lon="6.23948">
        <ele>179.9</ele>
        <time>2025-07-25T07:12:00.166Z</time>
      </trkpt>
      <trkpt lat="43.52102" lon="6.23946">
        <ele>179.8</ele>
        <time>2025-07-25T07:12:04.406Z</time>
      </trkpt>
      <trkpt lat="43.52109" lon="6.23944">
        <ele>179.9</ele>
        <time>2025-07-25T07:12:11.131Z</time>
      </trkpt>
      <trkpt lat="43.52115" lon="6.23941">
        <ele>179.6</ele>
        <time>2025-07-25T07:12:17.856Z</time>
      </trkpt>
      <trkpt lat="43.5212" lon="6.2394">
        <ele>179.7</ele>
        <time>2025-07-25T07:12:22.620Z</time>
      </trkpt>
      <trkpt lat="43.52125" lon="6.2394">
        <ele>179.9</ele>
        <time>2025-07-25T07:12:27.384Z</time>
      </trkpt>
      <trkpt lat="43.52129" lon="6.23939">
        <ele>179.9</ele>
        <time>2025-07-25T07:12:32.148Z</time>
      </trkpt>
      <trkpt lat="43.52134" lon="6.23938">
        <ele>179.9</ele>
        <time>2025-07-25T07:12:36.912Z</time>
      </trkpt>
      <trkpt lat="43.52141" lon="6.23938">
        <ele>180.1</ele>
        <time>2025-07-25T07:12:43.897Z</time>
      </trkpt>
      <trkpt lat="43.52148" lon="6.23937">
        <ele>180.3</ele>
        <time>2025-07-25T07:12:50.882Z</time>
      </trkpt>
      <trkpt lat="43.52154" lon="6.23937">
        <ele>180.5</ele>
        <time>2025-07-25T07:12:56.861Z</time>
      </trkpt>
      <trkpt lat="43.5216" lon="6.23937">
        <ele>180.7</ele>
        <time>2025-07-25T07:13:02.342Z</time>
      </trkpt>
      <trkpt lat="43.52165" lon="6.23937">
        <ele>180.9</ele>
        <time>2025-07-25T07:13:07.823Z</time>
      </trkpt>
      <trkpt lat="43.52171" lon="6.23938">
        <ele>181</ele>
        <time>2025-07-25T07:13:13.813Z</time>
      </trkpt>
      <trkpt lat="43.52177" lon="6.23938">
        <ele>180.8</ele>
        <time>2025-07-25T07:13:19.803Z</time>
      </trkpt>
      <trkpt lat="43.52183" lon="6.23939">
        <ele>180.7</ele>
        <time>2025-07-25T07:13:26.042Z</time>
      </trkpt>
      <trkpt lat="43.5219" lon="6.23939">
        <ele>180.5</ele>
        <time>2025-07-25T07:13:32.281Z</time>
      </trkpt>
      <trkpt lat="43.52196" lon="6.2394">
        <ele>180.4</ele>
        <time>2025-07-25T07:13:38.520Z</time>
      </trkpt>
      <trkpt lat="43.52202" lon="6.2394">
        <ele>179.7</ele>
        <time>2025-07-25T07:13:44.759Z</time>
      </trkpt>
      <trkpt lat="43.52209" lon="6.23941">
        <ele>179.1</ele>
        <time>2025-07-25T07:13:51.772Z</time>
      </trkpt>
      <trkpt lat="43.52216" lon="6.23948">
        <ele>178.9</ele>
        <time>2025-07-25T07:14:00.389Z</time>
      </trkpt>
      <trkpt lat="43.52218" lon="6.23956">
        <ele>179.3</ele>
        <time>2025-07-25T07:14:06.504Z</time>
      </trkpt>
      <trkpt lat="43.5222" lon="6.23964">
        <ele>179.6</ele>
        <time>2025-07-25T07:14:12.619Z</time>
      </trkpt>
      <trkpt lat="43.52223" lon="6.23975">
        <ele>180.3</ele>
        <time>2025-07-25T07:14:20.774Z</time>
      </trkpt>
      <trkpt lat="43.52226" lon="6.23985">
        <ele>181.6</ele>
        <time>2025-07-25T07:14:28.929Z</time>
      </trkpt>
      <trkpt lat="43.5223" lon="6.23993">
        <ele>182.4</ele>
        <time>2025-07-25T07:14:35.951Z</time>
      </trkpt>
      <trkpt lat="43.52234" lon="6.24003">
        <ele>183.7</ele>
        <time>2025-07-25T07:14:44.204Z</time>
      </trkpt>
      <trkpt lat="43.52234" lon="6.24004">
        <ele>183.9</ele>
        <time>2025-07-25T07:14:44.926Z</time>
      </trkpt>
      <trkpt lat="43.52233" lon="6.24005">
        <ele>184.2</ele>
        <time>2025-07-25T07:14:46.157Z</time>
      </trkpt>
      <trkpt lat="43.52234" lon="6.24004">
        <ele>183.9</ele>
        <time>2025-07-25T07:14:47.388Z</time>
      </trkpt>
      <trkpt lat="43.52237" lon="6.24009">
        <ele>184.7</ele>
        <time>2025-07-25T07:14:52.240Z</time>
      </trkpt>
      <trkpt lat="43.52241" lon="6.24014">
        <ele>185.5</ele>
        <time>2025-07-25T07:14:57.092Z</time>
      </trkpt>
      <trkpt lat="43.52244" lon="6.24019">
        <ele>186.4</ele>
        <time>2025-07-25T07:15:01.944Z</time>
      </trkpt>
      <trkpt lat="43.52247" lon="6.24024">
        <ele>187.3</ele>
        <time>2025-07-25T07:15:06.796Z</time>
      </trkpt>
      <trkpt lat="43.52251" lon="6.24029">
        <ele>188.1</ele>
        <time>2025-07-25T07:15:12.299Z</time>
      </trkpt>
      <trkpt lat="43.52255" lon="6.24035">
        <ele>188.9</ele>
        <time>2025-07-25T07:15:17.802Z</time>
      </trkpt>
      <trkpt lat="43.52259" lon="6.2404">
        <ele>189.5</ele>
        <time>2025-07-25T07:15:23.305Z</time>
      </trkpt>
      <trkpt lat="43.52263" lon="6.24045">
        <ele>190.1</ele>
        <time>2025-07-25T07:15:28.808Z</time>
      </trkpt>
      <trkpt lat="43.52267" lon="6.24051">
        <ele>191.1</ele>
        <time>2025-07-25T07:15:34.372Z</time>
      </trkpt>
      <trkpt lat="43.5227" lon="6.24057">
        <ele>192.2</ele>
        <time>2025-07-25T07:15:39.936Z</time>
      </trkpt>
      <trkpt lat="43.52273" lon="6.24062">
        <ele>193.2</ele>
        <time>2025-07-25T07:15:44.328Z</time>
      </trkpt>
      <trkpt lat="43.52276" lon="6.24067">
        <ele>194.1</ele>
        <time>2025-07-25T07:15:48.721Z</time>
      </trkpt>
      <trkpt lat="43.52281" lon="6.24076">
        <ele>195</ele>
        <time>2025-07-25T07:15:57.506Z</time>
      </trkpt>
      <trkpt lat="43.52284" lon="6.24083">
        <ele>195.5</ele>
        <time>2025-07-25T07:16:03.382Z</time>
      </trkpt>
      <trkpt lat="43.52287" lon="6.2409">
        <ele>195.5</ele>
        <time>2025-07-25T07:16:09.258Z</time>
      </trkpt>
      <trkpt lat="43.52289" lon="6.24096">
        <ele>195.6</ele>
        <time>2025-07-25T07:16:14.030Z</time>
      </trkpt>
      <trkpt lat="43.52289" lon="6.24107">
        <ele>197.3</ele>
        <time>2025-07-25T07:16:22.163Z</time>
      </trkpt>
      <trkpt lat="43.52289" lon="6.24119">
        <ele>198.6</ele>
        <time>2025-07-25T07:16:30.296Z</time>
      </trkpt>
      <trkpt lat="43.52288" lon="6.2413">
        <ele>200.2</ele>
        <time>2025-07-25T07:16:38.429Z</time>
      </trkpt>
      <trkpt lat="43.52288" lon="6.24141">
        <ele>200.9</ele>
        <time>2025-07-25T07:16:46.562Z</time>
      </trkpt>
      <trkpt lat="43.52287" lon="6.24148">
        <ele>201.1</ele>
        <time>2025-07-25T07:16:51.717Z</time>
      </trkpt>
      <trkpt lat="43.52286" lon="6.24155">
        <ele>201.5</ele>
        <time>2025-07-25T07:16:56.872Z</time>
      </trkpt>
      <trkpt lat="43.52286" lon="6.24162">
        <ele>201.1</ele>
        <time>2025-07-25T07:17:01.661Z</time>
      </trkpt>
      <trkpt lat="43.52286" lon="6.24168">
        <ele>200.8</ele>
        <time>2025-07-25T07:17:06.450Z</time>
      </trkpt>
      <trkpt lat="43.52286" lon="6.24175">
        <ele>200.4</ele>
        <time>2025-07-25T07:17:11.239Z</time>
      </trkpt>
      <trkpt lat="43.52286" lon="6.24182">
        <ele>199.9</ele>
        <time>2025-07-25T07:17:16.028Z</time>
      </trkpt>
      <trkpt lat="43.52285" lon="6.24188">
        <ele>200.6</ele>
        <time>2025-07-25T07:17:20.817Z</time>
      </trkpt>
      <trkpt lat="43.52285" lon="6.24195">
        <ele>200.2</ele>
        <time>2025-07-25T07:17:25.606Z</time>
      </trkpt>
      <trkpt lat="43.52285" lon="6.24201">
        <ele>200.2</ele>
        <time>2025-07-25T07:17:30.395Z</time>
      </trkpt>
      <trkpt lat="43.52285" lon="6.24208">
        <ele>200.2</ele>
        <time>2025-07-25T07:17:35.184Z</time>
      </trkpt>
      <trkpt lat="43.52286" lon="6.24219">
        <ele>199</ele>
        <time>2025-07-25T07:17:42.988Z</time>
      </trkpt>
      <trkpt lat="43.52287" lon="6.2423">
        <ele>198.6</ele>
        <time>2025-07-25T07:17:50.792Z</time>
      </trkpt>
      <trkpt lat="43.52287" lon="6.2424">
        <ele>199.8</ele>
        <time>2025-07-25T07:17:58.596Z</time>
      </trkpt>
      <trkpt lat="43.52288" lon="6.24251">
        <ele>199.9</ele>
        <time>2025-07-25T07:18:06.400Z</time>
      </trkpt>
      <trkpt lat="43.52289" lon="6.24262">
        <ele>199.7</ele>
        <time>2025-07-25T07:18:14.204Z</time>
      </trkpt>
      <trkpt lat="43.5229" lon="6.24273">
        <ele>199.7</ele>
        <time>2025-07-25T07:18:22.008Z</time>
      </trkpt>
      <trkpt lat="43.5229" lon="6.24283">
        <ele>200.9</ele>
        <time>2025-07-25T07:18:29.812Z</time>
      </trkpt>
      <trkpt lat="43.52291" lon="6.24294">
        <ele>201.7</ele>
        <time>2025-07-25T07:18:37.616Z</time>
      </trkpt>
      <trkpt lat="43.52293" lon="6.243">
        <ele>200.9</ele>
        <time>2025-07-25T07:18:42.179Z</time>
      </trkpt>
      <trkpt lat="43.52296" lon="6.24305">
        <ele>199.2</ele>
        <time>2025-07-25T07:18:46.742Z</time>
      </trkpt>
      <trkpt lat="43.52298" lon="6.24311">
        <ele>199</ele>
        <time>2025-07-25T07:18:51.305Z</time>
      </trkpt>
      <trkpt lat="43.523" lon="6.24316">
        <ele>198.7</ele>
        <time>2025-07-25T07:18:55.868Z</time>
      </trkpt>
      <trkpt lat="43.52303" lon="6.24322">
        <ele>197.8</ele>
        <time>2025-07-25T07:19:00.841Z</time>
      </trkpt>
      <trkpt lat="43.52306" lon="6.24327">
        <ele>196.9</ele>
        <time>2025-07-25T07:19:05.814Z</time>
      </trkpt>
      <trkpt lat="43.52309" lon="6.24333">
        <ele>196.5</ele>
        <time>2025-07-25T07:19:10.787Z</time>
      </trkpt>
      <trkpt lat="43.52312" lon="6.24338">
        <ele>196.5</ele>
        <time>2025-07-25T07:19:15.760Z</time>
      </trkpt>
      <trkpt lat="43.52318" lon="6.24347">
        <ele>196.1</ele>
        <time>2025-07-25T07:19:23.992Z</time>
      </trkpt>
      <trkpt lat="43.52323" lon="6.24355">
        <ele>196.1</ele>
        <time>2025-07-25T07:19:32.224Z</time>
      </trkpt>
      <trkpt lat="43.52329" lon="6.24362">
        <ele>195.3</ele>
        <time>2025-07-25T07:19:39.828Z</time>
      </trkpt>
      <trkpt lat="43.52335" lon="6.24368">
        <ele>195.6</ele>
        <time>2025-07-25T07:19:47.432Z</time>
      </trkpt>
      <trkpt lat="43.5234" lon="6.24372">
        <ele>195.9</ele>
        <time>2025-07-25T07:19:52.767Z</time>
      </trkpt>
      <trkpt lat="43.52344" lon="6.24376">
        <ele>196.4</ele>
        <time>2025-07-25T07:19:58.102Z</time>
      </trkpt>
      <trkpt lat="43.52352" lon="6.2438">
        <ele>195</ele>
        <time>2025-07-25T07:20:06.582Z</time>
      </trkpt>
      <trkpt lat="43.52359" lon="6.24382">
        <ele>192.8</ele>
        <time>2025-07-25T07:20:13.150Z</time>
      </trkpt>
      <trkpt lat="43.52365" lon="6.24383">
        <ele>191.4</ele>
        <time>2025-07-25T07:20:19.718Z</time>
      </trkpt>
      <trkpt lat="43.5237" lon="6.24384">
        <ele>190.9</ele>
        <time>2025-07-25T07:20:24.962Z</time>
      </trkpt>
      <trkpt lat="43.52376" lon="6.24384">
        <ele>189.7</ele>
        <time>2025-07-25T07:20:30.206Z</time>
      </trkpt>
      <trkpt lat="43.52381" lon="6.24385">
        <ele>189.2</ele>
        <time>2025-07-25T07:20:35.450Z</time>
      </trkpt>
      <trkpt lat="43.52386" lon="6.24385">
        <ele>188.2</ele>
        <time>2025-07-25T07:20:40.694Z</time>
      </trkpt>
      <trkpt lat="43.52394" lon="6.24387">
        <ele>188.3</ele>
        <time>2025-07-25T07:20:48.797Z</time>
      </trkpt>
      <trkpt lat="43.52401" lon="6.24389">
        <ele>188.8</ele>
        <time>2025-07-25T07:20:55.365Z</time>
      </trkpt>
      <trkpt lat="43.52407" lon="6.2439">
        <ele>188.7</ele>
        <time>2025-07-25T07:21:01.933Z</time>
      </trkpt>
      <trkpt lat="43.52412" lon="6.2439">
        <ele>188.1</ele>
        <time>2025-07-25T07:21:07.168Z</time>
      </trkpt>
      <trkpt lat="43.52418" lon="6.2439">
        <ele>187.6</ele>
        <time>2025-07-25T07:21:12.403Z</time>
      </trkpt>
      <trkpt lat="43.52423" lon="6.24389">
        <ele>187.3</ele>
        <time>2025-07-25T07:21:17.638Z</time>
      </trkpt>
      <trkpt lat="43.52428" lon="6.24389">
        <ele>187.5</ele>
        <time>2025-07-25T07:21:22.873Z</time>
      </trkpt>
      <trkpt lat="43.52433" lon="6.24389">
        <ele>187.6</ele>
        <time>2025-07-25T07:21:28.108Z</time>
      </trkpt>
      <trkpt lat="43.52439" lon="6.24389">
        <ele>187.9</ele>
        <time>2025-07-25T07:21:33.343Z</time>
      </trkpt>
      <trkpt lat="43.52444" lon="6.24388">
        <ele>187.6</ele>
        <time>2025-07-25T07:21:38.578Z</time>
      </trkpt>
      <trkpt lat="43.52449" lon="6.24388">
        <ele>187.9</ele>
        <time>2025-07-25T07:21:43.813Z</time>
      </trkpt>
      <trkpt lat="43.52456" lon="6.24388">
        <ele>188.4</ele>
        <time>2025-07-25T07:21:50.789Z</time>
      </trkpt>
      <trkpt lat="43.52463" lon="6.24388">
        <ele>188.9</ele>
        <time>2025-07-25T07:21:57.765Z</time>
      </trkpt>
      <trkpt lat="43.5247" lon="6.24388">
        <ele>189.5</ele>
        <time>2025-07-25T07:22:04.741Z</time>
      </trkpt>
      <trkpt lat="43.52477" lon="6.24388">
        <ele>190.3</ele>
        <time>2025-07-25T07:22:11.717Z</time>
      </trkpt>
      <trkpt lat="43.52484" lon="6.24386">
        <ele>190.6</ele>
        <time>2025-07-25T07:22:18.841Z</time>
      </trkpt>
      <trkpt lat="43.52491" lon="6.24381">
        <ele>190.1</ele>
        <time>2025-07-25T07:22:26.258Z</time>
      </trkpt>
      <trkpt lat="43.52497" lon="6.24376">
        <ele>189.7</ele>
        <time>2025-07-25T07:22:33.675Z</time>
      </trkpt>
      <trkpt lat="43.52498" lon="6.24378">
        <ele>190.5</ele>
        <time>2025-07-25T07:22:35.430Z</time>
      </trkpt>
      <trkpt lat="43.52497" lon="6.24376">
        <ele>189.7</ele>
        <time>2025-07-25T07:22:37.185Z</time>
      </trkpt>
      <trkpt lat="43.52504" lon="6.24371">
        <ele>188.7</ele>
        <time>2025-07-25T07:22:44.785Z</time>
      </trkpt>
      <trkpt lat="43.5251" lon="6.24365">
        <ele>187</ele>
        <time>2025-07-25T07:22:52.385Z</time>
      </trkpt>
      <trkpt lat="43.52516" lon="6.24364">
        <ele>186.7</ele>
        <time>2025-07-25T07:22:58.408Z</time>
      </trkpt>
      <trkpt lat="43.52524" lon="6.24364">
        <ele>186.7</ele>
        <time>2025-07-25T07:23:06.381Z</time>
      </trkpt>
      <trkpt lat="43.52529" lon="6.24366">
        <ele>187.1</ele>
        <time>2025-07-25T07:23:11.569Z</time>
      </trkpt>
      <trkpt lat="43.52534" lon="6.24368">
        <ele>187.5</ele>
        <time>2025-07-25T07:23:16.757Z</time>
      </trkpt>
      <trkpt lat="43.5254" lon="6.24371">
        <ele>187.9</ele>
        <time>2025-07-25T07:23:22.528Z</time>
      </trkpt>
      <trkpt lat="43.52545" lon="6.24373">
        <ele>188.1</ele>
        <time>2025-07-25T07:23:28.299Z</time>
      </trkpt>
      <trkpt lat="43.52553" lon="6.24377">
        <ele>188.3</ele>
        <time>2025-07-25T07:23:36.780Z</time>
      </trkpt>
      <trkpt lat="43.52561" lon="6.24381">
        <ele>188.4</ele>
        <time>2025-07-25T07:23:45.261Z</time>
      </trkpt>
      <trkpt lat="43.52569" lon="6.24385">
        <ele>188.7</ele>
        <time>2025-07-25T07:23:53.275Z</time>
      </trkpt>
      <trkpt lat="43.52576" lon="6.24389">
        <ele>189</ele>
        <time>2025-07-25T07:24:01.289Z</time>
      </trkpt>
      <trkpt lat="43.52581" lon="6.24392">
        <ele>189.3</ele>
        <time>2025-07-25T07:24:06.356Z</time>
      </trkpt>
      <trkpt lat="43.52586" lon="6.24394">
        <ele>189.6</ele>
        <time>2025-07-25T07:24:11.423Z</time>
      </trkpt>
      <trkpt lat="43.5259" lon="6.24397">
        <ele>189.9</ele>
        <time>2025-07-25T07:24:16.490Z</time>
      </trkpt>
      <trkpt lat="43.52595" lon="6.24399">
        <ele>190.1</ele>
        <time>2025-07-25T07:24:21.557Z</time>
      </trkpt>
      <trkpt lat="43.52603" lon="6.24402">
        <ele>190.4</ele>
        <time>2025-07-25T07:24:29.339Z</time>
      </trkpt>
      <trkpt lat="43.5261" lon="6.24405">
        <ele>190.7</ele>
        <time>2025-07-25T07:24:37.121Z</time>
      </trkpt>
      <trkpt lat="43.52618" lon="6.24408">
        <ele>191.4</ele>
        <time>2025-07-25T07:24:45.143Z</time>
      </trkpt>
      <trkpt lat="43.52626" lon="6.24411">
        <ele>192</ele>
        <time>2025-07-25T07:24:53.165Z</time>
      </trkpt>
      <trkpt lat="43.52633" lon="6.24414">
        <ele>192.6</ele>
        <time>2025-07-25T07:25:01.187Z</time>
      </trkpt>
      <trkpt lat="43.52641" lon="6.24417">
        <ele>193</ele>
        <time>2025-07-25T07:25:09.209Z</time>
      </trkpt>
      <trkpt lat="43.52645" lon="6.2442">
        <ele>193.1</ele>
        <time>2025-07-25T07:25:13.663Z</time>
      </trkpt>
      <trkpt lat="43.52649" lon="6.24423">
        <ele>193.3</ele>
        <time>2025-07-25T07:25:18.117Z</time>
      </trkpt>
      <trkpt lat="43.52657" lon="6.24428">
        <ele>193.6</ele>
        <time>2025-07-25T07:25:27.025Z</time>
      </trkpt>
      <trkpt lat="43.52661" lon="6.24431">
        <ele>193.8</ele>
        <time>2025-07-25T07:25:31.479Z</time>
      </trkpt>
      <trkpt lat="43.52665" lon="6.24434">
        <ele>193.9</ele>
        <time>2025-07-25T07:25:35.933Z</time>
      </trkpt>
      <trkpt lat="43.52673" lon="6.24439">
        <ele>193.8</ele>
        <time>2025-07-25T07:25:44.841Z</time>
      </trkpt>
      <trkpt lat="43.52678" lon="6.24446">
        <ele>193.9</ele>
        <time>2025-07-25T07:25:51.941Z</time>
      </trkpt>
      <trkpt lat="43.52683" lon="6.24453">
        <ele>193.9</ele>
        <time>2025-07-25T07:25:59.041Z</time>
      </trkpt>
      <trkpt lat="43.52687" lon="6.24457">
        <ele>193.7</ele>
        <time>2025-07-25T07:26:03.965Z</time>
      </trkpt>
      <trkpt lat="43.52691" lon="6.24461">
        <ele>193.6</ele>
        <time>2025-07-25T07:26:08.889Z</time>
      </trkpt>
      <trkpt lat="43.52696" lon="6.24464">
        <ele>193.3</ele>
        <time>2025-07-25T07:26:14.095Z</time>
      </trkpt>
      <trkpt lat="43.52701" lon="6.24467">
        <ele>193</ele>
        <time>2025-07-25T07:26:19.301Z</time>
      </trkpt>
      <trkpt lat="43.52705" lon="6.2447">
        <ele>192.8</ele>
        <time>2025-07-25T07:26:24.507Z</time>
      </trkpt>
      <trkpt lat="43.5271" lon="6.24473">
        <ele>192.4</ele>
        <time>2025-07-25T07:26:29.713Z</time>
      </trkpt>
      <trkpt lat="43.52715" lon="6.24481">
        <ele>192.5</ele>
        <time>2025-07-25T07:26:37.345Z</time>
      </trkpt>
      <trkpt lat="43.5272" lon="6.2449">
        <ele>192.6</ele>
        <time>2025-07-25T07:26:45.538Z</time>
      </trkpt>
      <trkpt lat="43.52724" lon="6.24493">
        <ele>192.1</ele>
        <time>2025-07-25T07:26:50.075Z</time>
      </trkpt>
      <trkpt lat="43.52729" lon="6.24503">
        <ele>191.5</ele>
        <time>2025-07-25T07:26:58.852Z</time>
      </trkpt>
      <trkpt lat="43.52734" lon="6.24513">
        <ele>191</ele>
        <time>2025-07-25T07:27:07.629Z</time>
      </trkpt>
      <trkpt lat="43.52736" lon="6.24515">
        <ele>190.6</ele>
        <time>2025-07-25T07:27:10.091Z</time>
      </trkpt>
      <trkpt lat="43.52741" lon="6.24522">
        <ele>189.9</ele>
        <time>2025-07-25T07:27:17.152Z</time>
      </trkpt>
      <trkpt lat="43.52746" lon="6.2453">
        <ele>189</ele>
        <time>2025-07-25T07:27:24.213Z</time>
      </trkpt>
      <trkpt lat="43.5275" lon="6.24537">
        <ele>188</ele>
        <time>2025-07-25T07:27:31.274Z</time>
      </trkpt>
      <trkpt lat="43.52755" lon="6.24544">
        <ele>188.2</ele>
        <time>2025-07-25T07:27:38.335Z</time>
      </trkpt>
      <trkpt lat="43.5276" lon="6.24552">
        <ele>188.4</ele>
        <time>2025-07-25T07:27:45.967Z</time>
      </trkpt>
      <trkpt lat="43.52762" lon="6.24554">
        <ele>188.4</ele>
        <time>2025-07-25T07:27:48.429Z</time>
      </trkpt>
      <trkpt lat="43.52769" lon="6.2456">
        <ele>189.1</ele>
        <time>2025-07-25T07:27:56.224Z</time>
      </trkpt>
      <trkpt lat="43.52775" lon="6.24566">
        <ele>190</ele>
        <time>2025-07-25T07:28:04.019Z</time>
      </trkpt>
      <trkpt lat="43.52782" lon="6.24573">
        <ele>191.1</ele>
        <time>2025-07-25T07:28:12.737Z</time>
      </trkpt>
      <trkpt lat="43.52786" lon="6.24577">
        <ele>191.7</ele>
        <time>2025-07-25T07:28:17.096Z</time>
      </trkpt>
      <trkpt lat="43.5279" lon="6.2458">
        <ele>192.2</ele>
        <time>2025-07-25T07:28:21.455Z</time>
      </trkpt>
      <trkpt lat="43.52797" lon="6.24586">
        <ele>193</ele>
        <time>2025-07-25T07:28:30.173Z</time>
      </trkpt>
      <trkpt lat="43.52804" lon="6.24593">
        <ele>194</ele>
        <time>2025-07-25T07:28:38.891Z</time>
      </trkpt>
      <trkpt lat="43.52807" lon="6.24599">
        <ele>194.7</ele>
        <time>2025-07-25T07:28:43.581Z</time>
      </trkpt>
      <trkpt lat="43.52809" lon="6.24604">
        <ele>195.1</ele>
        <time>2025-07-25T07:28:48.271Z</time>
      </trkpt>
      <trkpt lat="43.52808" lon="6.24607">
        <ele>195.5</ele>
        <time>2025-07-25T07:28:50.656Z</time>
      </trkpt>
      <trkpt lat="43.52812" lon="6.24608">
        <ele>195.5</ele>
        <time>2025-07-25T07:28:54.707Z</time>
      </trkpt>
      <trkpt lat="43.52818" lon="6.24611">
        <ele>195.5</ele>
        <time>2025-07-25T07:29:01.067Z</time>
      </trkpt>
      <trkpt lat="43.52822" lon="6.24616">
        <ele>196</ele>
        <time>2025-07-25T07:29:05.835Z</time>
      </trkpt>
      <trkpt lat="43.52825" lon="6.2462">
        <ele>196.4</ele>
        <time>2025-07-25T07:29:10.603Z</time>
      </trkpt>
      <trkpt lat="43.52829" lon="6.24625">
        <ele>196.7</ele>
        <time>2025-07-25T07:29:16.080Z</time>
      </trkpt>
      <trkpt lat="43.52833" lon="6.24631">
        <ele>197.2</ele>
        <time>2025-07-25T07:29:21.557Z</time>
      </trkpt>
      <trkpt lat="43.52837" lon="6.24636">
        <ele>197.3</ele>
        <time>2025-07-25T07:29:27.034Z</time>
      </trkpt>
      <trkpt lat="43.52841" lon="6.24642">
        <ele>197.6</ele>
        <time>2025-07-25T07:29:32.511Z</time>
      </trkpt>
      <trkpt lat="43.52844" lon="6.24647">
        <ele>197.8</ele>
        <time>2025-07-25T07:29:37.988Z</time>
      </trkpt>
      <trkpt lat="43.52848" lon="6.24652">
        <ele>197.8</ele>
        <time>2025-07-25T07:29:43.465Z</time>
      </trkpt>
      <trkpt lat="43.52852" lon="6.24658">
        <ele>197.8</ele>
        <time>2025-07-25T07:29:48.942Z</time>
      </trkpt>
      <trkpt lat="43.52856" lon="6.24663">
        <ele>197.6</ele>
        <time>2025-07-25T07:29:54.419Z</time>
      </trkpt>
      <trkpt lat="43.52863" lon="6.2467">
        <ele>197.2</ele>
        <time>2025-07-25T07:30:03.036Z</time>
      </trkpt>
      <trkpt lat="43.52868" lon="6.24673">
        <ele>196.8</ele>
        <time>2025-07-25T07:30:08.571Z</time>
      </trkpt>
      <trkpt lat="43.52874" lon="6.24675">
        <ele>195.9</ele>
        <time>2025-07-25T07:30:14.106Z</time>
      </trkpt>
      <trkpt lat="43.52879" lon="6.24678">
        <ele>195.3</ele>
        <time>2025-07-25T07:30:19.641Z</time>
      </trkpt>
      <trkpt lat="43.52884" lon="6.2468">
        <ele>194.4</ele>
        <time>2025-07-25T07:30:25.176Z</time>
      </trkpt>
      <trkpt lat="43.52885" lon="6.24681">
        <ele>194.3</ele>
        <time>2025-07-25T07:30:26.407Z</time>
      </trkpt>
      <trkpt lat="43.52884" lon="6.24683">
        <ele>194.6</ele>
        <time>2025-07-25T07:30:28.162Z</time>
      </trkpt>
      <trkpt lat="43.52885" lon="6.24681">
        <ele>194.3</ele>
        <time>2025-07-25T07:30:29.917Z</time>
      </trkpt>
      <trkpt lat="43.52889" lon="6.24686">
        <ele>193.6</ele>
        <time>2025-07-25T07:30:35.297Z</time>
      </trkpt>
      <trkpt lat="43.52892" lon="6.24694">
        <ele>192.1</ele>
        <time>2025-07-25T07:30:41.261Z</time>
      </trkpt>
      <trkpt lat="43.52894" lon="6.24701">
        <ele>191.2</ele>
        <time>2025-07-25T07:30:47.225Z</time>
      </trkpt>
      <trkpt lat="43.52895" lon="6.24708">
        <ele>190.9</ele>
        <time>2025-07-25T07:30:52.259Z</time>
      </trkpt>
      <trkpt lat="43.52897" lon="6.24715">
        <ele>189.9</ele>
        <time>2025-07-25T07:30:57.293Z</time>
      </trkpt>
      <trkpt lat="43.52898" lon="6.24721">
        <ele>189.4</ele>
        <time>2025-07-25T07:31:02.327Z</time>
      </trkpt>
      <trkpt lat="43.52899" lon="6.24728">
        <ele>188.9</ele>
        <time>2025-07-25T07:31:07.361Z</time>
      </trkpt>
      <trkpt lat="43.529" lon="6.24734">
        <ele>188.3</ele>
        <time>2025-07-25T07:31:11.904Z</time>
      </trkpt>
      <trkpt lat="43.529" lon="6.24741">
        <ele>188.5</ele>
        <time>2025-07-25T07:31:16.447Z</time>
      </trkpt>
      <trkpt lat="43.52901" lon="6.24747">
        <ele>187.9</ele>
        <time>2025-07-25T07:31:20.990Z</time>
      </trkpt>
      <trkpt lat="43.52901" lon="6.24753">
        <ele>187.7</ele>
        <time>2025-07-25T07:31:25.533Z</time>
      </trkpt>
      <trkpt lat="43.52901" lon="6.2476">
        <ele>187</ele>
        <time>2025-07-25T07:31:30.795Z</time>
      </trkpt>
      <trkpt lat="43.529" lon="6.24768">
        <ele>187</ele>
        <time>2025-07-25T07:31:36.057Z</time>
      </trkpt>
      <trkpt lat="43.529" lon="6.24775">
        <ele>186.3</ele>
        <time>2025-07-25T07:31:41.319Z</time>
      </trkpt>
      <trkpt lat="43.52899" lon="6.24782">
        <ele>186.1</ele>
        <time>2025-07-25T07:31:46.581Z</time>
      </trkpt>
      <trkpt lat="43.52898" lon="6.2479">
        <ele>185.7</ele>
        <time>2025-07-25T07:31:52.589Z</time>
      </trkpt>
      <trkpt lat="43.52898" lon="6.24799">
        <ele>184.4</ele>
        <time>2025-07-25T07:31:58.597Z</time>
      </trkpt>
      <trkpt lat="43.52897" lon="6.24807">
        <ele>184</ele>
        <time>2025-07-25T07:32:04.605Z</time>
      </trkpt>
      <trkpt lat="43.52896" lon="6.24815">
        <ele>184.8</ele>
        <time>2025-07-25T07:32:10.613Z</time>
      </trkpt>
      <trkpt lat="43.52898" lon="6.24822">
        <ele>184</ele>
        <time>2025-07-25T07:32:15.887Z</time>
      </trkpt>
      <trkpt lat="43.52899" lon="6.24829">
        <ele>183.7</ele>
        <time>2025-07-25T07:32:21.161Z</time>
      </trkpt>
      <trkpt lat="43.52901" lon="6.24835">
        <ele>183.2</ele>
        <time>2025-07-25T07:32:25.882Z</time>
      </trkpt>
      <trkpt lat="43.52904" lon="6.24841">
        <ele>182.6</ele>
        <time>2025-07-25T07:32:30.603Z</time>
      </trkpt>
      <trkpt lat="43.52906" lon="6.24846">
        <ele>182.4</ele>
        <time>2025-07-25T07:32:35.324Z</time>
      </trkpt>
      <trkpt lat="43.52908" lon="6.24852">
        <ele>182.3</ele>
        <time>2025-07-25T07:32:40.045Z</time>
      </trkpt>
      <trkpt lat="43.52911" lon="6.24858">
        <ele>181.6</ele>
        <time>2025-07-25T07:32:45.457Z</time>
      </trkpt>
      <trkpt lat="43.52915" lon="6.24864">
        <ele>180.5</ele>
        <time>2025-07-25T07:32:50.869Z</time>
      </trkpt>
      <trkpt lat="43.52918" lon="6.2487">
        <ele>180.6</ele>
        <time>2025-07-25T07:32:56.281Z</time>
      </trkpt>
      <trkpt lat="43.52921" lon="6.24876">
        <ele>181.2</ele>
        <time>2025-07-25T07:33:01.693Z</time>
      </trkpt>
      <trkpt lat="43.52926" lon="6.24883">
        <ele>181.3</ele>
        <time>2025-07-25T07:33:08.187Z</time>
      </trkpt>
      <trkpt lat="43.5293" lon="6.24889">
        <ele>181.2</ele>
        <time>2025-07-25T07:33:14.681Z</time>
      </trkpt>
      <trkpt lat="43.52933" lon="6.24896">
        <ele>181.2</ele>
        <time>2025-07-25T07:33:20.698Z</time>
      </trkpt>
      <trkpt lat="43.52936" lon="6.24903">
        <ele>181.1</ele>
        <time>2025-07-25T07:33:26.715Z</time>
      </trkpt>
      <trkpt lat="43.52939" lon="6.2491">
        <ele>181</ele>
        <time>2025-07-25T07:33:32.732Z</time>
      </trkpt>
      <trkpt lat="43.52943" lon="6.24918">
        <ele>180.6</ele>
        <time>2025-07-25T07:33:38.749Z</time>
      </trkpt>
      <trkpt lat="43.52946" lon="6.24925">
        <ele>180.6</ele>
        <time>2025-07-25T07:33:44.766Z</time>
      </trkpt>
      <trkpt lat="43.52949" lon="6.24932">
        <ele>180.9</ele>
        <time>2025-07-25T07:33:50.783Z</time>
      </trkpt>
      <trkpt lat="43.52952" lon="6.24939">
        <ele>181.3</ele>
        <time>2025-07-25T07:33:56.800Z</time>
      </trkpt>
      <trkpt lat="43.52955" lon="6.24946">
        <ele>181.6</ele>
        <time>2025-07-25T07:34:02.817Z</time>
      </trkpt>
      <trkpt lat="43.52958" lon="6.24953">
        <ele>181.7</ele>
        <time>2025-07-25T07:34:08.570Z</time>
      </trkpt>
      <trkpt lat="43.52961" lon="6.2496">
        <ele>181.8</ele>
        <time>2025-07-25T07:34:14.323Z</time>
      </trkpt>
      <trkpt lat="43.52963" lon="6.24967">
        <ele>182.2</ele>
        <time>2025-07-25T07:34:20.076Z</time>
      </trkpt>
      <trkpt lat="43.52966" lon="6.24974">
        <ele>182.5</ele>
        <time>2025-07-25T07:34:25.829Z</time>
      </trkpt>
      <trkpt lat="43.5297" lon="6.24976">
        <ele>182.3</ele>
        <time>2025-07-25T07:34:30.069Z</time>
      </trkpt>
      <trkpt lat="43.52975" lon="6.24976">
        <ele>182</ele>
        <time>2025-07-25T07:34:34.433Z</time>
      </trkpt>
      <trkpt lat="43.52979" lon="6.24976">
        <ele>181.7</ele>
        <time>2025-07-25T07:34:38.797Z</time>
      </trkpt>
      <trkpt lat="43.52984" lon="6.24976">
        <ele>181.4</ele>
        <time>2025-07-25T07:34:43.161Z</time>
      </trkpt>
      <trkpt lat="43.52988" lon="6.24975">
        <ele>181</ele>
        <time>2025-07-25T07:34:47.525Z</time>
      </trkpt>
      <trkpt lat="43.52996" lon="6.24975">
        <ele>180.5</ele>
        <time>2025-07-25T07:34:56.253Z</time>
      </trkpt>
      <trkpt lat="43.53001" lon="6.24975">
        <ele>180.1</ele>
        <time>2025-07-25T07:35:00.617Z</time>
      </trkpt>
      <trkpt lat="43.53005" lon="6.24974">
        <ele>179.9</ele>
        <time>2025-07-25T07:35:04.981Z</time>
      </trkpt>
      <trkpt lat="43.53013" lon="6.24974">
        <ele>179.6</ele>
        <time>2025-07-25T07:35:13.211Z</time>
      </trkpt>
      <trkpt lat="43.53018" lon="6.24974">
        <ele>179.4</ele>
        <time>2025-07-25T07:35:17.326Z</time>
      </trkpt>
      <trkpt lat="43.53022" lon="6.24973">
        <ele>179.2</ele>
        <time>2025-07-25T07:35:21.441Z</time>
      </trkpt>
      <trkpt lat="43.5303" lon="6.24973">
        <ele>178.9</ele>
        <time>2025-07-25T07:35:29.671Z</time>
      </trkpt>
      <trkpt lat="43.53038" lon="6.24972">
        <ele>178.3</ele>
        <time>2025-07-25T07:35:37.901Z</time>
      </trkpt>
      <trkpt lat="43.53043" lon="6.24971">
        <ele>177.9</ele>
        <time>2025-07-25T07:35:43.161Z</time>
      </trkpt>
      <trkpt lat="43.53049" lon="6.24971">
        <ele>177.5</ele>
        <time>2025-07-25T07:35:48.421Z</time>
      </trkpt>
      <trkpt lat="43.53054" lon="6.2497">
        <ele>177.2</ele>
        <time>2025-07-25T07:35:53.681Z</time>
      </trkpt>
      <trkpt lat="43.53059" lon="6.24969">
        <ele>177.2</ele>
        <time>2025-07-25T07:35:58.941Z</time>
      </trkpt>
      <trkpt lat="43.53064" lon="6.24969">
        <ele>177.3</ele>
        <time>2025-07-25T07:36:03.440Z</time>
      </trkpt>
      <trkpt lat="43.53068" lon="6.24968">
        <ele>177.5</ele>
        <time>2025-07-25T07:36:07.939Z</time>
      </trkpt>
      <trkpt lat="43.53071" lon="6.24968">
        <ele>177.5</ele>
        <time>2025-07-25T07:36:10.929Z</time>
      </trkpt>
      <trkpt lat="43.53076" lon="6.24967">
        <ele>177.6</ele>
        <time>2025-07-25T07:36:15.964Z</time>
      </trkpt>
      <trkpt lat="43.53077" lon="6.24967">
        <ele>177.7</ele>
        <time>2025-07-25T07:36:16.960Z</time>
      </trkpt>
      <trkpt lat="43.53082" lon="6.24965">
        <ele>177.7</ele>
        <time>2025-07-25T07:36:22.148Z</time>
      </trkpt>
      <trkpt lat="43.53086" lon="6.2496">
        <ele>177.6</ele>
        <time>2025-07-25T07:36:27.528Z</time>
      </trkpt>
      <trkpt lat="43.53089" lon="6.24952">
        <ele>177.4</ele>
        <time>2025-07-25T07:36:33.657Z</time>
      </trkpt>
      <trkpt lat="43.53091" lon="6.24945">
        <ele>177.3</ele>
        <time>2025-07-25T07:36:39.786Z</time>
      </trkpt>
      <trkpt lat="43.53094" lon="6.24937">
        <ele>177</ele>
        <time>2025-07-25T07:36:45.915Z</time>
      </trkpt>
      <trkpt lat="43.53096" lon="6.24929">
        <ele>176.6</ele>
        <time>2025-07-25T07:36:52.044Z</time>
      </trkpt>
      <trkpt lat="43.53099" lon="6.24925">
        <ele>176.5</ele>
        <time>2025-07-25T07:36:56.202Z</time>
      </trkpt>
      <trkpt lat="43.53103" lon="6.24923">
        <ele>176.4</ele>
        <time>2025-07-25T07:37:00.442Z</time>
      </trkpt>
      <trkpt lat="43.53108" lon="6.24922">
        <ele>176.4</ele>
        <time>2025-07-25T07:37:05.477Z</time>
      </trkpt>
      <trkpt lat="43.53114" lon="6.24922">
        <ele>176.5</ele>
        <time>2025-07-25T07:37:11.219Z</time>
      </trkpt>
      <trkpt lat="43.5312" lon="6.24921">
        <ele>176.6</ele>
        <time>2025-07-25T07:37:16.961Z</time>
      </trkpt>
      <trkpt lat="43.53125" lon="6.24921">
        <ele>176.7</ele>
        <time>2025-07-25T07:37:22.703Z</time>
      </trkpt>
      <trkpt lat="43.53131" lon="6.2492">
        <ele>176.9</ele>
        <time>2025-07-25T07:37:28.445Z</time>
      </trkpt>
      <trkpt lat="43.53136" lon="6.2492">
        <ele>177</ele>
        <time>2025-07-25T07:37:32.933Z</time>
      </trkpt>
      <trkpt lat="43.5314" lon="6.2492">
        <ele>177.1</ele>
        <time>2025-07-25T07:37:37.421Z</time>
      </trkpt>
      <trkpt lat="43.53145" lon="6.24919">
        <ele>177.1</ele>
        <time>2025-07-25T07:37:41.909Z</time>
      </trkpt>
      <trkpt lat="43.53149" lon="6.24919">
        <ele>177.1</ele>
        <time>2025-07-25T07:37:46.397Z</time>
      </trkpt>
      <trkpt lat="43.53149" lon="6.24924">
        <ele>177.3</ele>
        <time>2025-07-25T07:37:50.009Z</time>
      </trkpt>
      <trkpt lat="43.53149" lon="6.24919">
        <ele>177.1</ele>
        <time>2025-07-25T07:37:53.621Z</time>
      </trkpt>
      <trkpt lat="43.53152" lon="6.24919">
        <ele>177.1</ele>
        <time>2025-07-25T07:37:56.611Z</time>
      </trkpt>
      <trkpt lat="43.53152" lon="6.24927">
        <ele>177.4</ele>
        <time>2025-07-25T07:38:02.084Z</time>
      </trkpt>
      <trkpt lat="43.53153" lon="6.24934">
        <ele>177.6</ele>
        <time>2025-07-25T07:38:07.557Z</time>
      </trkpt>
      <trkpt lat="43.53153" lon="6.24942">
        <ele>177.9</ele>
        <time>2025-07-25T07:38:13.030Z</time>
      </trkpt>
      <trkpt lat="43.53153" lon="6.24949">
        <ele>178.2</ele>
        <time>2025-07-25T07:38:18.503Z</time>
      </trkpt>
      <trkpt lat="43.53154" lon="6.24957">
        <ele>178.5</ele>
        <time>2025-07-25T07:38:23.976Z</time>
      </trkpt>
      <trkpt lat="43.53154" lon="6.24964">
        <ele>178.7</ele>
        <time>2025-07-25T07:38:29.449Z</time>
      </trkpt>
      <trkpt lat="43.53154" lon="6.24972">
        <ele>179</ele>
        <time>2025-07-25T07:38:34.922Z</time>
      </trkpt>
      <trkpt lat="43.53155" lon="6.2498">
        <ele>179.3</ele>
        <time>2025-07-25T07:38:40.395Z</time>
      </trkpt>
      <trkpt lat="43.53155" lon="6.24987">
        <ele>179.5</ele>
        <time>2025-07-25T07:38:45.868Z</time>
      </trkpt>
      <trkpt lat="43.53155" lon="6.24995">
        <ele>179.8</ele>
        <time>2025-07-25T07:38:51.341Z</time>
      </trkpt>
      <trkpt lat="43.53155" lon="6.25002">
        <ele>180</ele>
        <time>2025-07-25T07:38:56.814Z</time>
      </trkpt>
      <trkpt lat="43.53156" lon="6.2501">
        <ele>180</ele>
        <time>2025-07-25T07:39:02.287Z</time>
      </trkpt>
      <trkpt lat="43.53156" lon="6.25017">
        <ele>180</ele>
        <time>2025-07-25T07:39:07.760Z</time>
      </trkpt>
      <trkpt lat="43.53156" lon="6.25025">
        <ele>180</ele>
        <time>2025-07-25T07:39:13.233Z</time>
      </trkpt>
      <trkpt lat="43.53157" lon="6.25032">
        <ele>180.3</ele>
        <time>2025-07-25T07:39:18.706Z</time>
      </trkpt>
      <trkpt lat="43.53157" lon="6.2504">
        <ele>180.9</ele>
        <time>2025-07-25T07:39:24.179Z</time>
      </trkpt>
      <trkpt lat="43.53158" lon="6.2505">
        <ele>181.6</ele>
        <time>2025-07-25T07:39:31.061Z</time>
      </trkpt>
      <trkpt lat="43.53158" lon="6.25059">
        <ele>182.4</ele>
        <time>2025-07-25T07:39:37.943Z</time>
      </trkpt>
      <trkpt lat="43.53156" lon="6.25065">
        <ele>183</ele>
        <time>2025-07-25T07:39:42.714Z</time>
      </trkpt>
      <trkpt lat="43.53154" lon="6.25072">
        <ele>183.6</ele>
        <time>2025-07-25T07:39:47.816Z</time>
      </trkpt>
      <trkpt lat="43.53152" lon="6.25078">
        <ele>184</ele>
        <time>2025-07-25T07:39:52.918Z</time>
      </trkpt>
      <trkpt lat="43.53149" lon="6.25085">
        <ele>184.3</ele>
        <time>2025-07-25T07:39:59.062Z</time>
      </trkpt>
      <trkpt lat="43.53145" lon="6.25092">
        <ele>184.7</ele>
        <time>2025-07-25T07:40:05.206Z</time>
      </trkpt>
      <trkpt lat="43.53142" lon="6.25102">
        <ele>185.5</ele>
        <time>2025-07-25T07:40:12.693Z</time>
      </trkpt>
      <trkpt lat="43.53139" lon="6.25111">
        <ele>186</ele>
        <time>2025-07-25T07:40:20.180Z</time>
      </trkpt>
      <trkpt lat="43.53138" lon="6.25114">
        <ele>186</ele>
        <time>2025-07-25T07:40:22.565Z</time>
      </trkpt>
      <trkpt lat="43.53137" lon="6.25125">
        <ele>186.3</ele>
        <time>2025-07-25T07:40:30.575Z</time>
      </trkpt>
      <trkpt lat="43.53136" lon="6.25136">
        <ele>186.6</ele>
        <time>2025-07-25T07:40:38.585Z</time>
      </trkpt>
      <trkpt lat="43.53135" lon="6.25144">
        <ele>186.9</ele>
        <time>2025-07-25T07:40:44.451Z</time>
      </trkpt>
      <trkpt lat="43.53134" lon="6.25152">
        <ele>187.3</ele>
        <time>2025-07-25T07:40:50.317Z</time>
      </trkpt>
      <trkpt lat="43.53132" lon="6.25161">
        <ele>187.7</ele>
        <time>2025-07-25T07:40:56.774Z</time>
      </trkpt>
      <trkpt lat="43.5313" lon="6.25169">
        <ele>187.9</ele>
        <time>2025-07-25T07:41:03.231Z</time>
      </trkpt>
      <trkpt lat="43.53128" lon="6.25176">
        <ele>188.1</ele>
        <time>2025-07-25T07:41:08.411Z</time>
      </trkpt>
      <trkpt lat="43.53127" lon="6.25183">
        <ele>188.5</ele>
        <time>2025-07-25T07:41:13.591Z</time>
      </trkpt>
      <trkpt lat="43.53125" lon="6.25189">
        <ele>188.6</ele>
        <time>2025-07-25T07:41:18.771Z</time>
      </trkpt>
      <trkpt lat="43.53123" lon="6.25196">
        <ele>188.8</ele>
        <time>2025-07-25T07:41:23.951Z</time>
      </trkpt>
      <trkpt lat="43.53122" lon="6.25206">
        <ele>189.3</ele>
        <time>2025-07-25T07:41:31.245Z</time>
      </trkpt>
      <trkpt lat="43.53121" lon="6.25216">
        <ele>189.8</ele>
        <time>2025-07-25T07:41:38.539Z</time>
      </trkpt>
      <trkpt lat="43.53121" lon="6.25227">
        <ele>190.5</ele>
        <time>2025-07-25T07:41:46.126Z</time>
      </trkpt>
      <trkpt lat="43.53121" lon="6.25237">
        <ele>191.4</ele>
        <time>2025-07-25T07:41:53.713Z</time>
      </trkpt>
      <trkpt lat="43.53121" lon="6.25247">
        <ele>192.2</ele>
        <time>2025-07-25T07:42:00.939Z</time>
      </trkpt>
      <trkpt lat="43.53121" lon="6.25257">
        <ele>192.9</ele>
        <time>2025-07-25T07:42:08.165Z</time>
      </trkpt>
      <trkpt lat="43.53121" lon="6.25267">
        <ele>193.5</ele>
        <time>2025-07-25T07:42:15.391Z</time>
      </trkpt>
      <trkpt lat="43.53121" lon="6.25277">
        <ele>194.2</ele>
        <time>2025-07-25T07:42:22.617Z</time>
      </trkpt>
      <trkpt lat="43.53121" lon="6.25287">
        <ele>195.3</ele>
        <time>2025-07-25T07:42:29.481Z</time>
      </trkpt>
      <trkpt lat="43.53121" lon="6.25296">
        <ele>196.4</ele>
        <time>2025-07-25T07:42:36.345Z</time>
      </trkpt>
      <trkpt lat="43.53118" lon="6.25305">
        <ele>196.7</ele>
        <time>2025-07-25T07:42:43.502Z</time>
      </trkpt>
      <trkpt lat="43.53113" lon="6.25314">
        <ele>197.5</ele>
        <time>2025-07-25T07:42:51.552Z</time>
      </trkpt>
      <trkpt lat="43.53108" lon="6.25323">
        <ele>198.4</ele>
        <time>2025-07-25T07:42:59.602Z</time>
      </trkpt>
      <trkpt lat="43.53103" lon="6.25331">
        <ele>198.6</ele>
        <time>2025-07-25T07:43:07.652Z</time>
      </trkpt>
      <trkpt lat="43.53098" lon="6.2534">
        <ele>198.4</ele>
        <time>2025-07-25T07:43:15.702Z</time>
      </trkpt>
      <trkpt lat="43.53097" lon="6.25344">
        <ele>198.6</ele>
        <time>2025-07-25T07:43:18.759Z</time>
      </trkpt>
      <trkpt lat="43.53093" lon="6.25355">
        <ele>198.9</ele>
        <time>2025-07-25T07:43:27.651Z</time>
      </trkpt>
      <trkpt lat="43.53091" lon="6.25364">
        <ele>199.4</ele>
        <time>2025-07-25T07:43:34.453Z</time>
      </trkpt>
      <trkpt lat="43.53089" lon="6.25373">
        <ele>199.8</ele>
        <time>2025-07-25T07:43:41.255Z</time>
      </trkpt>
      <trkpt lat="43.53087" lon="6.25382">
        <ele>200.3</ele>
        <time>2025-07-25T07:43:48.057Z</time>
      </trkpt>
      <trkpt lat="43.53085" lon="6.25391">
        <ele>200.8</ele>
        <time>2025-07-25T07:43:54.859Z</time>
      </trkpt>
      <trkpt lat="43.53084" lon="6.254">
        <ele>201.4</ele>
        <time>2025-07-25T07:44:01.180Z</time>
      </trkpt>
      <trkpt lat="43.53082" lon="6.25408">
        <ele>201.5</ele>
        <time>2025-07-25T07:44:07.501Z</time>
      </trkpt>
      <trkpt lat="43.53081" lon="6.25419">
        <ele>202.3</ele>
        <time>2025-07-25T07:44:15.234Z</time>
      </trkpt>
      <trkpt lat="43.53079" lon="6.25429">
        <ele>202.3</ele>
        <time>2025-07-25T07:44:22.967Z</time>
      </trkpt>
      <trkpt lat="43.53078" lon="6.25439">
        <ele>202.8</ele>
        <time>2025-07-25T07:44:29.903Z</time>
      </trkpt>
      <trkpt lat="43.53077" lon="6.25448">
        <ele>203.1</ele>
        <time>2025-07-25T07:44:36.839Z</time>
      </trkpt>
      <trkpt lat="43.53075" lon="6.25459">
        <ele>203</ele>
        <time>2025-07-25T07:44:45.033Z</time>
      </trkpt>
      <trkpt lat="43.53073" lon="6.2547">
        <ele>202.9</ele>
        <time>2025-07-25T07:44:53.227Z</time>
      </trkpt>
      <trkpt lat="43.53073" lon="6.25481">
        <ele>203.1</ele>
        <time>2025-07-25T07:45:01.175Z</time>
      </trkpt>
      <trkpt lat="43.53075" lon="6.25493">
        <ele>203.5</ele>
        <time>2025-07-25T07:45:09.974Z</time>
      </trkpt>
      <trkpt lat="43.53076" lon="6.25505">
        <ele>203.1</ele>
        <time>2025-07-25T07:45:18.773Z</time>
      </trkpt>
      <trkpt lat="43.53078" lon="6.2551">
        <ele>203</ele>
        <time>2025-07-25T07:45:22.899Z</time>
      </trkpt>
      <trkpt lat="43.53084" lon="6.25513">
        <ele>203.6</ele>
        <time>2025-07-25T07:45:29.260Z</time>
      </trkpt>
      <trkpt lat="43.5309" lon="6.25516">
        <ele>203.8</ele>
        <time>2025-07-25T07:45:35.621Z</time>
      </trkpt>
      <trkpt lat="43.53095" lon="6.25517">
        <ele>204.1</ele>
        <time>2025-07-25T07:45:40.685Z</time>
      </trkpt>
      <trkpt lat="43.531" lon="6.25519">
        <ele>204.4</ele>
        <time>2025-07-25T07:45:45.749Z</time>
      </trkpt>
      <trkpt lat="43.53105" lon="6.2552">
        <ele>204.7</ele>
        <time>2025-07-25T07:45:50.813Z</time>
      </trkpt>
      <trkpt lat="43.5311" lon="6.25521">
        <ele>205.1</ele>
        <time>2025-07-25T07:45:55.877Z</time>
      </trkpt>
      <trkpt lat="43.53116" lon="6.25523">
        <ele>205.5</ele>
        <time>2025-07-25T07:46:01.465Z</time>
      </trkpt>
      <trkpt lat="43.53121" lon="6.25524">
        <ele>205.8</ele>
        <time>2025-07-25T07:46:07.053Z</time>
      </trkpt>
      <trkpt lat="43.53124" lon="6.25524">
        <ele>206.1</ele>
        <time>2025-07-25T07:46:10.043Z</time>
      </trkpt>
      <trkpt lat="43.53129" lon="6.25527">
        <ele>206.3</ele>
        <time>2025-07-25T07:46:15.343Z</time>
      </trkpt>
      <trkpt lat="43.53134" lon="6.25529">
        <ele>206.6</ele>
        <time>2025-07-25T07:46:20.643Z</time>
      </trkpt>
      <trkpt lat="43.53139" lon="6.25533">
        <ele>207</ele>
        <time>2025-07-25T07:46:25.978Z</time>
      </trkpt>
      <trkpt lat="43.53143" lon="6.25537">
        <ele>208.1</ele>
        <time>2025-07-25T07:46:31.313Z</time>
      </trkpt>
      <trkpt lat="43.53146" lon="6.25547">
        <ele>209.1</ele>
        <time>2025-07-25T07:46:39.133Z</time>
      </trkpt>
      <trkpt lat="43.53149" lon="6.25557">
        <ele>210.3</ele>
        <time>2025-07-25T07:46:46.953Z</time>
      </trkpt>
      <trkpt lat="43.5315" lon="6.25567">
        <ele>210.7</ele>
        <time>2025-07-25T07:46:54.196Z</time>
      </trkpt>
      <trkpt lat="43.5315" lon="6.25577">
        <ele>210.8</ele>
        <time>2025-07-25T07:47:01.439Z</time>
      </trkpt>
      <trkpt lat="43.5315" lon="6.25585">
        <ele>211</ele>
        <time>2025-07-25T07:47:07.241Z</time>
      </trkpt>
      <trkpt lat="43.53149" lon="6.25593">
        <ele>211.7</ele>
        <time>2025-07-25T07:47:13.043Z</time>
      </trkpt>
      <trkpt lat="43.53146" lon="6.25603">
        <ele>212.3</ele>
        <time>2025-07-25T07:47:21.067Z</time>
      </trkpt>
      <trkpt lat="43.53142" lon="6.25613">
        <ele>212.8</ele>
        <time>2025-07-25T07:47:29.091Z</time>
      </trkpt>
      <trkpt lat="43.53143" lon="6.25614">
        <ele>213.2</ele>
        <time>2025-07-25T07:47:30.322Z</time>
      </trkpt>
      <trkpt lat="43.53142" lon="6.25613">
        <ele>212.8</ele>
        <time>2025-07-25T07:47:31.553Z</time>
      </trkpt>
      <trkpt lat="43.53141" lon="6.25616">
        <ele>213.1</ele>
        <time>2025-07-25T07:47:33.939Z</time>
      </trkpt>
      <trkpt lat="43.53138" lon="6.25627">
        <ele>214.1</ele>
        <time>2025-07-25T07:47:42.431Z</time>
      </trkpt>
      <trkpt lat="43.53137" lon="6.25635">
        <ele>215</ele>
        <time>2025-07-25T07:47:47.941Z</time>
      </trkpt>
      <trkpt lat="43.53136" lon="6.25642">
        <ele>215.6</ele>
        <time>2025-07-25T07:47:53.451Z</time>
      </trkpt>
      <trkpt lat="43.53135" lon="6.2565">
        <ele>216.2</ele>
        <time>2025-07-25T07:47:58.961Z</time>
      </trkpt>
      <trkpt lat="43.53134" lon="6.25657">
        <ele>216.6</ele>
        <time>2025-07-25T07:48:04.471Z</time>
      </trkpt>
      <trkpt lat="43.53134" lon="6.25664">
        <ele>217.3</ele>
        <time>2025-07-25T07:48:09.174Z</time>
      </trkpt>
      <trkpt lat="43.53134" lon="6.2567">
        <ele>217.7</ele>
        <time>2025-07-25T07:48:13.877Z</time>
      </trkpt>
      <trkpt lat="43.53133" lon="6.25677">
        <ele>217.7</ele>
        <time>2025-07-25T07:48:18.580Z</time>
      </trkpt>
      <trkpt lat="43.53133" lon="6.25683">
        <ele>217.9</ele>
        <time>2025-07-25T07:48:23.283Z</time>
      </trkpt>
      <trkpt lat="43.53133" lon="6.25691">
        <ele>218.2</ele>
        <time>2025-07-25T07:48:29.166Z</time>
      </trkpt>
      <trkpt lat="43.53134" lon="6.25699">
        <ele>218.6</ele>
        <time>2025-07-25T07:48:35.049Z</time>
      </trkpt>
      <trkpt lat="43.53134" lon="6.25707">
        <ele>218.7</ele>
        <time>2025-07-25T07:48:40.932Z</time>
      </trkpt>
      <trkpt lat="43.53135" lon="6.25716">
        <ele>219</ele>
        <time>2025-07-25T07:48:46.815Z</time>
      </trkpt>
      <trkpt lat="43.53135" lon="6.25724">
        <ele>219</ele>
        <time>2025-07-25T07:48:52.698Z</time>
      </trkpt>
      <trkpt lat="43.53135" lon="6.25732">
        <ele>219.1</ele>
        <time>2025-07-25T07:48:58.581Z</time>
      </trkpt>
      <trkpt lat="43.53136" lon="6.2574">
        <ele>219.3</ele>
        <time>2025-07-25T07:49:04.464Z</time>
      </trkpt>
      <trkpt lat="43.53136" lon="6.25748">
        <ele>219.4</ele>
        <time>2025-07-25T07:49:10.347Z</time>
      </trkpt>
      <trkpt lat="43.53136" lon="6.25758">
        <ele>219.4</ele>
        <time>2025-07-25T07:49:17.396Z</time>
      </trkpt>
      <trkpt lat="43.53137" lon="6.25768">
        <ele>219.7</ele>
        <time>2025-07-25T07:49:24.445Z</time>
      </trkpt>
      <trkpt lat="43.53137" lon="6.25777">
        <ele>219.7</ele>
        <time>2025-07-25T07:49:31.494Z</time>
      </trkpt>
      <trkpt lat="43.53137" lon="6.25787">
        <ele>220</ele>
        <time>2025-07-25T07:49:38.544Z</time>
      </trkpt>
      <trkpt lat="43.53138" lon="6.25796">
        <ele>220.5</ele>
        <time>2025-07-25T07:49:45.123Z</time>
      </trkpt>
      <trkpt lat="43.53139" lon="6.25805">
        <ele>221</ele>
        <time>2025-07-25T07:49:51.702Z</time>
      </trkpt>
      <trkpt lat="43.53141" lon="6.25812">
        <ele>221.5</ele>
        <time>2025-07-25T07:49:56.755Z</time>
      </trkpt>
      <trkpt lat="43.53142" lon="6.25818">
        <ele>221.7</ele>
        <time>2025-07-25T07:50:01.808Z</time>
      </trkpt>
      <trkpt lat="43.53144" lon="6.25825">
        <ele>222</ele>
        <time>2025-07-25T07:50:06.861Z</time>
      </trkpt>
      <trkpt lat="43.53146" lon="6.25832">
        <ele>222.3</ele>
        <time>2025-07-25T07:50:11.914Z</time>
      </trkpt>
      <trkpt lat="43.53147" lon="6.25838">
        <ele>222.3</ele>
        <time>2025-07-25T07:50:16.967Z</time>
      </trkpt>
      <trkpt lat="43.53149" lon="6.25845">
        <ele>222.6</ele>
        <time>2025-07-25T07:50:22.020Z</time>
      </trkpt>
      <trkpt lat="43.5315" lon="6.25851">
        <ele>222.6</ele>
        <time>2025-07-25T07:50:27.073Z</time>
      </trkpt>
      <trkpt lat="43.53152" lon="6.25858">
        <ele>222.9</ele>
        <time>2025-07-25T07:50:32.126Z</time>
      </trkpt>
      <trkpt lat="43.53155" lon="6.25865">
        <ele>223.2</ele>
        <time>2025-07-25T07:50:37.927Z</time>
      </trkpt>
      <trkpt lat="43.53157" lon="6.25873">
        <ele>223.2</ele>
        <time>2025-07-25T07:50:43.728Z</time>
      </trkpt>
      <trkpt lat="43.5316" lon="6.2588">
        <ele>223.6</ele>
        <time>2025-07-25T07:50:49.529Z</time>
      </trkpt>
      <trkpt lat="43.53162" lon="6.25887">
        <ele>223.7</ele>
        <time>2025-07-25T07:50:55.330Z</time>
      </trkpt>
      <trkpt lat="43.53165" lon="6.25894">
        <ele>224.5</ele>
        <time>2025-07-25T07:51:01.131Z</time>
      </trkpt>
      <trkpt lat="43.53167" lon="6.25902">
        <ele>225.1</ele>
        <time>2025-07-25T07:51:06.932Z</time>
      </trkpt>
      <trkpt lat="43.5317" lon="6.25909">
        <ele>225.9</ele>
        <time>2025-07-25T07:51:12.733Z</time>
      </trkpt>
      <trkpt lat="43.53172" lon="6.25916">
        <ele>226.4</ele>
        <time>2025-07-25T07:51:18.534Z</time>
      </trkpt>
      <trkpt lat="43.53174" lon="6.25922">
        <ele>226.6</ele>
        <time>2025-07-25T07:51:22.871Z</time>
      </trkpt>
      <trkpt lat="43.53175" lon="6.25928">
        <ele>226.9</ele>
        <time>2025-07-25T07:51:27.209Z</time>
      </trkpt>
      <trkpt lat="43.53177" lon="6.25939">
        <ele>227</ele>
        <time>2025-07-25T07:51:35.884Z</time>
      </trkpt>
      <trkpt lat="43.53179" lon="6.2595">
        <ele>226.6</ele>
        <time>2025-07-25T07:51:43.972Z</time>
      </trkpt>
      <trkpt lat="43.5318" lon="6.25961">
        <ele>225.6</ele>
        <time>2025-07-25T07:51:52.060Z</time>
      </trkpt>
      <trkpt lat="43.5318" lon="6.25968">
        <ele>224.9</ele>
        <time>2025-07-25T07:51:56.763Z</time>
      </trkpt>
      <trkpt lat="43.53181" lon="6.25974">
        <ele>224.6</ele>
        <time>2025-07-25T07:52:01.466Z</time>
      </trkpt>
      <trkpt lat="43.53181" lon="6.25981">
        <ele>224.7</ele>
        <time>2025-07-25T07:52:06.169Z</time>
      </trkpt>
      <trkpt lat="43.53181" lon="6.25987">
        <ele>224.9</ele>
        <time>2025-07-25T07:52:10.872Z</time>
      </trkpt>
      <trkpt lat="43.53182" lon="6.25995">
        <ele>225.2</ele>
        <time>2025-07-25T07:52:16.314Z</time>
      </trkpt>
      <trkpt lat="43.53182" lon="6.26002">
        <ele>225.4</ele>
        <time>2025-07-25T07:52:21.756Z</time>
      </trkpt>
      <trkpt lat="43.53182" lon="6.26013">
        <ele>225.8</ele>
        <time>2025-07-25T07:52:29.343Z</time>
      </trkpt>
      <trkpt lat="43.53182" lon="6.26023">
        <ele>226.2</ele>
        <time>2025-07-25T07:52:36.930Z</time>
      </trkpt>
      <trkpt lat="43.53182" lon="6.26035">
        <ele>226.7</ele>
        <time>2025-07-25T07:52:45.244Z</time>
      </trkpt>
      <trkpt lat="43.53183" lon="6.26046">
        <ele>227.4</ele>
        <time>2025-07-25T07:52:53.558Z</time>
      </trkpt>
      <trkpt lat="43.53183" lon="6.26058">
        <ele>227.7</ele>
        <time>2025-07-25T07:53:01.872Z</time>
      </trkpt>
      <trkpt lat="43.53183" lon="6.26069">
        <ele>227.9</ele>
        <time>2025-07-25T07:53:10.186Z</time>
      </trkpt>
      <trkpt lat="43.53183" lon="6.26081">
        <ele>228.1</ele>
        <time>2025-07-25T07:53:18.500Z</time>
      </trkpt>
      <trkpt lat="43.53184" lon="6.26092">
        <ele>228.2</ele>
        <time>2025-07-25T07:53:26.814Z</time>
      </trkpt>
      <trkpt lat="43.53184" lon="6.26104">
        <ele>227.9</ele>
        <time>2025-07-25T07:53:35.128Z</time>
      </trkpt>
      <trkpt lat="43.53184" lon="6.26115">
        <ele>227.7</ele>
        <time>2025-07-25T07:53:43.442Z</time>
      </trkpt>
      <trkpt lat="43.53185" lon="6.26126">
        <ele>228</ele>
        <time>2025-07-25T07:53:51.406Z</time>
      </trkpt>
      <trkpt lat="43.53185" lon="6.26137">
        <ele>228</ele>
        <time>2025-07-25T07:53:59.370Z</time>
      </trkpt>
      <trkpt lat="43.53185" lon="6.26147">
        <ele>228.3</ele>
        <time>2025-07-25T07:54:06.235Z</time>
      </trkpt>
      <trkpt lat="43.53185" lon="6.26156">
        <ele>228.6</ele>
        <time>2025-07-25T07:54:13.100Z</time>
      </trkpt>
      <trkpt lat="43.53185" lon="6.26167">
        <ele>229</ele>
        <time>2025-07-25T07:54:20.872Z</time>
      </trkpt>
      <trkpt lat="43.53186" lon="6.26178">
        <ele>229.2</ele>
        <time>2025-07-25T07:54:28.644Z</time>
      </trkpt>
      <trkpt lat="43.53186" lon="6.26188">
        <ele>229.2</ele>
        <time>2025-07-25T07:54:36.416Z</time>
      </trkpt>
      <trkpt lat="43.53186" lon="6.26199">
        <ele>229.2</ele>
        <time>2025-07-25T07:54:44.188Z</time>
      </trkpt>
      <trkpt lat="43.53186" lon="6.26208">
        <ele>229.2</ele>
        <time>2025-07-25T07:54:50.335Z</time>
      </trkpt>
      <trkpt lat="43.53187" lon="6.26216">
        <ele>229.4</ele>
        <time>2025-07-25T07:54:56.482Z</time>
      </trkpt>
      <trkpt lat="43.53187" lon="6.26225">
        <ele>229.4</ele>
        <time>2025-07-25T07:55:02.629Z</time>
      </trkpt>
      <trkpt lat="43.53187" lon="6.26233">
        <ele>229.5</ele>
        <time>2025-07-25T07:55:08.776Z</time>
      </trkpt>
      <trkpt lat="43.53187" lon="6.26245">
        <ele>229.6</ele>
        <time>2025-07-25T07:55:17.086Z</time>
      </trkpt>
      <trkpt lat="43.53187" lon="6.26256">
        <ele>229.7</ele>
        <time>2025-07-25T07:55:25.396Z</time>
      </trkpt>
      <trkpt lat="43.53188" lon="6.26256">
        <ele>229.8</ele>
        <time>2025-07-25T07:55:26.392Z</time>
      </trkpt>
      <trkpt lat="43.53187" lon="6.26256">
        <ele>229.7</ele>
        <time>2025-07-25T07:55:27.388Z</time>
      </trkpt>
      <trkpt lat="43.53187" lon="6.26264">
        <ele>229.7</ele>
        <time>2025-07-25T07:55:33.351Z</time>
      </trkpt>
      <trkpt lat="43.53187" lon="6.26273">
        <ele>229.7</ele>
        <time>2025-07-25T07:55:39.314Z</time>
      </trkpt>
      <trkpt lat="43.53187" lon="6.26281">
        <ele>229.5</ele>
        <time>2025-07-25T07:55:45.277Z</time>
      </trkpt>
      <trkpt lat="43.53188" lon="6.26289">
        <ele>229.4</ele>
        <time>2025-07-25T07:55:51.240Z</time>
      </trkpt>
      <trkpt lat="43.53188" lon="6.26297">
        <ele>229.1</ele>
        <time>2025-07-25T07:55:57.203Z</time>
      </trkpt>
      <trkpt lat="43.53188" lon="6.26306">
        <ele>228.8</ele>
        <time>2025-07-25T07:56:03.166Z</time>
      </trkpt>
      <trkpt lat="43.53188" lon="6.26314">
        <ele>228.6</ele>
        <time>2025-07-25T07:56:09.129Z</time>
      </trkpt>
      <trkpt lat="43.53188" lon="6.26322">
        <ele>228.4</ele>
        <time>2025-07-25T07:56:15.092Z</time>
      </trkpt>
      <trkpt lat="43.53189" lon="6.26332">
        <ele>228.3</ele>
        <time>2025-07-25T07:56:22.386Z</time>
      </trkpt>
      <trkpt lat="43.53189" lon="6.26339">
        <ele>227.9</ele>
        <time>2025-07-25T07:56:27.444Z</time>
      </trkpt>
      <trkpt lat="43.53189" lon="6.26346">
        <ele>227.6</ele>
        <time>2025-07-25T07:56:32.502Z</time>
      </trkpt>
      <trkpt lat="43.53189" lon="6.26356">
        <ele>227.1</ele>
        <time>2025-07-25T07:56:39.728Z</time>
      </trkpt>
      <trkpt lat="43.53188" lon="6.26361">
        <ele>226.8</ele>
        <time>2025-07-25T07:56:43.476Z</time>
      </trkpt>
      <trkpt lat="43.53188" lon="6.26367">
        <ele>227.6</ele>
        <time>2025-07-25T07:56:47.811Z</time>
      </trkpt>
      <trkpt lat="43.53187" lon="6.26375">
        <ele>228.7</ele>
        <time>2025-07-25T07:56:53.433Z</time>
      </trkpt>
      <trkpt lat="43.53185" lon="6.26382">
        <ele>229.7</ele>
        <time>2025-07-25T07:56:59.055Z</time>
      </trkpt>
      <trkpt lat="43.53184" lon="6.2639">
        <ele>230.7</ele>
        <time>2025-07-25T07:57:04.677Z</time>
      </trkpt>
      <trkpt lat="43.53182" lon="6.26397">
        <ele>230.9</ele>
        <time>2025-07-25T07:57:10.299Z</time>
      </trkpt>
      <trkpt lat="43.5318" lon="6.26404">
        <ele>231</ele>
        <time>2025-07-25T07:57:15.309Z</time>
      </trkpt>
      <trkpt lat="43.53179" lon="6.2641">
        <ele>231.1</ele>
        <time>2025-07-25T07:57:20.319Z</time>
      </trkpt>
      <trkpt lat="43.53177" lon="6.26417">
        <ele>231.1</ele>
        <time>2025-07-25T07:57:25.329Z</time>
      </trkpt>
      <trkpt lat="43.53175" lon="6.26423">
        <ele>230.8</ele>
        <time>2025-07-25T07:57:30.339Z</time>
      </trkpt>
      <trkpt lat="43.53172" lon="6.26429">
        <ele>230.3</ele>
        <time>2025-07-25T07:57:35.606Z</time>
      </trkpt>
      <trkpt lat="43.53169" lon="6.26435">
        <ele>229.7</ele>
        <time>2025-07-25T07:57:40.873Z</time>
      </trkpt>
      <trkpt lat="43.53166" lon="6.26441">
        <ele>229.1</ele>
        <time>2025-07-25T07:57:46.140Z</time>
      </trkpt>
      <trkpt lat="43.53163" lon="6.26447">
        <ele>229.4</ele>
        <time>2025-07-25T07:57:51.407Z</time>
      </trkpt>
      <trkpt lat="43.53159" lon="6.26453">
        <ele>229.9</ele>
        <time>2025-07-25T07:57:57.297Z</time>
      </trkpt>
      <trkpt lat="43.53155" lon="6.26459">
        <ele>230.1</ele>
        <time>2025-07-25T07:58:03.187Z</time>
      </trkpt>
      <trkpt lat="43.53151" lon="6.26465">
        <ele>230.1</ele>
        <time>2025-07-25T07:58:09.077Z</time>
      </trkpt>
      <trkpt lat="43.53147" lon="6.26471">
        <ele>229.9</ele>
        <time>2025-07-25T07:58:14.967Z</time>
      </trkpt>
      <trkpt lat="43.53142" lon="6.26476">
        <ele>229.5</ele>
        <time>2025-07-25T07:58:21.230Z</time>
      </trkpt>
      <trkpt lat="43.53137" lon="6.26482">
        <ele>229.3</ele>
        <time>2025-07-25T07:58:27.493Z</time>
      </trkpt>
      <trkpt lat="43.53132" lon="6.26487">
        <ele>229.2</ele>
        <time>2025-07-25T07:58:33.756Z</time>
      </trkpt>
      <trkpt lat="43.53127" lon="6.26492">
        <ele>229</ele>
        <time>2025-07-25T07:58:40.019Z</time>
      </trkpt>
      <trkpt lat="43.5312" lon="6.26493">
        <ele>228.6</ele>
        <time>2025-07-25T07:58:47.033Z</time>
      </trkpt>
      <trkpt lat="43.53119" lon="6.26493">
        <ele>228.5</ele>
        <time>2025-07-25T07:58:48.029Z</time>
      </trkpt>
      <trkpt lat="43.53114" lon="6.26495">
        <ele>228.2</ele>
        <time>2025-07-25T07:58:53.218Z</time>
      </trkpt>
      <trkpt lat="43.53109" lon="6.26497">
        <ele>227.6</ele>
        <time>2025-07-25T07:58:58.407Z</time>
      </trkpt>
      <trkpt lat="43.53105" lon="6.26495">
        <ele>226.8</ele>
        <time>2025-07-25T07:59:02.648Z</time>
      </trkpt>
      <trkpt lat="43.53102" lon="6.26492">
        <ele>226.2</ele>
        <time>2025-07-25T07:59:06.341Z</time>
      </trkpt>
      <trkpt lat="43.53099" lon="6.26486">
        <ele>225.4</ele>
        <time>2025-07-25T07:59:11.608Z</time>
      </trkpt>
      <trkpt lat="43.53097" lon="6.26478">
        <ele>224.7</ele>
        <time>2025-07-25T07:59:18.066Z</time>
      </trkpt>
      <trkpt lat="43.53095" lon="6.26469">
        <ele>224.3</ele>
        <time>2025-07-25T07:59:24.524Z</time>
      </trkpt>
      <trkpt lat="43.53091" lon="6.26463">
        <ele>224.2</ele>
        <time>2025-07-25T07:59:30.586Z</time>
      </trkpt>
      <trkpt lat="43.53087" lon="6.26457">
        <ele>224.4</ele>
        <time>2025-07-25T07:59:36.648Z</time>
      </trkpt>
      <trkpt lat="43.53082" lon="6.26451">
        <ele>224.6</ele>
        <time>2025-07-25T07:59:42.710Z</time>
      </trkpt>
      <trkpt lat="43.53078" lon="6.26445">
        <ele>224.6</ele>
        <time>2025-07-25T07:59:48.772Z</time>
      </trkpt>
      <trkpt lat="43.53073" lon="6.26435">
        <ele>223.7</ele>
        <time>2025-07-25T07:59:57.550Z</time>
      </trkpt>
      <trkpt lat="43.53071" lon="6.26429">
        <ele>223.4</ele>
        <time>2025-07-25T08:00:02.322Z</time>
      </trkpt>
      <trkpt lat="43.53069" lon="6.26423">
        <ele>223.2</ele>
        <time>2025-07-25T08:00:07.094Z</time>
      </trkpt>
      <trkpt lat="43.53065" lon="6.26415">
        <ele>222.4</ele>
        <time>2025-07-25T08:00:14.117Z</time>
      </trkpt>
      <trkpt lat="43.53058" lon="6.26408">
        <ele>221.2</ele>
        <time>2025-07-25T08:00:22.842Z</time>
      </trkpt>
      <trkpt lat="43.53051" lon="6.26401">
        <ele>220.5</ele>
        <time>2025-07-25T08:00:31.567Z</time>
      </trkpt>
      <trkpt lat="43.53048" lon="6.26397">
        <ele>220.2</ele>
        <time>2025-07-25T08:00:35.929Z</time>
      </trkpt>
      <trkpt lat="43.53044" lon="6.26393">
        <ele>219.8</ele>
        <time>2025-07-25T08:00:40.292Z</time>
      </trkpt>
      <trkpt lat="43.53037" lon="6.26386">
        <ele>218.6</ele>
        <time>2025-07-25T08:00:49.017Z</time>
      </trkpt>
      <trkpt lat="43.53032" lon="6.2638">
        <ele>217.7</ele>
        <time>2025-07-25T08:00:55.623Z</time>
      </trkpt>
      <trkpt lat="43.53027" lon="6.26377">
        <ele>217</ele>
        <time>2025-07-25T08:01:00.991Z</time>
      </trkpt>
      <trkpt lat="43.53023" lon="6.26373">
        <ele>216.8</ele>
        <time>2025-07-25T08:01:06.359Z</time>
      </trkpt>
      <trkpt lat="43.53018" lon="6.2637">
        <ele>216.5</ele>
        <time>2025-07-25T08:01:11.727Z</time>
      </trkpt>
      <trkpt lat="43.53013" lon="6.26366">
        <ele>216.1</ele>
        <time>2025-07-25T08:01:17.095Z</time>
      </trkpt>
      <trkpt lat="43.5301" lon="6.26361">
        <ele>215.7</ele>
        <time>2025-07-25T08:01:22.383Z</time>
      </trkpt>
      <trkpt lat="43.53006" lon="6.26355">
        <ele>215.2</ele>
        <time>2025-07-25T08:01:27.671Z</time>
      </trkpt>
      <trkpt lat="43.53005" lon="6.26347">
        <ele>214.9</ele>
        <time>2025-07-25T08:01:33.642Z</time>
      </trkpt>
      <trkpt lat="43.53003" lon="6.26339">
        <ele>214.4</ele>
        <time>2025-07-25T08:01:39.613Z</time>
      </trkpt>
      <trkpt lat="43.53003" lon="6.2633">
        <ele>214.1</ele>
        <time>2025-07-25T08:01:46.483Z</time>
      </trkpt>
      <trkpt lat="43.53004" lon="6.2632">
        <ele>213.9</ele>
        <time>2025-07-25T08:01:53.353Z</time>
      </trkpt>
      <trkpt lat="43.53004" lon="6.26311">
        <ele>213.6</ele>
        <time>2025-07-25T08:02:00.223Z</time>
      </trkpt>
      <trkpt lat="43.53004" lon="6.26301">
        <ele>213.6</ele>
        <time>2025-07-25T08:02:07.093Z</time>
      </trkpt>
      <trkpt lat="43.53006" lon="6.26294">
        <ele>214</ele>
        <time>2025-07-25T08:02:12.368Z</time>
      </trkpt>
      <trkpt lat="43.53007" lon="6.26287">
        <ele>214.3</ele>
        <time>2025-07-25T08:02:17.643Z</time>
      </trkpt>
      <trkpt lat="43.53008" lon="6.26281">
        <ele>214.5</ele>
        <time>2025-07-25T08:02:22.154Z</time>
      </trkpt>
      <trkpt lat="43.5301" lon="6.26275">
        <ele>214.7</ele>
        <time>2025-07-25T08:02:26.665Z</time>
      </trkpt>
      <trkpt lat="43.53011" lon="6.26269">
        <ele>214.8</ele>
        <time>2025-07-25T08:02:31.176Z</time>
      </trkpt>
      <trkpt lat="43.53012" lon="6.26263">
        <ele>214.9</ele>
        <time>2025-07-25T08:02:35.687Z</time>
      </trkpt>
      <trkpt lat="43.53012" lon="6.26257">
        <ele>214.9</ele>
        <time>2025-07-25T08:02:40.391Z</time>
      </trkpt>
      <trkpt lat="43.53013" lon="6.2625">
        <ele>214.9</ele>
        <time>2025-07-25T08:02:45.095Z</time>
      </trkpt>
      <trkpt lat="43.53013" lon="6.26244">
        <ele>214.7</ele>
        <time>2025-07-25T08:02:49.799Z</time>
      </trkpt>
      <trkpt lat="43.53013" lon="6.26237">
        <ele>214.5</ele>
        <time>2025-07-25T08:02:54.503Z</time>
      </trkpt>
      <trkpt lat="43.53015" lon="6.26229">
        <ele>214.3</ele>
        <time>2025-07-25T08:03:00.961Z</time>
      </trkpt>
      <trkpt lat="43.53017" lon="6.2622">
        <ele>214.1</ele>
        <time>2025-07-25T08:03:07.419Z</time>
      </trkpt>
      <trkpt lat="43.53021" lon="6.26212">
        <ele>213.9</ele>
        <time>2025-07-25T08:03:14.442Z</time>
      </trkpt>
      <trkpt lat="43.53026" lon="6.26207">
        <ele>213.8</ele>
        <time>2025-07-25T08:03:20.598Z</time>
      </trkpt>
      <trkpt lat="43.53031" lon="6.26203">
        <ele>213.6</ele>
        <time>2025-07-25T08:03:25.934Z</time>
      </trkpt>
      <trkpt lat="43.53035" lon="6.26199">
        <ele>213.3</ele>
        <time>2025-07-25T08:03:31.270Z</time>
      </trkpt>
      <trkpt lat="43.53039" lon="6.26194">
        <ele>213</ele>
        <time>2025-07-25T08:03:36.531Z</time>
      </trkpt>
      <trkpt lat="43.53043" lon="6.2619">
        <ele>212.5</ele>
        <time>2025-07-25T08:03:41.792Z</time>
      </trkpt>
      <trkpt lat="43.53047" lon="6.26185">
        <ele>212</ele>
        <time>2025-07-25T08:03:47.053Z</time>
      </trkpt>
      <trkpt lat="43.53051" lon="6.2618">
        <ele>211.4</ele>
        <time>2025-07-25T08:03:52.314Z</time>
      </trkpt>
      <trkpt lat="43.53053" lon="6.26174">
        <ele>210.8</ele>
        <time>2025-07-25T08:03:57.087Z</time>
      </trkpt>
      <trkpt lat="43.53053" lon="6.26166">
        <ele>209.9</ele>
        <time>2025-07-25T08:04:02.869Z</time>
      </trkpt>
      <trkpt lat="43.5305" lon="6.26161">
        <ele>209.5</ele>
        <time>2025-07-25T08:04:08.158Z</time>
      </trkpt>
      <trkpt lat="43.53046" lon="6.26155">
        <ele>208.9</ele>
        <time>2025-07-25T08:04:13.447Z</time>
      </trkpt>
      <trkpt lat="43.53044" lon="6.26148">
        <ele>208.1</ele>
        <time>2025-07-25T08:04:19.086Z</time>
      </trkpt>
      <trkpt lat="43.53041" lon="6.26141">
        <ele>207.2</ele>
        <time>2025-07-25T08:04:24.726Z</time>
      </trkpt>
      <trkpt lat="43.53038" lon="6.26145">
        <ele>207.5</ele>
        <time>2025-07-25T08:04:28.885Z</time>
      </trkpt>
      <trkpt lat="43.53034" lon="6.2615">
        <ele>207.9</ele>
        <time>2025-07-25T08:04:34.645Z</time>
      </trkpt>
      <trkpt lat="43.53029" lon="6.26155">
        <ele>208.4</ele>
        <time>2025-07-25T08:04:40.405Z</time>
      </trkpt>
      <trkpt lat="43.53022" lon="6.26158">
        <ele>208.5</ele>
        <time>2025-07-25T08:04:48.097Z</time>
      </trkpt>
      <trkpt lat="43.53014" lon="6.2616">
        <ele>208.5</ele>
        <time>2025-07-25T08:04:55.789Z</time>
      </trkpt>
      <trkpt lat="43.5301" lon="6.26159">
        <ele>208.3</ele>
        <time>2025-07-25T08:05:00.333Z</time>
      </trkpt>
      <trkpt lat="43.53005" lon="6.26158">
        <ele>207.9</ele>
        <time>2025-07-25T08:05:04.877Z</time>
      </trkpt>
      <trkpt lat="43.53" lon="6.26156">
        <ele>207.5</ele>
        <time>2025-07-25T08:05:10.067Z</time>
      </trkpt>
      <trkpt lat="43.52995" lon="6.26157">
        <ele>207</ele>
        <time>2025-07-25T08:05:15.597Z</time>
      </trkpt>
      <trkpt lat="43.52989" lon="6.26158">
        <ele>206.3</ele>
        <time>2025-07-25T08:05:21.127Z</time>
      </trkpt>
      <trkpt lat="43.52984" lon="6.26159">
        <ele>205.7</ele>
        <time>2025-07-25T08:05:26.164Z</time>
      </trkpt>
      <trkpt lat="43.52979" lon="6.26166">
        <ele>205.2</ele>
        <time>2025-07-25T08:05:33.267Z</time>
      </trkpt>
      <trkpt lat="43.52973" lon="6.26173">
        <ele>204.6</ele>
        <time>2025-07-25T08:05:41.102Z</time>
      </trkpt>
      <trkpt lat="43.5297" lon="6.26171">
        <ele>204.5</ele>
        <time>2025-07-25T08:05:44.424Z</time>
      </trkpt>
      <trkpt lat="43.52967" lon="6.26169">
        <ele>204.7</ele>
        <time>2025-07-25T08:05:47.746Z</time>
      </trkpt>
      <trkpt lat="43.52966" lon="6.26164">
        <ele>204.7</ele>
        <time>2025-07-25T08:05:51.495Z</time>
      </trkpt>
      <trkpt lat="43.5297" lon="6.26163">
        <ele>204.3</ele>
        <time>2025-07-25T08:05:55.548Z</time>
      </trkpt>
      <trkpt lat="43.52969" lon="6.26157">
        <ele>204.4</ele>
        <time>2025-07-25T08:06:00.000Z</time>
      </trkpt>
      <trkpt lat="43.52966" lon="6.26148">
        <ele>204.8</ele>
        <time>2025-07-25T08:06:10.000Z</time>
      </trkpt>
      <trkpt lat="43.52958" lon="6.26146">
        <ele>205.9</ele>
        <time>2025-07-25T08:06:20.000Z</time>
      </trkpt>
      <trkpt lat="43.52955" lon="6.26141">
        <ele>206.4</ele>
        <time>2025-07-25T08:06:37.999Z</time>
      </trkpt>
      <trkpt lat="43.52953" lon="6.26136">
        <ele>206.9</ele>
        <time>2025-07-25T08:06:55.999Z</time>
      </trkpt>
      <trkpt lat="43.5295" lon="6.26131">
        <ele>207.6</ele>
        <time>2025-07-25T08:07:13.999Z</time>
      </trkpt>
      <trkpt lat="43.52947" lon="6.26126">
        <ele>208.4</ele>
        <time>2025-07-25T08:07:32.000Z</time>
      </trkpt>
      <trkpt lat="43.52942" lon="6.26121">
        <ele>209.4</ele>
        <time>2025-07-25T08:07:42.000Z</time>
      </trkpt>
      <trkpt lat="43.52936" lon="6.26119">
        <ele>209.6</ele>
        <time>2025-07-25T08:07:52.000Z</time>
      </trkpt>
      <trkpt lat="43.52932" lon="6.26116">
        <ele>209.7</ele>
        <time>2025-07-25T08:08:05.499Z</time>
      </trkpt>
      <trkpt lat="43.52927" lon="6.26113">
        <ele>209.5</ele>
        <time>2025-07-25T08:08:19.000Z</time>
      </trkpt>
      <trkpt lat="43.52921" lon="6.26105">
        <ele>208.9</ele>
        <time>2025-07-25T08:08:29.000Z</time>
      </trkpt>
      <trkpt lat="43.52916" lon="6.26102">
        <ele>208.7</ele>
        <time>2025-07-25T08:08:33.999Z</time>
      </trkpt>
      <trkpt lat="43.52911" lon="6.26099">
        <ele>209.2</ele>
        <time>2025-07-25T08:08:39.000Z</time>
      </trkpt>
      <trkpt lat="43.52903" lon="6.26098">
        <ele>210</ele>
        <time>2025-07-25T08:08:49.000Z</time>
      </trkpt>
      <trkpt lat="43.52898" lon="6.261">
        <ele>210.6</ele>
        <time>2025-07-25T08:08:53.999Z</time>
      </trkpt>
      <trkpt lat="43.52892" lon="6.26102">
        <ele>211.3</ele>
        <time>2025-07-25T08:08:59.000Z</time>
      </trkpt>
      <trkpt lat="43.52887" lon="6.26103">
        <ele>211.8</ele>
        <time>2025-07-25T08:09:04.000Z</time>
      </trkpt>
      <trkpt lat="43.52882" lon="6.26103">
        <ele>211.9</ele>
        <time>2025-07-25T08:09:09.000Z</time>
      </trkpt>
      <trkpt lat="43.52875" lon="6.26107">
        <ele>212.1</ele>
        <time>2025-07-25T08:09:19.000Z</time>
      </trkpt>
      <trkpt lat="43.52868" lon="6.26104">
        <ele>212.3</ele>
        <time>2025-07-25T08:09:29.000Z</time>
      </trkpt>
      <trkpt lat="43.52863" lon="6.26106">
        <ele>212.3</ele>
        <time>2025-07-25T08:09:34.000Z</time>
      </trkpt>
      <trkpt lat="43.52858" lon="6.26107">
        <ele>212.4</ele>
        <time>2025-07-25T08:09:39.000Z</time>
      </trkpt>
      <trkpt lat="43.52852" lon="6.26108">
        <ele>212.5</ele>
        <time>2025-07-25T08:09:49.000Z</time>
      </trkpt>
      <trkpt lat="43.52847" lon="6.26111">
        <ele>212</ele>
        <time>2025-07-25T08:09:53.999Z</time>
      </trkpt>
      <trkpt lat="43.52842" lon="6.26113">
        <ele>212.7</ele>
        <time>2025-07-25T08:09:59.000Z</time>
      </trkpt>
      <trkpt lat="43.52836" lon="6.26115">
        <ele>213.3</ele>
        <time>2025-07-25T08:10:09.000Z</time>
      </trkpt>
      <trkpt lat="43.52828" lon="6.26118">
        <ele>214.8</ele>
        <time>2025-07-25T08:10:19.000Z</time>
      </trkpt>
      <trkpt lat="43.52821" lon="6.26122">
        <ele>216.4</ele>
        <time>2025-07-25T08:10:29.000Z</time>
      </trkpt>
      <trkpt lat="43.52815" lon="6.26125">
        <ele>217.2</ele>
        <time>2025-07-25T08:10:39.000Z</time>
      </trkpt>
      <trkpt lat="43.5281" lon="6.26127">
        <ele>217.5</ele>
        <time>2025-07-25T08:10:49.000Z</time>
      </trkpt>
      <trkpt lat="43.52805" lon="6.26131">
        <ele>217.8</ele>
        <time>2025-07-25T08:10:59.000Z</time>
      </trkpt>
      <trkpt lat="43.528" lon="6.26134">
        <ele>218.1</ele>
        <time>2025-07-25T08:11:09.000Z</time>
      </trkpt>
      <trkpt lat="43.52794" lon="6.26136">
        <ele>218.2</ele>
        <time>2025-07-25T08:11:19.000Z</time>
      </trkpt>
      <trkpt lat="43.52788" lon="6.26139">
        <ele>218</ele>
        <time>2025-07-25T08:11:29.000Z</time>
      </trkpt>
      <trkpt lat="43.52782" lon="6.26141">
        <ele>218.6</ele>
        <time>2025-07-25T08:11:39.000Z</time>
      </trkpt>
      <trkpt lat="43.52774" lon="6.26146">
        <ele>220.4</ele>
        <time>2025-07-25T08:11:49.000Z</time>
      </trkpt>
      <trkpt lat="43.52768" lon="6.26143">
        <ele>220.2</ele>
        <time>2025-07-25T08:11:59.000Z</time>
      </trkpt>
      <trkpt lat="43.52761" lon="6.26141">
        <ele>220.4</ele>
        <time>2025-07-25T08:12:09.000Z</time>
      </trkpt>
      <trkpt lat="43.52757" lon="6.26139">
        <ele>220.3</ele>
        <time>2025-07-25T08:12:13.999Z</time>
      </trkpt>
      <trkpt lat="43.52752" lon="6.26136">
        <ele>220.9</ele>
        <time>2025-07-25T08:12:19.000Z</time>
      </trkpt>
      <trkpt lat="43.52745" lon="6.26134">
        <ele>222.2</ele>
        <time>2025-07-25T08:12:29.000Z</time>
      </trkpt>
      <trkpt lat="43.5274" lon="6.26128">
        <ele>223.1</ele>
        <time>2025-07-25T08:12:39.000Z</time>
      </trkpt>
      <trkpt lat="43.52734" lon="6.26121">
        <ele>223.5</ele>
        <time>2025-07-25T08:12:49.000Z</time>
      </trkpt>
      <trkpt lat="43.5273" lon="6.26115">
        <ele>223.2</ele>
        <time>2025-07-25T08:12:53.999Z</time>
      </trkpt>
      <trkpt lat="43.52725" lon="6.26109">
        <ele>223</ele>
        <time>2025-07-25T08:12:59.000Z</time>
      </trkpt>
      <trkpt lat="43.5272" lon="6.26105">
        <ele>223.6</ele>
        <time>2025-07-25T08:13:03.999Z</time>
      </trkpt>
      <trkpt lat="43.52714" lon="6.26101">
        <ele>224.9</ele>
        <time>2025-07-25T08:13:09.000Z</time>
      </trkpt>
      <trkpt lat="43.52708" lon="6.26095">
        <ele>225.5</ele>
        <time>2025-07-25T08:13:19.000Z</time>
      </trkpt>
      <trkpt lat="43.527" lon="6.2609">
        <ele>225.9</ele>
        <time>2025-07-25T08:13:29.000Z</time>
      </trkpt>
      <trkpt lat="43.52692" lon="6.26085">
        <ele>225.6</ele>
        <time>2025-07-25T08:13:39.000Z</time>
      </trkpt>
      <trkpt lat="43.52687" lon="6.26086">
        <ele>226.2</ele>
        <time>2025-07-25T08:13:44.000Z</time>
      </trkpt>
      <trkpt lat="43.52681" lon="6.26086">
        <ele>226.6</ele>
        <time>2025-07-25T08:13:49.000Z</time>
      </trkpt>
      <trkpt lat="43.52677" lon="6.26086">
        <ele>226.9</ele>
        <time>2025-07-25T08:13:54.000Z</time>
      </trkpt>
      <trkpt lat="43.52672" lon="6.26086">
        <ele>227.2</ele>
        <time>2025-07-25T08:13:59.000Z</time>
      </trkpt>
      <trkpt lat="43.52667" lon="6.26088">
        <ele>228</ele>
        <time>2025-07-25T08:14:04.000Z</time>
      </trkpt>
      <trkpt lat="43.52662" lon="6.26089">
        <ele>228.1</ele>
        <time>2025-07-25T08:14:09.000Z</time>
      </trkpt>
      <trkpt lat="43.52658" lon="6.26091">
        <ele>228.3</ele>
        <time>2025-07-25T08:14:13.999Z</time>
      </trkpt>
      <trkpt lat="43.52653" lon="6.26093">
        <ele>228.4</ele>
        <time>2025-07-25T08:14:19.000Z</time>
      </trkpt>
      <trkpt lat="43.52647" lon="6.26095">
        <ele>228.3</ele>
        <time>2025-07-25T08:14:24.000Z</time>
      </trkpt>
      <trkpt lat="43.5264" lon="6.26096">
        <ele>228</ele>
        <time>2025-07-25T08:14:29.000Z</time>
      </trkpt>
      <trkpt lat="43.52633" lon="6.26095">
        <ele>228.7</ele>
        <time>2025-07-25T08:14:39.000Z</time>
      </trkpt>
      <trkpt lat="43.52628" lon="6.26093">
        <ele>229.1</ele>
        <time>2025-07-25T08:14:49.000Z</time>
      </trkpt>
      <trkpt lat="43.52621" lon="6.26087">
        <ele>229.4</ele>
        <time>2025-07-25T08:14:59.000Z</time>
      </trkpt>
      <trkpt lat="43.52613" lon="6.26083">
        <ele>229.8</ele>
        <time>2025-07-25T08:15:09.000Z</time>
      </trkpt>
      <trkpt lat="43.52611" lon="6.26078">
        <ele>230.8</ele>
        <time>2025-07-25T08:15:19.000Z</time>
      </trkpt>
      <trkpt lat="43.52606" lon="6.26072">
        <ele>232</ele>
        <time>2025-07-25T08:15:29.000Z</time>
      </trkpt>
      <trkpt lat="43.52602" lon="6.26061">
        <ele>233.2</ele>
        <time>2025-07-25T08:15:39.000Z</time>
      </trkpt>
      <trkpt lat="43.52598" lon="6.26055">
        <ele>233.6</ele>
        <time>2025-07-25T08:15:49.000Z</time>
      </trkpt>
      <trkpt lat="43.52595" lon="6.26045">
        <ele>234.4</ele>
        <time>2025-07-25T08:15:59.000Z</time>
      </trkpt>
      <trkpt lat="43.52593" lon="6.26037">
        <ele>234.9</ele>
        <time>2025-07-25T08:16:09.000Z</time>
      </trkpt>
      <trkpt lat="43.52593" lon="6.26027">
        <ele>235.8</ele>
        <time>2025-07-25T08:16:19.000Z</time>
      </trkpt>
      <trkpt lat="43.5259" lon="6.26018">
        <ele>236.4</ele>
        <time>2025-07-25T08:16:29.000Z</time>
      </trkpt>
      <trkpt lat="43.52588" lon="6.26009">
        <ele>237.1</ele>
        <time>2025-07-25T08:16:39.000Z</time>
      </trkpt>
      <trkpt lat="43.52584" lon="6.26">
        <ele>237.2</ele>
        <time>2025-07-25T08:16:49.000Z</time>
      </trkpt>
      <trkpt lat="43.52583" lon="6.25994">
        <ele>237.9</ele>
        <time>2025-07-25T08:16:59.499Z</time>
      </trkpt>
      <trkpt lat="43.52582" lon="6.25987">
        <ele>239.1</ele>
        <time>2025-07-25T08:17:10.000Z</time>
      </trkpt>
      <trkpt lat="43.52579" lon="6.2598">
        <ele>240.7</ele>
        <time>2025-07-25T08:17:20.000Z</time>
      </trkpt>
      <trkpt lat="43.52577" lon="6.25971">
        <ele>242.3</ele>
        <time>2025-07-25T08:17:30.000Z</time>
      </trkpt>
      <trkpt lat="43.52574" lon="6.25962">
        <ele>243.8</ele>
        <time>2025-07-25T08:17:40.000Z</time>
      </trkpt>
      <trkpt lat="43.52571" lon="6.25954">
        <ele>245.2</ele>
        <time>2025-07-25T08:17:54.000Z</time>
      </trkpt>
      <trkpt lat="43.52569" lon="6.25948">
        <ele>246.2</ele>
        <time>2025-07-25T08:18:04.000Z</time>
      </trkpt>
      <trkpt lat="43.52566" lon="6.25941">
        <ele>247.4</ele>
        <time>2025-07-25T08:18:15.499Z</time>
      </trkpt>
      <trkpt lat="43.52563" lon="6.25933">
        <ele>248.5</ele>
        <time>2025-07-25T08:18:26.999Z</time>
      </trkpt>
      <trkpt lat="43.5256" lon="6.25926">
        <ele>249.3</ele>
        <time>2025-07-25T08:18:38.499Z</time>
      </trkpt>
      <trkpt lat="43.52557" lon="6.25918">
        <ele>249.9</ele>
        <time>2025-07-25T08:18:50.000Z</time>
      </trkpt>
      <trkpt lat="43.52556" lon="6.25912">
        <ele>250.3</ele>
        <time>2025-07-25T08:18:54.999Z</time>
      </trkpt>
      <trkpt lat="43.52555" lon="6.25905">
        <ele>251</ele>
        <time>2025-07-25T08:19:00.000Z</time>
      </trkpt>
      <trkpt lat="43.52552" lon="6.25901">
        <ele>252.1</ele>
        <time>2025-07-25T08:19:10.000Z</time>
      </trkpt>
      <trkpt lat="43.52549" lon="6.25894">
        <ele>253.4</ele>
        <time>2025-07-25T08:19:20.000Z</time>
      </trkpt>
      <trkpt lat="43.52547" lon="6.25888">
        <ele>254.2</ele>
        <time>2025-07-25T08:19:24.999Z</time>
      </trkpt>
      <trkpt lat="43.52544" lon="6.25882">
        <ele>255.2</ele>
        <time>2025-07-25T08:19:30.000Z</time>
      </trkpt>
      <trkpt lat="43.52541" lon="6.25875">
        <ele>256.1</ele>
        <time>2025-07-25T08:19:40.000Z</time>
      </trkpt>
      <trkpt lat="43.52538" lon="6.25871">
        <ele>256.7</ele>
        <time>2025-07-25T08:19:44.999Z</time>
      </trkpt>
      <trkpt lat="43.52534" lon="6.25867">
        <ele>257.4</ele>
        <time>2025-07-25T08:19:50.000Z</time>
      </trkpt>
      <trkpt lat="43.52529" lon="6.25862">
        <ele>257.9</ele>
        <time>2025-07-25T08:19:54.999Z</time>
      </trkpt>
      <trkpt lat="43.52524" lon="6.25856">
        <ele>258.2</ele>
        <time>2025-07-25T08:20:00.000Z</time>
      </trkpt>
      <trkpt lat="43.5252" lon="6.25852">
        <ele>258.5</ele>
        <time>2025-07-25T08:20:04.999Z</time>
      </trkpt>
      <trkpt lat="43.52516" lon="6.25847">
        <ele>258.6</ele>
        <time>2025-07-25T08:20:10.000Z</time>
      </trkpt>
      <trkpt lat="43.52511" lon="6.25844">
        <ele>258.8</ele>
        <time>2025-07-25T08:20:14.999Z</time>
      </trkpt>
      <trkpt lat="43.52505" lon="6.2584">
        <ele>259</ele>
        <time>2025-07-25T08:20:20.000Z</time>
      </trkpt>
      <trkpt lat="43.52502" lon="6.25836">
        <ele>259</ele>
        <time>2025-07-25T08:20:30.000Z</time>
      </trkpt>
      <trkpt lat="43.525" lon="6.25835">
        <ele>259.1</ele>
        <time>2025-07-25T08:22:09.000Z</time>
      </trkpt>
      <trkpt lat="43.52496" lon="6.25832">
        <ele>259.1</ele>
        <time>2025-07-25T08:22:13.999Z</time>
      </trkpt>
      <trkpt lat="43.52491" lon="6.25828">
        <ele>259.3</ele>
        <time>2025-07-25T08:22:19.000Z</time>
      </trkpt>
      <trkpt lat="43.52487" lon="6.25824">
        <ele>259.5</ele>
        <time>2025-07-25T08:22:23.999Z</time>
      </trkpt>
      <trkpt lat="43.52482" lon="6.25819">
        <ele>259.6</ele>
        <time>2025-07-25T08:22:29.000Z</time>
      </trkpt>
      <trkpt lat="43.52477" lon="6.25814">
        <ele>259.8</ele>
        <time>2025-07-25T08:22:33.999Z</time>
      </trkpt>
      <trkpt lat="43.52472" lon="6.25809">
        <ele>260</ele>
        <time>2025-07-25T08:22:39.000Z</time>
      </trkpt>
      <trkpt lat="43.52468" lon="6.25806">
        <ele>259.9</ele>
        <time>2025-07-25T08:22:43.999Z</time>
      </trkpt>
      <trkpt lat="43.52464" lon="6.25802">
        <ele>259.7</ele>
        <time>2025-07-25T08:22:49.000Z</time>
      </trkpt>
      <trkpt lat="43.52457" lon="6.25796">
        <ele>259.3</ele>
        <time>2025-07-25T08:22:59.000Z</time>
      </trkpt>
      <trkpt lat="43.52453" lon="6.25804">
        <ele>259.3</ele>
        <time>2025-07-25T08:23:09.000Z</time>
      </trkpt>
      <trkpt lat="43.52452" lon="6.25814">
        <ele>259.5</ele>
        <time>2025-07-25T08:23:19.387Z</time>
      </trkpt>
      <trkpt lat="43.5245" lon="6.25814">
        <ele>259.4</ele>
        <time>2025-07-25T08:23:22.225Z</time>
      </trkpt>
      <trkpt lat="43.52449" lon="6.25825">
        <ele>259.7</ele>
        <time>2025-07-25T08:23:33.741Z</time>
      </trkpt>
      <trkpt lat="43.52447" lon="6.25836">
        <ele>260.1</ele>
        <time>2025-07-25T08:23:45.257Z</time>
      </trkpt>
      <trkpt lat="43.52445" lon="6.25847">
        <ele>260.5</ele>
        <time>2025-07-25T08:23:57.117Z</time>
      </trkpt>
      <trkpt lat="43.52442" lon="6.25858">
        <ele>260.7</ele>
        <time>2025-07-25T08:24:08.977Z</time>
      </trkpt>
      <trkpt lat="43.52439" lon="6.25865">
        <ele>260.9</ele>
        <time>2025-07-25T08:24:17.342Z</time>
      </trkpt>
      <trkpt lat="43.52438" lon="6.25877">
        <ele>261.7</ele>
        <time>2025-07-25T08:24:29.512Z</time>
      </trkpt>
      <trkpt lat="43.52437" lon="6.25889">
        <ele>262.5</ele>
        <time>2025-07-25T08:24:41.682Z</time>
      </trkpt>
      <trkpt lat="43.52436" lon="6.259">
        <ele>262.8</ele>
        <time>2025-07-25T08:24:53.852Z</time>
      </trkpt>
      <trkpt lat="43.52435" lon="6.25912">
        <ele>263.2</ele>
        <time>2025-07-25T08:25:06.022Z</time>
      </trkpt>
      <trkpt lat="43.52434" lon="6.25922">
        <ele>263.3</ele>
        <time>2025-07-25T08:25:16.207Z</time>
      </trkpt>
      <trkpt lat="43.52433" lon="6.25932">
        <ele>263.4</ele>
        <time>2025-07-25T08:25:26.392Z</time>
      </trkpt>
      <trkpt lat="43.52431" lon="6.25941">
        <ele>263.5</ele>
        <time>2025-07-25T08:25:36.577Z</time>
      </trkpt>
      <trkpt lat="43.5243" lon="6.25951">
        <ele>263.4</ele>
        <time>2025-07-25T08:25:46.762Z</time>
      </trkpt>
      <trkpt lat="43.52428" lon="6.25957">
        <ele>263.2</ele>
        <time>2025-07-25T08:25:53.554Z</time>
      </trkpt>
      <trkpt lat="43.52426" lon="6.25965">
        <ele>263.1</ele>
        <time>2025-07-25T08:26:02.257Z</time>
      </trkpt>
      <trkpt lat="43.52422" lon="6.25968">
        <ele>263</ele>
        <time>2025-07-25T08:26:08.715Z</time>
      </trkpt>
      <trkpt lat="43.52418" lon="6.25971">
        <ele>263</ele>
        <time>2025-07-25T08:26:15.173Z</time>
      </trkpt>
      <trkpt lat="43.52414" lon="6.25974">
        <ele>263.2</ele>
        <time>2025-07-25T08:26:21.631Z</time>
      </trkpt>
      <trkpt lat="43.52408" lon="6.25979">
        <ele>263.5</ele>
        <time>2025-07-25T08:26:31.573Z</time>
      </trkpt>
      <trkpt lat="43.52405" lon="6.25987">
        <ele>263.6</ele>
        <time>2025-07-25T08:26:40.834Z</time>
      </trkpt>
      <trkpt lat="43.52404" lon="6.25996">
        <ele>263.5</ele>
        <time>2025-07-25T08:26:50.329Z</time>
      </trkpt>
      <trkpt lat="43.52402" lon="6.26005">
        <ele>263.3</ele>
        <time>2025-07-25T08:26:59.824Z</time>
      </trkpt>
      <trkpt lat="43.52401" lon="6.26012">
        <ele>262.9</ele>
        <time>2025-07-25T08:27:06.656Z</time>
      </trkpt>
      <trkpt lat="43.524" lon="6.26018">
        <ele>262.7</ele>
        <time>2025-07-25T08:27:13.488Z</time>
      </trkpt>
      <trkpt lat="43.52399" lon="6.26027">
        <ele>262.3</ele>
        <time>2025-07-25T08:27:22.849Z</time>
      </trkpt>
      <trkpt lat="43.52398" lon="6.26037">
        <ele>262</ele>
        <time>2025-07-25T08:27:33.227Z</time>
      </trkpt>
      <trkpt lat="43.52398" lon="6.26046">
        <ele>261.7</ele>
        <time>2025-07-25T08:27:41.965Z</time>
      </trkpt>
      <trkpt lat="43.52398" lon="6.26054">
        <ele>261.4</ele>
        <time>2025-07-25T08:27:50.703Z</time>
      </trkpt>
      <trkpt lat="43.52399" lon="6.26063">
        <ele>261.8</ele>
        <time>2025-07-25T08:27:59.982Z</time>
      </trkpt>
      <trkpt lat="43.52399" lon="6.26072">
        <ele>262.4</ele>
        <time>2025-07-25T08:28:09.260Z</time>
      </trkpt>
      <trkpt lat="43.524" lon="6.26084">
        <ele>263.1</ele>
        <time>2025-07-25T08:28:21.614Z</time>
      </trkpt>
      <trkpt lat="43.524" lon="6.26096">
        <ele>264.2</ele>
        <time>2025-07-25T08:28:33.967Z</time>
      </trkpt>
      <trkpt lat="43.524" lon="6.26107">
        <ele>265.2</ele>
        <time>2025-07-25T08:28:44.763Z</time>
      </trkpt>
      <trkpt lat="43.52401" lon="6.26117">
        <ele>265.7</ele>
        <time>2025-07-25T08:28:55.558Z</time>
      </trkpt>
      <trkpt lat="43.52401" lon="6.26128">
        <ele>266.3</ele>
        <time>2025-07-25T08:29:06.352Z</time>
      </trkpt>
      <trkpt lat="43.52401" lon="6.26138">
        <ele>266.9</ele>
        <time>2025-07-25T08:29:17.145Z</time>
      </trkpt>
      <trkpt lat="43.524" lon="6.26148">
        <ele>267</ele>
        <time>2025-07-25T08:29:27.515Z</time>
      </trkpt>
      <trkpt lat="43.52399" lon="6.26158">
        <ele>267</ele>
        <time>2025-07-25T08:29:37.885Z</time>
      </trkpt>
      <trkpt lat="43.52398" lon="6.26169">
        <ele>267.1</ele>
        <time>2025-07-25T08:29:49.383Z</time>
      </trkpt>
      <trkpt lat="43.52396" lon="6.2618">
        <ele>267.7</ele>
        <time>2025-07-25T08:30:00.881Z</time>
      </trkpt>
      <trkpt lat="43.52395" lon="6.26185">
        <ele>268</ele>
        <time>2025-07-25T08:30:06.209Z</time>
      </trkpt>
      <trkpt lat="43.52395" lon="6.2619">
        <ele>268</ele>
        <time>2025-07-25T08:30:11.345Z</time>
      </trkpt>
      <trkpt lat="43.52396" lon="6.26195">
        <ele>268</ele>
        <time>2025-07-25T08:30:16.672Z</time>
      </trkpt>
      <trkpt lat="43.52399" lon="6.26198">
        <ele>267.9</ele>
        <time>2025-07-25T08:30:21.920Z</time>
      </trkpt>
      <trkpt lat="43.52403" lon="6.26199">
        <ele>267.5</ele>
        <time>2025-07-25T08:30:27.677Z</time>
      </trkpt>
      <trkpt lat="43.5241" lon="6.26202">
        <ele>266.9</ele>
        <time>2025-07-25T08:30:37.305Z</time>
      </trkpt>
      <trkpt lat="43.52416" lon="6.26205">
        <ele>266.6</ele>
        <time>2025-07-25T08:30:46.932Z</time>
      </trkpt>
      <trkpt lat="43.52423" lon="6.26207">
        <ele>266.5</ele>
        <time>2025-07-25T08:30:56.558Z</time>
      </trkpt>
      <trkpt lat="43.52429" lon="6.2621">
        <ele>266.5</ele>
        <time>2025-07-25T08:31:06.183Z</time>
      </trkpt>
      <trkpt lat="43.52437" lon="6.26214">
        <ele>266.6</ele>
        <time>2025-07-25T08:31:17.391Z</time>
      </trkpt>
      <trkpt lat="43.52444" lon="6.26217">
        <ele>266.5</ele>
        <time>2025-07-25T08:31:28.598Z</time>
      </trkpt>
      <trkpt lat="43.5245" lon="6.26221">
        <ele>266.1</ele>
        <time>2025-07-25T08:31:38.030Z</time>
      </trkpt>
      <trkpt lat="43.52453" lon="6.26227">
        <ele>266</ele>
        <time>2025-07-25T08:31:45.509Z</time>
      </trkpt>
      <trkpt lat="43.52455" lon="6.26234">
        <ele>266</ele>
        <time>2025-07-25T08:31:53.229Z</time>
      </trkpt>
      <trkpt lat="43.52456" lon="6.26242">
        <ele>266.2</ele>
        <time>2025-07-25T08:32:00.956Z</time>
      </trkpt>
      <trkpt lat="43.52456" lon="6.26249">
        <ele>266.5</ele>
        <time>2025-07-25T08:32:08.682Z</time>
      </trkpt>
      <trkpt lat="43.52452" lon="6.2626">
        <ele>266.9</ele>
        <time>2025-07-25T08:32:21.305Z</time>
      </trkpt>
      <trkpt lat="43.52448" lon="6.26267">
        <ele>267.5</ele>
        <time>2025-07-25T08:32:30.447Z</time>
      </trkpt>
      <trkpt lat="43.52444" lon="6.26274">
        <ele>268.2</ele>
        <time>2025-07-25T08:32:39.589Z</time>
      </trkpt>
      <trkpt lat="43.52438" lon="6.26281">
        <ele>268.8</ele>
        <time>2025-07-25T08:32:51.255Z</time>
      </trkpt>
      <trkpt lat="43.52431" lon="6.26288">
        <ele>269.6</ele>
        <time>2025-07-25T08:33:02.921Z</time>
      </trkpt>
      <trkpt lat="43.52424" lon="6.26293">
        <ele>270.4</ele>
        <time>2025-07-25T08:33:14.072Z</time>
      </trkpt>
      <trkpt lat="43.52417" lon="6.26298">
        <ele>271.2</ele>
        <time>2025-07-25T08:33:25.223Z</time>
      </trkpt>
      <trkpt lat="43.5241" lon="6.26301">
        <ele>271.6</ele>
        <time>2025-07-25T08:33:35.423Z</time>
      </trkpt>
      <trkpt lat="43.52403" lon="6.26304">
        <ele>272</ele>
        <time>2025-07-25T08:33:45.623Z</time>
      </trkpt>
      <trkpt lat="43.52396" lon="6.26307">
        <ele>272.4</ele>
        <time>2025-07-25T08:33:55.823Z</time>
      </trkpt>
      <trkpt lat="43.5239" lon="6.2631">
        <ele>272.8</ele>
        <time>2025-07-25T08:34:06.023Z</time>
      </trkpt>
      <trkpt lat="43.52383" lon="6.26313">
        <ele>273.4</ele>
        <time>2025-07-25T08:34:16.223Z</time>
      </trkpt>
      <trkpt lat="43.52376" lon="6.26316">
        <ele>274.2</ele>
        <time>2025-07-25T08:34:26.423Z</time>
      </trkpt>
      <trkpt lat="43.52369" lon="6.26319">
        <ele>275</ele>
        <time>2025-07-25T08:34:36.623Z</time>
      </trkpt>
      <trkpt lat="43.52362" lon="6.26322">
        <ele>275.9</ele>
        <time>2025-07-25T08:34:46.823Z</time>
      </trkpt>
      <trkpt lat="43.52359" lon="6.26327">
        <ele>276.5</ele>
        <time>2025-07-25T08:34:53.523Z</time>
      </trkpt>
      <trkpt lat="43.52357" lon="6.26333">
        <ele>277</ele>
        <time>2025-07-25T08:35:00.223Z</time>
      </trkpt>
      <trkpt lat="43.52354" lon="6.26338">
        <ele>277.9</ele>
        <time>2025-07-25T08:35:06.923Z</time>
      </trkpt>
      <trkpt lat="43.52352" lon="6.26344">
        <ele>278.6</ele>
        <time>2025-07-25T08:35:13.623Z</time>
      </trkpt>
      <trkpt lat="43.52349" lon="6.26349">
        <ele>279.4</ele>
        <time>2025-07-25T08:35:20.323Z</time>
      </trkpt>
      <trkpt lat="43.52346" lon="6.26355">
        <ele>280.2</ele>
        <time>2025-07-25T08:35:27.023Z</time>
      </trkpt>
      <trkpt lat="43.52344" lon="6.2636">
        <ele>280.7</ele>
        <time>2025-07-25T08:35:33.723Z</time>
      </trkpt>
      <trkpt lat="43.52341" lon="6.26366">
        <ele>281.5</ele>
        <time>2025-07-25T08:35:40.423Z</time>
      </trkpt>
      <trkpt lat="43.52338" lon="6.26371">
        <ele>282.3</ele>
        <time>2025-07-25T08:35:47.123Z</time>
      </trkpt>
      <trkpt lat="43.52336" lon="6.26376">
        <ele>283</ele>
        <time>2025-07-25T08:35:53.823Z</time>
      </trkpt>
      <trkpt lat="43.52333" lon="6.26382">
        <ele>283.8</ele>
        <time>2025-07-25T08:36:00.523Z</time>
      </trkpt>
      <trkpt lat="43.52331" lon="6.26387">
        <ele>284.4</ele>
        <time>2025-07-25T08:36:07.223Z</time>
      </trkpt>
      <trkpt lat="43.52328" lon="6.26393">
        <ele>285.3</ele>
        <time>2025-07-25T08:36:13.923Z</time>
      </trkpt>
      <trkpt lat="43.52325" lon="6.26398">
        <ele>286.1</ele>
        <time>2025-07-25T08:36:20.623Z</time>
      </trkpt>
      <trkpt lat="43.52323" lon="6.26404">
        <ele>286.8</ele>
        <time>2025-07-25T08:36:27.323Z</time>
      </trkpt>
      <trkpt lat="43.5232" lon="6.26409">
        <ele>287.6</ele>
        <time>2025-07-25T08:36:34.023Z</time>
      </trkpt>
      <trkpt lat="43.52317" lon="6.26411">
        <ele>288.3</ele>
        <time>2025-07-25T08:36:38.736Z</time>
      </trkpt>
      <trkpt lat="43.52313" lon="6.2641">
        <ele>289.2</ele>
        <time>2025-07-25T08:36:44.485Z</time>
      </trkpt>
      <trkpt lat="43.52309" lon="6.26406">
        <ele>289.9</ele>
        <time>2025-07-25T08:36:51.472Z</time>
      </trkpt>
      <trkpt lat="43.52306" lon="6.26401">
        <ele>290.3</ele>
        <time>2025-07-25T08:36:58.550Z</time>
      </trkpt>
      <trkpt lat="43.52303" lon="6.26396">
        <ele>290.8</ele>
        <time>2025-07-25T08:37:05.628Z</time>
      </trkpt>
      <trkpt lat="43.52299" lon="6.2639">
        <ele>291.5</ele>
        <time>2025-07-25T08:37:12.706Z</time>
      </trkpt>
      <trkpt lat="43.52296" lon="6.26385">
        <ele>291.9</ele>
        <time>2025-07-25T08:37:19.784Z</time>
      </trkpt>
      <trkpt lat="43.52293" lon="6.2638">
        <ele>292.4</ele>
        <time>2025-07-25T08:37:26.862Z</time>
      </trkpt>
      <trkpt lat="43.5229" lon="6.26375">
        <ele>292.9</ele>
        <time>2025-07-25T08:37:33.940Z</time>
      </trkpt>
      <trkpt lat="43.52286" lon="6.26369">
        <ele>293.5</ele>
        <time>2025-07-25T08:37:41.018Z</time>
      </trkpt>
      <trkpt lat="43.52283" lon="6.26364">
        <ele>294</ele>
        <time>2025-07-25T08:37:48.096Z</time>
      </trkpt>
      <trkpt lat="43.52284" lon="6.26363">
        <ele>293.7</ele>
        <time>2025-07-25T08:37:49.842Z</time>
      </trkpt>
      <trkpt lat="43.52283" lon="6.26364">
        <ele>294</ele>
        <time>2025-07-25T08:37:51.588Z</time>
      </trkpt>
      <trkpt lat="43.52279" lon="6.26358">
        <ele>294.7</ele>
        <time>2025-07-25T08:38:00.132Z</time>
      </trkpt>
      <trkpt lat="43.52275" lon="6.26352">
        <ele>295.5</ele>
        <time>2025-07-25T08:38:08.676Z</time>
      </trkpt>
      <trkpt lat="43.52271" lon="6.26345">
        <ele>296.1</ele>
        <time>2025-07-25T08:38:17.220Z</time>
      </trkpt>
      <trkpt lat="43.52267" lon="6.26339">
        <ele>296.6</ele>
        <time>2025-07-25T08:38:25.764Z</time>
      </trkpt>
      <trkpt lat="43.52265" lon="6.26332">
        <ele>296.8</ele>
        <time>2025-07-25T08:38:33.954Z</time>
      </trkpt>
      <trkpt lat="43.52263" lon="6.26324">
        <ele>296.9</ele>
        <time>2025-07-25T08:38:42.144Z</time>
      </trkpt>
      <trkpt lat="43.52261" lon="6.26317">
        <ele>297.1</ele>
        <time>2025-07-25T08:38:50.334Z</time>
      </trkpt>
      <trkpt lat="43.52259" lon="6.26309">
        <ele>297.1</ele>
        <time>2025-07-25T08:38:58.524Z</time>
      </trkpt>
      <trkpt lat="43.52254" lon="6.26299">
        <ele>297.1</ele>
        <time>2025-07-25T08:39:10.973Z</time>
      </trkpt>
      <trkpt lat="43.52252" lon="6.26294">
        <ele>297</ele>
        <time>2025-07-25T08:39:17.625Z</time>
      </trkpt>
      <trkpt lat="43.52249" lon="6.26288">
        <ele>296.7</ele>
        <time>2025-07-25T08:39:24.277Z</time>
      </trkpt>
      <trkpt lat="43.52246" lon="6.26283">
        <ele>296.4</ele>
        <time>2025-07-25T08:39:30.927Z</time>
      </trkpt>
      <trkpt lat="43.52243" lon="6.26278">
        <ele>296</ele>
        <time>2025-07-25T08:39:37.577Z</time>
      </trkpt>
      <trkpt lat="43.5224" lon="6.26273">
        <ele>295.9</ele>
        <time>2025-07-25T08:39:44.007Z</time>
      </trkpt>
      <trkpt lat="43.52238" lon="6.26268">
        <ele>295.8</ele>
        <time>2025-07-25T08:39:50.437Z</time>
      </trkpt>
      <trkpt lat="43.52235" lon="6.26263">
        <ele>295.8</ele>
        <time>2025-07-25T08:39:56.867Z</time>
      </trkpt>
      <trkpt lat="43.52232" lon="6.26258">
        <ele>295.7</ele>
        <time>2025-07-25T08:40:03.297Z</time>
      </trkpt>
      <trkpt lat="43.52229" lon="6.26253">
        <ele>295.8</ele>
        <time>2025-07-25T08:40:09.727Z</time>
      </trkpt>
      <trkpt lat="43.52227" lon="6.26248">
        <ele>295.8</ele>
        <time>2025-07-25T08:40:16.157Z</time>
      </trkpt>
      <trkpt lat="43.52224" lon="6.26243">
        <ele>295.9</ele>
        <time>2025-07-25T08:40:22.587Z</time>
      </trkpt>
      <trkpt lat="43.52221" lon="6.26238">
        <ele>296</ele>
        <time>2025-07-25T08:40:29.017Z</time>
      </trkpt>
      <trkpt lat="43.52217" lon="6.2623">
        <ele>296.2</ele>
        <time>2025-07-25T08:40:39.391Z</time>
      </trkpt>
      <trkpt lat="43.52212" lon="6.26222">
        <ele>296.4</ele>
        <time>2025-07-25T08:40:49.765Z</time>
      </trkpt>
      <trkpt lat="43.52209" lon="6.26216">
        <ele>296.5</ele>
        <time>2025-07-25T08:40:57.655Z</time>
      </trkpt>
      <trkpt lat="43.52205" lon="6.2621">
        <ele>296.6</ele>
        <time>2025-07-25T08:41:05.545Z</time>
      </trkpt>
      <trkpt lat="43.522" lon="6.26201">
        <ele>296.8</ele>
        <time>2025-07-25T08:41:17.801Z</time>
      </trkpt>
      <trkpt lat="43.52194" lon="6.26192">
        <ele>297</ele>
        <time>2025-07-25T08:41:30.057Z</time>
      </trkpt>
      <trkpt lat="43.52189" lon="6.26182">
        <ele>297.5</ele>
        <time>2025-07-25T08:41:42.313Z</time>
      </trkpt>
      <trkpt lat="43.52183" lon="6.26173">
        <ele>298.1</ele>
        <time>2025-07-25T08:41:54.569Z</time>
      </trkpt>
      <trkpt lat="43.52182" lon="6.26171">
        <ele>298.3</ele>
        <time>2025-07-25T08:41:57.058Z</time>
      </trkpt>
      <trkpt lat="43.52178" lon="6.26164">
        <ele>298.8</ele>
        <time>2025-07-25T08:42:07.031Z</time>
      </trkpt>
      <trkpt lat="43.52173" lon="6.26156">
        <ele>299.4</ele>
        <time>2025-07-25T08:42:17.004Z</time>
      </trkpt>
      <trkpt lat="43.52169" lon="6.26149">
        <ele>299.8</ele>
        <time>2025-07-25T08:42:26.977Z</time>
      </trkpt>
      <trkpt lat="43.52164" lon="6.26141">
        <ele>300.1</ele>
        <time>2025-07-25T08:42:36.950Z</time>
      </trkpt>
      <trkpt lat="43.5216" lon="6.26134">
        <ele>300.1</ele>
        <time>2025-07-25T08:42:46.080Z</time>
      </trkpt>
      <trkpt lat="43.52157" lon="6.26129">
        <ele>300.1</ele>
        <time>2025-07-25T08:42:52.958Z</time>
      </trkpt>
      <trkpt lat="43.52154" lon="6.26124">
        <ele>300.2</ele>
        <time>2025-07-25T08:42:59.836Z</time>
      </trkpt>
      <trkpt lat="43.5215" lon="6.26119">
        <ele>300.3</ele>
        <time>2025-07-25T08:43:06.714Z</time>
      </trkpt>
      <trkpt lat="43.52147" lon="6.26114">
        <ele>300.4</ele>
        <time>2025-07-25T08:43:13.592Z</time>
      </trkpt>
      <trkpt lat="43.52143" lon="6.26106">
        <ele>300.5</ele>
        <time>2025-07-25T08:43:23.962Z</time>
      </trkpt>
      <trkpt lat="43.52138" lon="6.26098">
        <ele>300.5</ele>
        <time>2025-07-25T08:43:34.332Z</time>
      </trkpt>
      <trkpt lat="43.52135" lon="6.26093">
        <ele>300.4</ele>
        <time>2025-07-25T08:43:40.978Z</time>
      </trkpt>
      <trkpt lat="43.52132" lon="6.26088">
        <ele>300.4</ele>
        <time>2025-07-25T08:43:47.624Z</time>
      </trkpt>
      <trkpt lat="43.52129" lon="6.26083">
        <ele>300.4</ele>
        <time>2025-07-25T08:43:54.270Z</time>
      </trkpt>
      <trkpt lat="43.52126" lon="6.26078">
        <ele>300.4</ele>
        <time>2025-07-25T08:44:00.916Z</time>
      </trkpt>
      <trkpt lat="43.52123" lon="6.26073">
        <ele>300.4</ele>
        <time>2025-07-25T08:44:07.450Z</time>
      </trkpt>
      <trkpt lat="43.5212" lon="6.26068">
        <ele>300.3</ele>
        <time>2025-07-25T08:44:13.984Z</time>
      </trkpt>
      <trkpt lat="43.52117" lon="6.26063">
        <ele>300.2</ele>
        <time>2025-07-25T08:44:20.518Z</time>
      </trkpt>
      <trkpt lat="43.52115" lon="6.26058">
        <ele>300.1</ele>
        <time>2025-07-25T08:44:27.052Z</time>
      </trkpt>
      <trkpt lat="43.52112" lon="6.26053">
        <ele>299.9</ele>
        <time>2025-07-25T08:44:33.586Z</time>
      </trkpt>
      <trkpt lat="43.52109" lon="6.26048">
        <ele>299.7</ele>
        <time>2025-07-25T08:44:40.120Z</time>
      </trkpt>
      <trkpt lat="43.52106" lon="6.26043">
        <ele>299.5</ele>
        <time>2025-07-25T08:44:46.654Z</time>
      </trkpt>
      <trkpt lat="43.52103" lon="6.26038">
        <ele>299.4</ele>
        <time>2025-07-25T08:44:53.188Z</time>
      </trkpt>
      <trkpt lat="43.52099" lon="6.26032">
        <ele>299.2</ele>
        <time>2025-07-25T08:45:01.917Z</time>
      </trkpt>
      <trkpt lat="43.52095" lon="6.26025">
        <ele>298.8</ele>
        <time>2025-07-25T08:45:10.646Z</time>
      </trkpt>
      <trkpt lat="43.5209" lon="6.2602">
        <ele>298.5</ele>
        <time>2025-07-25T08:45:19.403Z</time>
      </trkpt>
      <trkpt lat="43.52086" lon="6.26014">
        <ele>298.1</ele>
        <time>2025-07-25T08:45:28.160Z</time>
      </trkpt>
      <trkpt lat="43.52081" lon="6.26009">
        <ele>297.6</ele>
        <time>2025-07-25T08:45:36.917Z</time>
      </trkpt>
      <trkpt lat="43.52076" lon="6.26003">
        <ele>297.2</ele>
        <time>2025-07-25T08:45:45.674Z</time>
      </trkpt>
      <trkpt lat="43.52071" lon="6.26001">
        <ele>297.1</ele>
        <time>2025-07-25T08:45:53.183Z</time>
      </trkpt>
      <trkpt lat="43.52066" lon="6.25998">
        <ele>296.9</ele>
        <time>2025-07-25T08:46:00.692Z</time>
      </trkpt>
      <trkpt lat="43.52059" lon="6.25996">
        <ele>296.7</ele>
        <time>2025-07-25T08:46:10.784Z</time>
      </trkpt>
      <trkpt lat="43.52055" lon="6.25996">
        <ele>296.7</ele>
        <time>2025-07-25T08:46:16.960Z</time>
      </trkpt>
      <trkpt lat="43.5205" lon="6.25996">
        <ele>296.5</ele>
        <time>2025-07-25T08:46:23.136Z</time>
      </trkpt>
      <trkpt lat="43.52042" lon="6.25996">
        <ele>296.3</ele>
        <time>2025-07-25T08:46:35.488Z</time>
      </trkpt>
      <trkpt lat="43.52038" lon="6.25996">
        <ele>296.2</ele>
        <time>2025-07-25T08:46:41.664Z</time>
      </trkpt>
      <trkpt lat="43.52033" lon="6.25996">
        <ele>296</ele>
        <time>2025-07-25T08:46:47.840Z</time>
      </trkpt>
      <trkpt lat="43.52029" lon="6.25996">
        <ele>295.9</ele>
        <time>2025-07-25T08:46:54.016Z</time>
      </trkpt>
      <trkpt lat="43.52024" lon="6.25996">
        <ele>295.6</ele>
        <time>2025-07-25T08:47:00.192Z</time>
      </trkpt>
      <trkpt lat="43.52019" lon="6.25998">
        <ele>295.3</ele>
        <time>2025-07-25T08:47:07.541Z</time>
      </trkpt>
      <trkpt lat="43.52014" lon="6.26">
        <ele>295</ele>
        <time>2025-07-25T08:47:14.890Z</time>
      </trkpt>
      <trkpt lat="43.52007" lon="6.26005">
        <ele>294.8</ele>
        <time>2025-07-25T08:47:26.018Z</time>
      </trkpt>
      <trkpt lat="43.52001" lon="6.26007">
        <ele>294.6</ele>
        <time>2025-07-25T08:47:34.731Z</time>
      </trkpt>
      <trkpt lat="43.51994" lon="6.26013">
        <ele>294.3</ele>
        <time>2025-07-25T08:47:45.797Z</time>
      </trkpt>
      <trkpt lat="43.51988" lon="6.26018">
        <ele>294</ele>
        <time>2025-07-25T08:47:56.863Z</time>
      </trkpt>
      <trkpt lat="43.51981" lon="6.26024">
        <ele>293.7</ele>
        <time>2025-07-25T08:48:07.929Z</time>
      </trkpt>
      <trkpt lat="43.51974" lon="6.26029">
        <ele>293.3</ele>
        <time>2025-07-25T08:48:18.995Z</time>
      </trkpt>
      <trkpt lat="43.51974" lon="6.26028">
        <ele>293.2</ele>
        <time>2025-07-25T08:48:20.018Z</time>
      </trkpt>
      <trkpt lat="43.51974" lon="6.26029">
        <ele>293.3</ele>
        <time>2025-07-25T08:48:21.041Z</time>
      </trkpt>
      <trkpt lat="43.51969" lon="6.26033">
        <ele>293</ele>
        <time>2025-07-25T08:48:29.935Z</time>
      </trkpt>
      <trkpt lat="43.51963" lon="6.26038">
        <ele>292.7</ele>
        <time>2025-07-25T08:48:38.829Z</time>
      </trkpt>
      <trkpt lat="43.51958" lon="6.26042">
        <ele>292.5</ele>
        <time>2025-07-25T08:48:47.723Z</time>
      </trkpt>
      <trkpt lat="43.51952" lon="6.26046">
        <ele>292.1</ele>
        <time>2025-07-25T08:48:56.617Z</time>
      </trkpt>
      <trkpt lat="43.5195" lon="6.26048">
        <ele>292.1</ele>
        <time>2025-07-25T08:49:00.102Z</time>
      </trkpt>
      <trkpt lat="43.51945" lon="6.26053">
        <ele>291.9</ele>
        <time>2025-07-25T08:49:09.394Z</time>
      </trkpt>
      <trkpt lat="43.51939" lon="6.26058">
        <ele>291.3</ele>
        <time>2025-07-25T08:49:18.686Z</time>
      </trkpt>
      <trkpt lat="43.51936" lon="6.26069">
        <ele>291</ele>
        <time>2025-07-25T08:49:30.104Z</time>
      </trkpt>
      <trkpt lat="43.51934" lon="6.26079">
        <ele>290.7</ele>
        <time>2025-07-25T08:49:41.522Z</time>
      </trkpt>
      <trkpt lat="43.51931" lon="6.2609">
        <ele>290.5</ele>
        <time>2025-07-25T08:49:52.940Z</time>
      </trkpt>
      <trkpt lat="43.51928" lon="6.261">
        <ele>290.4</ele>
        <time>2025-07-25T08:50:04.358Z</time>
      </trkpt>
      <trkpt lat="43.51928" lon="6.26107">
        <ele>290.8</ele>
        <time>2025-07-25T08:50:11.043Z</time>
      </trkpt>
      <trkpt lat="43.51927" lon="6.26113">
        <ele>290.8</ele>
        <time>2025-07-25T08:50:17.728Z</time>
      </trkpt>
      <trkpt lat="43.51927" lon="6.2612">
        <ele>290.7</ele>
        <time>2025-07-25T08:50:24.413Z</time>
      </trkpt>
      <trkpt lat="43.51926" lon="6.26126">
        <ele>290.3</ele>
        <time>2025-07-25T08:50:31.098Z</time>
      </trkpt>
      <trkpt lat="43.51926" lon="6.26133">
        <ele>290.2</ele>
        <time>2025-07-25T08:50:38.546Z</time>
      </trkpt>
      <trkpt lat="43.51925" lon="6.26141">
        <ele>289.7</ele>
        <time>2025-07-25T08:50:45.994Z</time>
      </trkpt>
      <trkpt lat="43.51925" lon="6.26148">
        <ele>289.4</ele>
        <time>2025-07-25T08:50:53.442Z</time>
      </trkpt>
      <trkpt lat="43.51924" lon="6.26155">
        <ele>288.9</ele>
        <time>2025-07-25T08:51:00.890Z</time>
      </trkpt>
      <trkpt lat="43.51923" lon="6.26164">
        <ele>288.3</ele>
        <time>2025-07-25T08:51:10.201Z</time>
      </trkpt>
      <trkpt lat="43.51922" lon="6.26173">
        <ele>287.9</ele>
        <time>2025-07-25T08:51:19.512Z</time>
      </trkpt>
      <trkpt lat="43.51916" lon="6.26181">
        <ele>286.9</ele>
        <time>2025-07-25T08:51:31.281Z</time>
      </trkpt>
      <trkpt lat="43.5191" lon="6.26185">
        <ele>286.5</ele>
        <time>2025-07-25T08:51:40.678Z</time>
      </trkpt>
      <trkpt lat="43.51903" lon="6.26186">
        <ele>286.1</ele>
        <time>2025-07-25T08:51:50.601Z</time>
      </trkpt>
      <trkpt lat="43.519" lon="6.26185">
        <ele>285.8</ele>
        <time>2025-07-25T08:51:54.952Z</time>
      </trkpt>
      <trkpt lat="43.519" lon="6.26185">
        <ele>285.8</ele>
        <time>2025-07-25T08:51:54.952Z</time>
      </trkpt>
      <trkpt lat="43.51894" lon="6.26181">
        <ele>285</ele>
        <time>2025-07-25T08:51:54.952Z</time>
      </trkpt>
      <trkpt lat="43.51888" lon="6.26174">
        <ele>283.7</ele>
        <time>2025-07-25T08:51:54.952Z</time>
      </trkpt>
      <trkpt lat="43.51882" lon="6.26168">
        <ele>282.6</ele>
        <time>2025-07-25T08:51:54.952Z</time>
      </trkpt>
      <trkpt lat="43.51875" lon="6.26161">
        <ele>281.7</ele>
        <time>2025-07-25T08:51:54.952Z</time>
      </trkpt>
      <trkpt lat="43.51869" lon="6.26154">
        <ele>280.8</ele>
        <time>2025-07-25T08:51:54.952Z</time>
      </trkpt>
      <trkpt lat="43.51863" lon="6.26149">
        <ele>279.9</ele>
        <time>2025-07-25T08:51:54.952Z</time>
      </trkpt>
      <trkpt lat="43.51858" lon="6.26145">
        <ele>279.3</ele>
        <time>2025-07-25T08:51:54.952Z</time>
      </trkpt>
      <trkpt lat="43.51852" lon="6.2614">
        <ele>278.8</ele>
        <time>2025-07-25T08:51:54.952Z</time>
      </trkpt>
      <trkpt lat="43.51846" lon="6.26135">
        <ele>278.1</ele>
        <time>2025-07-25T08:51:54.952Z</time>
      </trkpt>
      <trkpt lat="43.51841" lon="6.26129">
        <ele>277.5</ele>
        <time>2025-07-25T08:51:54.952Z</time>
      </trkpt>
      <trkpt lat="43.51835" lon="6.26123">
        <ele>276.9</ele>
        <time>2025-07-25T08:51:54.952Z</time>
      </trkpt>
      <trkpt lat="43.5183" lon="6.26117">
        <ele>276.3</ele>
        <time>2025-07-25T08:51:54.952Z</time>
      </trkpt>
      <trkpt lat="43.51825" lon="6.26112">
        <ele>275.8</ele>
        <time>2025-07-25T08:51:54.952Z</time>
      </trkpt>
      <trkpt lat="43.5182" lon="6.26107">
        <ele>275.1</ele>
        <time>2025-07-25T08:51:54.952Z</time>
      </trkpt>
      <trkpt lat="43.51815" lon="6.26104">
        <ele>274.7</ele>
        <time>2025-07-25T08:51:54.952Z</time>
      </trkpt>
      <trkpt lat="43.5181" lon="6.261">
        <ele>274.3</ele>
        <time>2025-07-25T08:51:54.952Z</time>
      </trkpt>
      <trkpt lat="43.51807" lon="6.26098">
        <ele>274.1</ele>
        <time>2025-07-25T08:51:54.952Z</time>
      </trkpt>
      <trkpt lat="43.51802" lon="6.26095">
        <ele>273.5</ele>
        <time>2025-07-25T08:51:54.952Z</time>
      </trkpt>
      <trkpt lat="43.51798" lon="6.26091">
        <ele>272.7</ele>
        <time>2025-07-25T08:51:54.952Z</time>
      </trkpt>
      <trkpt lat="43.51793" lon="6.26088">
        <ele>272</ele>
        <time>2025-07-25T08:51:54.952Z</time>
      </trkpt>
      <trkpt lat="43.51788" lon="6.26085">
        <ele>271.2</ele>
        <time>2025-07-25T08:51:54.952Z</time>
      </trkpt>
      <trkpt lat="43.51783" lon="6.26081">
        <ele>270.4</ele>
        <time>2025-07-25T08:51:54.952Z</time>
      </trkpt>
      <trkpt lat="43.51779" lon="6.26078">
        <ele>269.9</ele>
        <time>2025-07-25T08:51:54.952Z</time>
      </trkpt>
      <trkpt lat="43.51774" lon="6.26074">
        <ele>269.3</ele>
        <time>2025-07-25T08:51:54.952Z</time>
      </trkpt>
      <trkpt lat="43.51769" lon="6.26071">
        <ele>268.9</ele>
        <time>2025-07-25T08:51:54.952Z</time>
      </trkpt>
      <trkpt lat="43.51764" lon="6.26067">
        <ele>268.5</ele>
        <time>2025-07-25T08:51:54.952Z</time>
      </trkpt>
      <trkpt lat="43.51759" lon="6.26064">
        <ele>268.2</ele>
        <time>2025-07-25T08:51:54.952Z</time>
      </trkpt>
      <trkpt lat="43.51753" lon="6.2606">
        <ele>268</ele>
        <time>2025-07-25T08:51:54.952Z</time>
      </trkpt>
      <trkpt lat="43.51748" lon="6.26056">
        <ele>267.7</ele>
        <time>2025-07-25T08:51:54.952Z</time>
      </trkpt>
      <trkpt lat="43.51744" lon="6.26054">
        <ele>267.2</ele>
        <time>2025-07-25T08:51:54.952Z</time>
      </trkpt>
      <trkpt lat="43.5174" lon="6.26051">
        <ele>266.7</ele>
        <time>2025-07-25T08:51:54.952Z</time>
      </trkpt>
      <trkpt lat="43.51735" lon="6.26049">
        <ele>266.2</ele>
        <time>2025-07-25T08:51:54.952Z</time>
      </trkpt>
      <trkpt lat="43.51731" lon="6.26046">
        <ele>266</ele>
        <time>2025-07-25T08:51:54.952Z</time>
      </trkpt>
      <trkpt lat="43.51726" lon="6.26043">
        <ele>265.7</ele>
        <time>2025-07-25T08:51:54.952Z</time>
      </trkpt>
      <trkpt lat="43.51721" lon="6.2604">
        <ele>265.6</ele>
        <time>2025-07-25T08:51:54.952Z</time>
      </trkpt>
      <trkpt lat="43.51716" lon="6.26038">
        <ele>265.4</ele>
        <time>2025-07-25T08:51:54.952Z</time>
      </trkpt>
      <trkpt lat="43.51711" lon="6.26035">
        <ele>265.4</ele>
        <time>2025-07-25T08:51:54.952Z</time>
      </trkpt>
      <trkpt lat="43.51706" lon="6.26032">
        <ele>265.4</ele>
        <time>2025-07-25T08:51:54.952Z</time>
      </trkpt>
      <trkpt lat="43.51701" lon="6.2603">
        <ele>265.2</ele>
        <time>2025-07-25T08:51:54.952Z</time>
      </trkpt>
      <trkpt lat="43.51696" lon="6.26027">
        <ele>265.1</ele>
        <time>2025-07-25T08:51:54.952Z</time>
      </trkpt>
      <trkpt lat="43.51691" lon="6.26024">
        <ele>264.7</ele>
        <time>2025-07-25T08:51:54.952Z</time>
      </trkpt>
      <trkpt lat="43.51686" lon="6.26022">
        <ele>264.2</ele>
        <time>2025-07-25T08:51:54.952Z</time>
      </trkpt>
      <trkpt lat="43.5168" lon="6.26019">
        <ele>263.8</ele>
        <time>2025-07-25T08:51:54.952Z</time>
      </trkpt>
      <trkpt lat="43.51675" lon="6.26016">
        <ele>263.5</ele>
        <time>2025-07-25T08:51:54.952Z</time>
      </trkpt>
      <trkpt lat="43.5167" lon="6.26013">
        <ele>263.3</ele>
        <time>2025-07-25T08:51:54.952Z</time>
      </trkpt>
      <trkpt lat="43.51665" lon="6.26011">
        <ele>263.1</ele>
        <time>2025-07-25T08:51:54.952Z</time>
      </trkpt>
      <trkpt lat="43.5166" lon="6.26008">
        <ele>263.2</ele>
        <time>2025-07-25T08:51:54.952Z</time>
      </trkpt>
      <trkpt lat="43.51655" lon="6.26005">
        <ele>263.2</ele>
        <time>2025-07-25T08:51:54.952Z</time>
      </trkpt>
      <trkpt lat="43.5165" lon="6.26003">
        <ele>263.2</ele>
        <time>2025-07-25T08:51:54.952Z</time>
      </trkpt>
      <trkpt lat="43.51645" lon="6.26">
        <ele>263.2</ele>
        <time>2025-07-25T08:51:54.952Z</time>
      </trkpt>
      <trkpt lat="43.51639" lon="6.25997">
        <ele>262.9</ele>
        <time>2025-07-25T08:51:54.952Z</time>
      </trkpt>
      <trkpt lat="43.51633" lon="6.25994">
        <ele>262.8</ele>
        <time>2025-07-25T08:51:54.952Z</time>
      </trkpt>
      <trkpt lat="43.51635" lon="6.25987">
        <ele>262.5</ele>
        <time>2025-07-25T08:51:54.952Z</time>
      </trkpt>
      <trkpt lat="43.51633" lon="6.25994">
        <ele>262.8</ele>
        <time>2025-07-25T08:51:54.952Z</time>
      </trkpt>
      <trkpt lat="43.51628" lon="6.25991">
        <ele>262.7</ele>
        <time>2025-07-25T08:51:54.952Z</time>
      </trkpt>
      <trkpt lat="43.51623" lon="6.25988">
        <ele>262.6</ele>
        <time>2025-07-25T08:51:54.952Z</time>
      </trkpt>
      <trkpt lat="43.51623" lon="6.2598">
        <ele>262.3</ele>
        <time>2025-07-25T08:51:54.952Z</time>
      </trkpt>
      <trkpt lat="43.51625" lon="6.25973">
        <ele>262</ele>
        <time>2025-07-25T08:51:54.952Z</time>
      </trkpt>
      <trkpt lat="43.51628" lon="6.25966">
        <ele>261.8</ele>
        <time>2025-07-25T08:51:54.952Z</time>
      </trkpt>
      <trkpt lat="43.5163" lon="6.25958">
        <ele>261.5</ele>
        <time>2025-07-25T08:51:54.952Z</time>
      </trkpt>
      <trkpt lat="43.51632" lon="6.25951">
        <ele>261.2</ele>
        <time>2025-07-25T08:51:54.952Z</time>
      </trkpt>
      <trkpt lat="43.51633" lon="6.25942">
        <ele>260.7</ele>
        <time>2025-07-25T08:51:54.952Z</time>
      </trkpt>
      <trkpt lat="43.51633" lon="6.25933">
        <ele>259.8</ele>
        <time>2025-07-25T08:51:54.952Z</time>
      </trkpt>
      <trkpt lat="43.51631" lon="6.25925">
        <ele>258.9</ele>
        <time>2025-07-25T08:51:54.952Z</time>
      </trkpt>
      <trkpt lat="43.51626" lon="6.25917">
        <ele>258</ele>
        <time>2025-07-25T08:51:54.952Z</time>
      </trkpt>
      <trkpt lat="43.51621" lon="6.25908">
        <ele>257.2</ele>
        <time>2025-07-25T08:51:54.952Z</time>
      </trkpt>
      <trkpt lat="43.51616" lon="6.25899">
        <ele>256.5</ele>
        <time>2025-07-25T08:51:54.952Z</time>
      </trkpt>
      <trkpt lat="43.5161" lon="6.2589">
        <ele>256.2</ele>
        <time>2025-07-25T08:51:54.952Z</time>
      </trkpt>
      <trkpt lat="43.51605" lon="6.25881">
        <ele>255.9</ele>
        <time>2025-07-25T08:51:54.952Z</time>
      </trkpt>
      <trkpt lat="43.51604" lon="6.25875">
        <ele>255.4</ele>
        <time>2025-07-25T08:51:54.952Z</time>
      </trkpt>
      <trkpt lat="43.51602" lon="6.25868">
        <ele>255</ele>
        <time>2025-07-25T08:51:54.952Z</time>
      </trkpt>
      <trkpt lat="43.51601" lon="6.25859">
        <ele>254.3</ele>
        <time>2025-07-25T08:51:54.952Z</time>
      </trkpt>
      <trkpt lat="43.516" lon="6.25851">
        <ele>253.8</ele>
        <time>2025-07-25T08:51:54.952Z</time>
      </trkpt>
      <trkpt lat="43.51599" lon="6.25842">
        <ele>253.3</ele>
        <time>2025-07-25T08:51:54.952Z</time>
      </trkpt>
      <trkpt lat="43.51598" lon="6.25833">
        <ele>252.8</ele>
        <time>2025-07-25T08:51:54.952Z</time>
      </trkpt>
      <trkpt lat="43.51597" lon="6.25827">
        <ele>252.6</ele>
        <time>2025-07-25T08:51:54.952Z</time>
      </trkpt>
      <trkpt lat="43.51596" lon="6.25821">
        <ele>252.4</ele>
        <time>2025-07-25T08:51:54.952Z</time>
      </trkpt>
      <trkpt lat="43.51596" lon="6.25815">
        <ele>251.9</ele>
        <time>2025-07-25T08:51:54.952Z</time>
      </trkpt>
      <trkpt lat="43.51595" lon="6.25809">
        <ele>251.7</ele>
        <time>2025-07-25T08:51:54.952Z</time>
      </trkpt>
      <trkpt lat="43.51594" lon="6.25802">
        <ele>251.4</ele>
        <time>2025-07-25T08:51:54.952Z</time>
      </trkpt>
      <trkpt lat="43.51593" lon="6.25796">
        <ele>251.2</ele>
        <time>2025-07-25T08:51:54.952Z</time>
      </trkpt>
      <trkpt lat="43.51592" lon="6.2579">
        <ele>251</ele>
        <time>2025-07-25T08:51:54.952Z</time>
      </trkpt>
      <trkpt lat="43.51592" lon="6.25784">
        <ele>250.6</ele>
        <time>2025-07-25T08:51:54.952Z</time>
      </trkpt>
      <trkpt lat="43.51591" lon="6.25778">
        <ele>250.4</ele>
        <time>2025-07-25T08:51:54.952Z</time>
      </trkpt>
      <trkpt lat="43.5159" lon="6.25772">
        <ele>250.2</ele>
        <time>2025-07-25T08:51:54.952Z</time>
      </trkpt>
      <trkpt lat="43.51589" lon="6.25766">
        <ele>250</ele>
        <time>2025-07-25T08:51:54.952Z</time>
      </trkpt>
      <trkpt lat="43.51588" lon="6.2576">
        <ele>249.8</ele>
        <time>2025-07-25T08:51:54.952Z</time>
      </trkpt>
      <trkpt lat="43.51587" lon="6.25753">
        <ele>249.5</ele>
        <time>2025-07-25T08:51:54.952Z</time>
      </trkpt>
      <trkpt lat="43.51587" lon="6.25747">
        <ele>249.1</ele>
        <time>2025-07-25T08:51:54.952Z</time>
      </trkpt>
      <trkpt lat="43.51586" lon="6.25741">
        <ele>248.9</ele>
        <time>2025-07-25T08:51:54.952Z</time>
      </trkpt>
      <trkpt lat="43.51585" lon="6.25735">
        <ele>248.6</ele>
        <time>2025-07-25T08:51:54.952Z</time>
      </trkpt>
      <trkpt lat="43.51584" lon="6.25726">
        <ele>248.2</ele>
        <time>2025-07-25T08:51:54.952Z</time>
      </trkpt>
      <trkpt lat="43.51582" lon="6.25717">
        <ele>247.9</ele>
        <time>2025-07-25T08:51:54.952Z</time>
      </trkpt>
      <trkpt lat="43.5158" lon="6.25711">
        <ele>247.8</ele>
        <time>2025-07-25T08:51:54.952Z</time>
      </trkpt>
      <trkpt lat="43.51579" lon="6.25705">
        <ele>247.5</ele>
        <time>2025-07-25T08:51:54.952Z</time>
      </trkpt>
      <trkpt lat="43.51577" lon="6.25699">
        <ele>247.5</ele>
        <time>2025-07-25T08:51:54.952Z</time>
      </trkpt>
      <trkpt lat="43.51576" lon="6.25693">
        <ele>247.1</ele>
        <time>2025-07-25T08:51:54.952Z</time>
      </trkpt>
      <trkpt lat="43.51574" lon="6.25687">
        <ele>246.7</ele>
        <time>2025-07-25T08:51:54.952Z</time>
      </trkpt>
      <trkpt lat="43.51572" lon="6.25681">
        <ele>246.3</ele>
        <time>2025-07-25T08:51:54.952Z</time>
      </trkpt>
      <trkpt lat="43.51571" lon="6.25675">
        <ele>245.7</ele>
        <time>2025-07-25T08:51:54.952Z</time>
      </trkpt>
      <trkpt lat="43.51569" lon="6.25669">
        <ele>245.4</ele>
        <time>2025-07-25T08:51:54.952Z</time>
      </trkpt>
      <trkpt lat="43.51568" lon="6.25663">
        <ele>245.1</ele>
        <time>2025-07-25T08:51:54.952Z</time>
      </trkpt>
      <trkpt lat="43.51568" lon="6.25657">
        <ele>244.8</ele>
        <time>2025-07-25T08:51:54.952Z</time>
      </trkpt>
      <trkpt lat="43.51567" lon="6.2565">
        <ele>244.7</ele>
        <time>2025-07-25T08:51:54.952Z</time>
      </trkpt>
      <trkpt lat="43.51566" lon="6.25644">
        <ele>244.6</ele>
        <time>2025-07-25T08:51:54.952Z</time>
      </trkpt>
      <trkpt lat="43.51566" lon="6.25633">
        <ele>244.3</ele>
        <time>2025-07-25T08:51:54.952Z</time>
      </trkpt>
      <trkpt lat="43.51568" lon="6.25625">
        <ele>243.6</ele>
        <time>2025-07-25T08:51:54.952Z</time>
      </trkpt>
      <trkpt lat="43.5157" lon="6.25617">
        <ele>243</ele>
        <time>2025-07-25T08:51:54.952Z</time>
      </trkpt>
      <trkpt lat="43.51571" lon="6.25608">
        <ele>242.6</ele>
        <time>2025-07-25T08:51:54.952Z</time>
      </trkpt>
      <trkpt lat="43.51573" lon="6.256">
        <ele>242.2</ele>
        <time>2025-07-25T08:51:54.952Z</time>
      </trkpt>
      <trkpt lat="43.51576" lon="6.25589">
        <ele>241.7</ele>
        <time>2025-07-25T08:51:54.952Z</time>
      </trkpt>
      <trkpt lat="43.51578" lon="6.25583">
        <ele>241.5</ele>
        <time>2025-07-25T08:51:54.952Z</time>
      </trkpt>
      <trkpt lat="43.51579" lon="6.25577">
        <ele>241.1</ele>
        <time>2025-07-25T08:51:54.952Z</time>
      </trkpt>
      <trkpt lat="43.51582" lon="6.25567">
        <ele>240.3</ele>
        <time>2025-07-25T08:51:54.952Z</time>
      </trkpt>
      <trkpt lat="43.51584" lon="6.25557">
        <ele>239.8</ele>
        <time>2025-07-25T08:51:54.952Z</time>
      </trkpt>
      <trkpt lat="43.51586" lon="6.25547">
        <ele>239.2</ele>
        <time>2025-07-25T08:51:54.952Z</time>
      </trkpt>
      <trkpt lat="43.51588" lon="6.25537">
        <ele>238.7</ele>
        <time>2025-07-25T08:51:54.952Z</time>
      </trkpt>
      <trkpt lat="43.51589" lon="6.2553">
        <ele>238.4</ele>
        <time>2025-07-25T08:51:54.952Z</time>
      </trkpt>
      <trkpt lat="43.51589" lon="6.25524">
        <ele>238.3</ele>
        <time>2025-07-25T08:51:54.952Z</time>
      </trkpt>
      <trkpt lat="43.5159" lon="6.25517">
        <ele>238</ele>
        <time>2025-07-25T08:51:54.952Z</time>
      </trkpt>
      <trkpt lat="43.5159" lon="6.2551">
        <ele>237.9</ele>
        <time>2025-07-25T08:51:54.952Z</time>
      </trkpt>
      <trkpt lat="43.51591" lon="6.25503">
        <ele>237.5</ele>
        <time>2025-07-25T08:51:54.952Z</time>
      </trkpt>
      <trkpt lat="43.51591" lon="6.25497">
        <ele>237.4</ele>
        <time>2025-07-25T08:51:54.952Z</time>
      </trkpt>
      <trkpt lat="43.51592" lon="6.2549">
        <ele>236.8</ele>
        <time>2025-07-25T08:51:54.952Z</time>
      </trkpt>
      <trkpt lat="43.51592" lon="6.25483">
        <ele>236.6</ele>
        <time>2025-07-25T08:51:54.952Z</time>
      </trkpt>
      <trkpt lat="43.51592" lon="6.25472">
        <ele>236.2</ele>
        <time>2025-07-25T08:51:54.952Z</time>
      </trkpt>
      <trkpt lat="43.51593" lon="6.25462">
        <ele>235.2</ele>
        <time>2025-07-25T08:51:54.952Z</time>
      </trkpt>
      <trkpt lat="43.51593" lon="6.25451">
        <ele>234.6</ele>
        <time>2025-07-25T08:51:54.952Z</time>
      </trkpt>
      <trkpt lat="43.51593" lon="6.2544">
        <ele>234.3</ele>
        <time>2025-07-25T08:51:54.952Z</time>
      </trkpt>
      <trkpt lat="43.51594" lon="6.25435">
        <ele>234.2</ele>
        <time>2025-07-25T08:51:54.952Z</time>
      </trkpt>
      <trkpt lat="43.51595" lon="6.25426">
        <ele>234.2</ele>
        <time>2025-07-25T08:51:54.952Z</time>
      </trkpt>
      <trkpt lat="43.51599" lon="6.25415">
        <ele>233.7</ele>
        <time>2025-07-25T08:51:54.952Z</time>
      </trkpt>
      <trkpt lat="43.51605" lon="6.25406">
        <ele>232.9</ele>
        <time>2025-07-25T08:51:54.952Z</time>
      </trkpt>
      <trkpt lat="43.5161" lon="6.25397">
        <ele>232.4</ele>
        <time>2025-07-25T08:51:54.952Z</time>
      </trkpt>
      <trkpt lat="43.51613" lon="6.25392">
        <ele>232</ele>
        <time>2025-07-25T08:51:54.952Z</time>
      </trkpt>
      <trkpt lat="43.51616" lon="6.25387">
        <ele>231.4</ele>
        <time>2025-07-25T08:51:54.952Z</time>
      </trkpt>
      <trkpt lat="43.51621" lon="6.25378">
        <ele>230.3</ele>
        <time>2025-07-25T08:51:54.952Z</time>
      </trkpt>
      <trkpt lat="43.51625" lon="6.2537">
        <ele>229.4</ele>
        <time>2025-07-25T08:51:54.952Z</time>
      </trkpt>
      <trkpt lat="43.51628" lon="6.25362">
        <ele>228.6</ele>
        <time>2025-07-25T08:51:54.952Z</time>
      </trkpt>
      <trkpt lat="43.51631" lon="6.25353">
        <ele>228.1</ele>
        <time>2025-07-25T08:51:54.952Z</time>
      </trkpt>
      <trkpt lat="43.51633" lon="6.25344">
        <ele>228.1</ele>
        <time>2025-07-25T08:51:54.952Z</time>
      </trkpt>
      <trkpt lat="43.51635" lon="6.25338">
        <ele>227.9</ele>
        <time>2025-07-25T08:51:54.952Z</time>
      </trkpt>
      <trkpt lat="43.51637" lon="6.25331">
        <ele>227.7</ele>
        <time>2025-07-25T08:51:54.952Z</time>
      </trkpt>
      <trkpt lat="43.51639" lon="6.25323">
        <ele>226.9</ele>
        <time>2025-07-25T08:51:54.952Z</time>
      </trkpt>
      <trkpt lat="43.51641" lon="6.25315">
        <ele>225.9</ele>
        <time>2025-07-25T08:51:54.952Z</time>
      </trkpt>
      <trkpt lat="43.51643" lon="6.25303">
        <ele>224.8</ele>
        <time>2025-07-25T08:51:54.952Z</time>
      </trkpt>
      <trkpt lat="43.51644" lon="6.25291">
        <ele>224</ele>
        <time>2025-07-25T08:51:54.952Z</time>
      </trkpt>
      <trkpt lat="43.51645" lon="6.25282">
        <ele>223.3</ele>
        <time>2025-07-25T08:51:54.952Z</time>
      </trkpt>
      <trkpt lat="43.51645" lon="6.25272">
        <ele>222.7</ele>
        <time>2025-07-25T08:51:54.952Z</time>
      </trkpt>
      <trkpt lat="43.51645" lon="6.25266">
        <ele>222.3</ele>
        <time>2025-07-25T08:51:54.952Z</time>
      </trkpt>
      <trkpt lat="43.51645" lon="6.25259">
        <ele>221.8</ele>
        <time>2025-07-25T08:51:54.952Z</time>
      </trkpt>
      <trkpt lat="43.51645" lon="6.25253">
        <ele>221.4</ele>
        <time>2025-07-25T08:51:54.952Z</time>
      </trkpt>
      <trkpt lat="43.51645" lon="6.25246">
        <ele>220.8</ele>
        <time>2025-07-25T08:51:54.952Z</time>
      </trkpt>
      <trkpt lat="43.51644" lon="6.25239">
        <ele>220.7</ele>
        <time>2025-07-25T08:51:54.952Z</time>
      </trkpt>
      <trkpt lat="43.51644" lon="6.25233">
        <ele>220.3</ele>
        <time>2025-07-25T08:51:54.952Z</time>
      </trkpt>
      <trkpt lat="43.51643" lon="6.25226">
        <ele>220.2</ele>
        <time>2025-07-25T08:51:54.952Z</time>
      </trkpt>
      <trkpt lat="43.51643" lon="6.25219">
        <ele>219.6</ele>
        <time>2025-07-25T08:51:54.952Z</time>
      </trkpt>
      <trkpt lat="43.51642" lon="6.25212">
        <ele>219.4</ele>
        <time>2025-07-25T08:51:54.952Z</time>
      </trkpt>
      <trkpt lat="43.51641" lon="6.25206">
        <ele>219.2</ele>
        <time>2025-07-25T08:51:54.952Z</time>
      </trkpt>
      <trkpt lat="43.51641" lon="6.25199">
        <ele>218.5</ele>
        <time>2025-07-25T08:51:54.952Z</time>
      </trkpt>
      <trkpt lat="43.5164" lon="6.25192">
        <ele>218.1</ele>
        <time>2025-07-25T08:51:54.952Z</time>
      </trkpt>
      <trkpt lat="43.51638" lon="6.25182">
        <ele>217.5</ele>
        <time>2025-07-25T08:51:54.952Z</time>
      </trkpt>
      <trkpt lat="43.51637" lon="6.25172">
        <ele>216.3</ele>
        <time>2025-07-25T08:51:54.952Z</time>
      </trkpt>
      <trkpt lat="43.51635" lon="6.25162">
        <ele>215.4</ele>
        <time>2025-07-25T08:51:54.952Z</time>
      </trkpt>
      <trkpt lat="43.51633" lon="6.25152">
        <ele>214.5</ele>
        <time>2025-07-25T08:51:54.952Z</time>
      </trkpt>
      <trkpt lat="43.51631" lon="6.25146">
        <ele>214.1</ele>
        <time>2025-07-25T08:51:54.952Z</time>
      </trkpt>
      <trkpt lat="43.51628" lon="6.2514">
        <ele>213.9</ele>
        <time>2025-07-25T08:51:54.952Z</time>
      </trkpt>
      <trkpt lat="43.51626" lon="6.25133">
        <ele>213.2</ele>
        <time>2025-07-25T08:51:54.952Z</time>
      </trkpt>
      <trkpt lat="43.51623" lon="6.25127">
        <ele>212.9</ele>
        <time>2025-07-25T08:51:54.952Z</time>
      </trkpt>
      <trkpt lat="43.5162" lon="6.25123">
        <ele>212.9</ele>
        <time>2025-07-25T08:51:54.952Z</time>
      </trkpt>
      <trkpt lat="43.51616" lon="6.25118">
        <ele>213</ele>
        <time>2025-07-25T08:51:54.952Z</time>
      </trkpt>
      <trkpt lat="43.5161" lon="6.25111">
        <ele>213</ele>
        <time>2025-07-25T08:51:54.952Z</time>
      </trkpt>
      <trkpt lat="43.51606" lon="6.25109">
        <ele>212.7</ele>
        <time>2025-07-25T08:51:54.952Z</time>
      </trkpt>
      <trkpt lat="43.51601" lon="6.25106">
        <ele>212.1</ele>
        <time>2025-07-25T08:51:54.952Z</time>
      </trkpt>
      <trkpt lat="43.51597" lon="6.25104">
        <ele>211.8</ele>
        <time>2025-07-25T08:51:54.952Z</time>
      </trkpt>
      <trkpt lat="43.51592" lon="6.25101">
        <ele>211.4</ele>
        <time>2025-07-25T08:51:54.952Z</time>
      </trkpt>
      <trkpt lat="43.51587" lon="6.25099">
        <ele>211.2</ele>
        <time>2025-07-25T08:51:54.952Z</time>
      </trkpt>
      <trkpt lat="43.51581" lon="6.25098">
        <ele>211.1</ele>
        <time>2025-07-25T08:51:54.952Z</time>
      </trkpt>
      <trkpt lat="43.51576" lon="6.25096">
        <ele>210.5</ele>
        <time>2025-07-25T08:51:54.952Z</time>
      </trkpt>
      <trkpt lat="43.5157" lon="6.25094">
        <ele>209.8</ele>
        <time>2025-07-25T08:51:54.952Z</time>
      </trkpt>
      <trkpt lat="43.51562" lon="6.25094">
        <ele>209.5</ele>
        <time>2025-07-25T08:51:54.952Z</time>
      </trkpt>
      <trkpt lat="43.51555" lon="6.25094">
        <ele>209.3</ele>
        <time>2025-07-25T08:51:54.952Z</time>
      </trkpt>
      <trkpt lat="43.51547" lon="6.25094">
        <ele>209.3</ele>
        <time>2025-07-25T08:51:54.952Z</time>
      </trkpt>
      <trkpt lat="43.51539" lon="6.25094">
        <ele>209.2</ele>
        <time>2025-07-25T08:51:54.952Z</time>
      </trkpt>
      <trkpt lat="43.51535" lon="6.25091">
        <ele>208.8</ele>
        <time>2025-07-25T08:51:54.952Z</time>
      </trkpt>
      <trkpt lat="43.51537" lon="6.25087">
        <ele>208.2</ele>
        <time>2025-07-25T08:51:54.952Z</time>
      </trkpt>
      <trkpt lat="43.51535" lon="6.25091">
        <ele>208.8</ele>
        <time>2025-07-25T08:51:54.952Z</time>
      </trkpt>
      <trkpt lat="43.51533" lon="6.25085">
        <ele>208</ele>
        <time>2025-07-25T08:51:54.952Z</time>
      </trkpt>
      <trkpt lat="43.51532" lon="6.25078">
        <ele>207.7</ele>
        <time>2025-07-25T08:51:54.952Z</time>
      </trkpt>
      <trkpt lat="43.51534" lon="6.25066">
        <ele>207.1</ele>
        <time>2025-07-25T08:51:54.952Z</time>
      </trkpt>
      <trkpt lat="43.51537" lon="6.25055">
        <ele>206</ele>
        <time>2025-07-25T08:51:54.952Z</time>
      </trkpt>
      <trkpt lat="43.51539" lon="6.25044">
        <ele>205.2</ele>
        <time>2025-07-25T08:51:54.952Z</time>
      </trkpt>
      <trkpt lat="43.51542" lon="6.25033">
        <ele>204.1</ele>
        <time>2025-07-25T08:51:54.952Z</time>
      </trkpt>
      <trkpt lat="43.51544" lon="6.25022">
        <ele>203.1</ele>
        <time>2025-07-25T08:51:54.952Z</time>
      </trkpt>
      <trkpt lat="43.51546" lon="6.25012">
        <ele>202.2</ele>
        <time>2025-07-25T08:51:54.952Z</time>
      </trkpt>
      <trkpt lat="43.51548" lon="6.25001">
        <ele>201.2</ele>
        <time>2025-07-25T08:51:54.952Z</time>
      </trkpt>
      <trkpt lat="43.5155" lon="6.24991">
        <ele>200.9</ele>
        <time>2025-07-25T08:51:54.952Z</time>
      </trkpt>
      <trkpt lat="43.51552" lon="6.2498">
        <ele>200.7</ele>
        <time>2025-07-25T08:51:54.952Z</time>
      </trkpt>
      <trkpt lat="43.51555" lon="6.24972">
        <ele>200.1</ele>
        <time>2025-07-25T08:51:54.952Z</time>
      </trkpt>
      <trkpt lat="43.51557" lon="6.24963">
        <ele>199.3</ele>
        <time>2025-07-25T08:51:54.952Z</time>
      </trkpt>
      <trkpt lat="43.51558" lon="6.24957">
        <ele>198.8</ele>
        <time>2025-07-25T08:51:54.952Z</time>
      </trkpt>
      <trkpt lat="43.51559" lon="6.2495">
        <ele>198.3</ele>
        <time>2025-07-25T08:51:54.952Z</time>
      </trkpt>
      <trkpt lat="43.51559" lon="6.24944">
        <ele>198.1</ele>
        <time>2025-07-25T08:51:54.952Z</time>
      </trkpt>
      <trkpt lat="43.5156" lon="6.24937">
        <ele>197.3</ele>
        <time>2025-07-25T08:51:54.952Z</time>
      </trkpt>
      <trkpt lat="43.5156" lon="6.2493">
        <ele>196.8</ele>
        <time>2025-07-25T08:51:54.952Z</time>
      </trkpt>
      <trkpt lat="43.5156" lon="6.24923">
        <ele>196.3</ele>
        <time>2025-07-25T08:51:54.952Z</time>
      </trkpt>
      <trkpt lat="43.51559" lon="6.24916">
        <ele>196.1</ele>
        <time>2025-07-25T08:51:54.952Z</time>
      </trkpt>
      <trkpt lat="43.51559" lon="6.24909">
        <ele>195.3</ele>
        <time>2025-07-25T08:51:54.952Z</time>
      </trkpt>
      <trkpt lat="43.51557" lon="6.24898">
        <ele>194.6</ele>
        <time>2025-07-25T08:51:54.952Z</time>
      </trkpt>
      <trkpt lat="43.51554" lon="6.24887">
        <ele>194.2</ele>
        <time>2025-07-25T08:51:54.952Z</time>
      </trkpt>
      <trkpt lat="43.51552" lon="6.24875">
        <ele>193.2</ele>
        <time>2025-07-25T08:51:54.952Z</time>
      </trkpt>
      <trkpt lat="43.51549" lon="6.24864">
        <ele>192.5</ele>
        <time>2025-07-25T08:51:54.952Z</time>
      </trkpt>
      <trkpt lat="43.51549" lon="6.24858">
        <ele>191.9</ele>
        <time>2025-07-25T08:51:54.952Z</time>
      </trkpt>
      <trkpt lat="43.51548" lon="6.24851">
        <ele>191.6</ele>
        <time>2025-07-25T08:51:54.952Z</time>
      </trkpt>
      <trkpt lat="43.5155" lon="6.24845">
        <ele>190.5</ele>
        <time>2025-07-25T08:51:54.952Z</time>
      </trkpt>
      <trkpt lat="43.51551" lon="6.24838">
        <ele>189.7</ele>
        <time>2025-07-25T08:51:54.952Z</time>
      </trkpt>
      <trkpt lat="43.51553" lon="6.24832">
        <ele>188.7</ele>
        <time>2025-07-25T08:51:54.952Z</time>
      </trkpt>
      <trkpt lat="43.51554" lon="6.24825">
        <ele>188.1</ele>
        <time>2025-07-25T08:51:54.952Z</time>
      </trkpt>
      <trkpt lat="43.51558" lon="6.24814">
        <ele>186.9</ele>
        <time>2025-07-25T08:51:54.952Z</time>
      </trkpt>
      <trkpt lat="43.51562" lon="6.24808">
        <ele>185.9</ele>
        <time>2025-07-25T08:51:54.952Z</time>
      </trkpt>
      <trkpt lat="43.51565" lon="6.24802">
        <ele>185.7</ele>
        <time>2025-07-25T08:51:54.952Z</time>
      </trkpt>
      <trkpt lat="43.51569" lon="6.24796">
        <ele>185.5</ele>
        <time>2025-07-25T08:51:54.952Z</time>
      </trkpt>
      <trkpt lat="43.51572" lon="6.2479">
        <ele>185.3</ele>
        <time>2025-07-25T08:51:54.952Z</time>
      </trkpt>
      <trkpt lat="43.51577" lon="6.24784">
        <ele>184.4</ele>
        <time>2025-07-25T08:51:54.952Z</time>
      </trkpt>
      <trkpt lat="43.51579" lon="6.24796">
        <ele>183.3</ele>
        <time>2025-07-25T08:51:54.952Z</time>
      </trkpt>
      <trkpt lat="43.5158" lon="6.24808">
        <ele>182.7</ele>
        <time>2025-07-25T08:51:54.952Z</time>
      </trkpt>
      <trkpt lat="43.51581" lon="6.24808">
        <ele>182.5</ele>
        <time>2025-07-25T08:51:54.952Z</time>
      </trkpt>
      <trkpt lat="43.51582" lon="6.24815">
        <ele>182.6</ele>
        <time>2025-07-25T08:51:54.952Z</time>
      </trkpt>
      <trkpt lat="43.51583" lon="6.24822">
        <ele>182.7</ele>
        <time>2025-07-25T08:51:54.952Z</time>
      </trkpt>
      <trkpt lat="43.51585" lon="6.24826">
        <ele>182.6</ele>
        <time>2025-07-25T08:51:54.952Z</time>
      </trkpt>
      <trkpt lat="43.51588" lon="6.24827">
        <ele>182.5</ele>
        <time>2025-07-25T08:51:54.952Z</time>
      </trkpt>
      <trkpt lat="43.51591" lon="6.24826">
        <ele>182.2</ele>
        <time>2025-07-25T08:51:54.952Z</time>
      </trkpt>
      <trkpt lat="43.51594" lon="6.2482">
        <ele>181.6</ele>
        <time>2025-07-25T08:51:54.952Z</time>
      </trkpt>
      <trkpt lat="43.51595" lon="6.24813">
        <ele>180.9</ele>
        <time>2025-07-25T08:51:54.952Z</time>
      </trkpt>
      <trkpt lat="43.51595" lon="6.24806">
        <ele>180.4</ele>
        <time>2025-07-25T08:51:54.952Z</time>
      </trkpt>
      <trkpt lat="43.51594" lon="6.24799">
        <ele>179.9</ele>
        <time>2025-07-25T08:51:54.952Z</time>
      </trkpt>
      <trkpt lat="43.51594" lon="6.24791">
        <ele>179.2</ele>
        <time>2025-07-25T08:51:54.952Z</time>
      </trkpt>
      <trkpt lat="43.51593" lon="6.24782">
        <ele>178.8</ele>
        <time>2025-07-25T08:51:54.952Z</time>
      </trkpt>
      <trkpt lat="43.51593" lon="6.24774">
        <ele>178.3</ele>
        <time>2025-07-25T08:51:54.952Z</time>
      </trkpt>
      <trkpt lat="43.51592" lon="6.24765">
        <ele>178.2</ele>
        <time>2025-07-25T08:51:54.952Z</time>
      </trkpt>
      <trkpt lat="43.51593" lon="6.2476">
        <ele>177.4</ele>
        <time>2025-07-25T08:51:54.952Z</time>
      </trkpt>
      <trkpt lat="43.51594" lon="6.24752">
        <ele>176.5</ele>
        <time>2025-07-25T08:51:54.952Z</time>
      </trkpt>
      <trkpt lat="43.51595" lon="6.24743">
        <ele>175.6</ele>
        <time>2025-07-25T08:51:54.952Z</time>
      </trkpt>
      <trkpt lat="43.51596" lon="6.24731">
        <ele>174.5</ele>
        <time>2025-07-25T08:51:54.952Z</time>
      </trkpt>
      <trkpt lat="43.51597" lon="6.24724">
        <ele>173.7</ele>
        <time>2025-07-25T08:51:54.952Z</time>
      </trkpt>
      <trkpt lat="43.51597" lon="6.24718">
        <ele>173.3</ele>
        <time>2025-07-25T08:51:54.952Z</time>
      </trkpt>
      <trkpt lat="43.51598" lon="6.24711">
        <ele>172.4</ele>
        <time>2025-07-25T08:51:54.952Z</time>
      </trkpt>
      <trkpt lat="43.51598" lon="6.24704">
        <ele>171.8</ele>
        <time>2025-07-25T08:51:54.952Z</time>
      </trkpt>
      <trkpt lat="43.51598" lon="6.24701">
        <ele>171.6</ele>
        <time>2025-07-25T08:51:54.952Z</time>
      </trkpt>
      <trkpt lat="43.51598" lon="6.24693">
        <ele>171.1</ele>
        <time>2025-07-25T08:51:54.952Z</time>
      </trkpt>
      <trkpt lat="43.51599" lon="6.24685">
        <ele>170.1</ele>
        <time>2025-07-25T08:51:54.952Z</time>
      </trkpt>
      <trkpt lat="43.51599" lon="6.24676">
        <ele>169.6</ele>
        <time>2025-07-25T08:51:54.952Z</time>
      </trkpt>
      <trkpt lat="43.51599" lon="6.24668">
        <ele>169.2</ele>
        <time>2025-07-25T08:51:54.952Z</time>
      </trkpt>
      <trkpt lat="43.51599" lon="6.2466">
        <ele>168.8</ele>
        <time>2025-07-25T08:51:54.952Z</time>
      </trkpt>
      <trkpt lat="43.516" lon="6.24652">
        <ele>167.9</ele>
        <time>2025-07-25T08:51:54.952Z</time>
      </trkpt>
      <trkpt lat="43.516" lon="6.24643">
        <ele>167.4</ele>
        <time>2025-07-25T08:51:54.952Z</time>
      </trkpt>
      <trkpt lat="43.516" lon="6.24635">
        <ele>166.7</ele>
        <time>2025-07-25T08:51:54.952Z</time>
      </trkpt>
      <trkpt lat="43.516" lon="6.24628">
        <ele>165.7</ele>
        <time>2025-07-25T08:51:54.952Z</time>
      </trkpt>
      <trkpt lat="43.51599" lon="6.2462">
        <ele>165</ele>
        <time>2025-07-25T08:51:54.952Z</time>
      </trkpt>
      <trkpt lat="43.51598" lon="6.2461">
        <ele>164</ele>
        <time>2025-07-25T08:51:54.952Z</time>
      </trkpt>
      <trkpt lat="43.51596" lon="6.24599">
        <ele>162.9</ele>
        <time>2025-07-25T08:51:54.952Z</time>
      </trkpt>
      <trkpt lat="43.51595" lon="6.24589">
        <ele>161.5</ele>
        <time>2025-07-25T08:51:54.952Z</time>
      </trkpt>
      <trkpt lat="43.51593" lon="6.24578">
        <ele>160.3</ele>
        <time>2025-07-25T08:51:54.952Z</time>
      </trkpt>
      <trkpt lat="43.5159" lon="6.2457">
        <ele>159.7</ele>
        <time>2025-07-25T08:51:54.952Z</time>
      </trkpt>
      <trkpt lat="43.51587" lon="6.24561">
        <ele>158.7</ele>
        <time>2025-07-25T08:51:54.952Z</time>
      </trkpt>
      <trkpt lat="43.51589" lon="6.2455">
        <ele>157</ele>
        <time>2025-07-25T08:51:54.952Z</time>
      </trkpt>
      <trkpt lat="43.51588" lon="6.24544">
        <ele>156</ele>
        <time>2025-07-25T08:51:54.952Z</time>
      </trkpt>
      <trkpt lat="43.51586" lon="6.24538">
        <ele>155</ele>
        <time>2025-07-25T08:51:54.952Z</time>
      </trkpt>
      <trkpt lat="43.51584" lon="6.24529">
        <ele>153.3</ele>
        <time>2025-07-25T08:51:54.952Z</time>
      </trkpt>
      <trkpt lat="43.51583" lon="6.2452">
        <ele>152.4</ele>
        <time>2025-07-25T08:51:54.952Z</time>
      </trkpt>
      <trkpt lat="43.51581" lon="6.24511">
        <ele>151.5</ele>
        <time>2025-07-25T08:51:54.952Z</time>
      </trkpt>
      <trkpt lat="43.51579" lon="6.24502">
        <ele>150.2</ele>
        <time>2025-07-25T08:51:54.952Z</time>
      </trkpt>
      <trkpt lat="43.51578" lon="6.24494">
        <ele>149.2</ele>
        <time>2025-07-25T08:51:54.952Z</time>
      </trkpt>
      <trkpt lat="43.51577" lon="6.24486">
        <ele>148.3</ele>
        <time>2025-07-25T08:51:54.952Z</time>
      </trkpt>
      <trkpt lat="43.51577" lon="6.24483">
        <ele>148</ele>
        <time>2025-07-25T08:51:54.952Z</time>
      </trkpt>
      <trkpt lat="43.51577" lon="6.24483">
        <ele>148</ele>
        <time>2025-07-25T08:51:54.952Z</time>
      </trkpt>
      <trkpt lat="43.51576" lon="6.24471">
        <ele>146.8</ele>
        <time>2025-07-25T08:51:54.952Z</time>
      </trkpt>
      <trkpt lat="43.51575" lon="6.24461">
        <ele>146</ele>
        <time>2025-07-25T08:51:54.952Z</time>
      </trkpt>
      <trkpt lat="43.51575" lon="6.24451">
        <ele>145.5</ele>
        <time>2025-07-25T08:51:54.952Z</time>
      </trkpt>
      <trkpt lat="43.51575" lon="6.24446">
        <ele>145.3</ele>
        <time>2025-07-25T08:51:54.952Z</time>
      </trkpt>
      <trkpt lat="43.51575" lon="6.24437">
        <ele>144.3</ele>
        <time>2025-07-25T08:51:54.952Z</time>
      </trkpt>
      <trkpt lat="43.51573" lon="6.24431">
        <ele>143.4</ele>
        <time>2025-07-25T08:51:54.952Z</time>
      </trkpt>
      <trkpt lat="43.51571" lon="6.24425">
        <ele>142.7</ele>
        <time>2025-07-25T08:51:54.952Z</time>
      </trkpt>
      <trkpt lat="43.51568" lon="6.24419">
        <ele>142.1</ele>
        <time>2025-07-25T08:51:54.952Z</time>
      </trkpt>
      <trkpt lat="43.51565" lon="6.24413">
        <ele>142.8</ele>
        <time>2025-07-25T08:51:54.952Z</time>
      </trkpt>
      <trkpt lat="43.51565" lon="6.24413">
        <ele>142.8</ele>
        <time>2025-07-25T08:51:54.952Z</time>
      </trkpt>
      <trkpt lat="43.51563" lon="6.24404">
        <ele>144.9</ele>
        <time>2025-07-25T08:51:54.952Z</time>
      </trkpt>
      <trkpt lat="43.51561" lon="6.24395">
        <ele>147.3</ele>
        <time>2025-07-25T08:51:54.952Z</time>
      </trkpt>
      <trkpt lat="43.51565" lon="6.24388">
        <ele>148.1</ele>
        <time>2025-07-25T08:51:54.952Z</time>
      </trkpt>
      <trkpt lat="43.5157" lon="6.24381">
        <ele>148.2</ele>
        <time>2025-07-25T08:51:54.952Z</time>
      </trkpt>
      <trkpt lat="43.51574" lon="6.24374">
        <ele>148.3</ele>
        <time>2025-07-25T08:51:54.952Z</time>
      </trkpt>
      <trkpt lat="43.51578" lon="6.24367">
        <ele>148.5</ele>
        <time>2025-07-25T08:51:54.952Z</time>
      </trkpt>
      <trkpt lat="43.51583" lon="6.24358">
        <ele>148.4</ele>
        <time>2025-07-25T08:51:54.952Z</time>
      </trkpt>
      <trkpt lat="43.51587" lon="6.24349">
        <ele>148.8</ele>
        <time>2025-07-25T08:51:54.952Z</time>
      </trkpt>
      <trkpt lat="43.51592" lon="6.24339">
        <ele>149</ele>
        <time>2025-07-25T08:51:54.952Z</time>
      </trkpt>
      <trkpt lat="43.51596" lon="6.2433">
        <ele>149.2</ele>
        <time>2025-07-25T08:51:54.952Z</time>
      </trkpt>
      <trkpt lat="43.51599" lon="6.2432">
        <ele>149.8</ele>
        <time>2025-07-25T08:51:54.952Z</time>
      </trkpt>
      <trkpt lat="43.51601" lon="6.24309">
        <ele>150.5</ele>
        <time>2025-07-25T08:51:54.952Z</time>
      </trkpt>
      <trkpt lat="43.51605" lon="6.24299">
        <ele>150.2</ele>
        <time>2025-07-25T08:51:54.952Z</time>
      </trkpt>
      <trkpt lat="43.51608" lon="6.24289">
        <ele>150</ele>
        <time>2025-07-25T08:51:54.952Z</time>
      </trkpt>
      <trkpt lat="43.51611" lon="6.24282">
        <ele>149.7</ele>
        <time>2025-07-25T08:51:54.952Z</time>
      </trkpt>
      <trkpt lat="43.51613" lon="6.24275">
        <ele>149.9</ele>
        <time>2025-07-25T08:51:54.952Z</time>
      </trkpt>
      <trkpt lat="43.51616" lon="6.24268">
        <ele>149.8</ele>
        <time>2025-07-25T08:51:54.952Z</time>
      </trkpt>
      <trkpt lat="43.51618" lon="6.2426">
        <ele>149.8</ele>
        <time>2025-07-25T08:51:54.952Z</time>
      </trkpt>
      <trkpt lat="43.51619" lon="6.24254">
        <ele>149.9</ele>
        <time>2025-07-25T08:51:54.952Z</time>
      </trkpt>
      <trkpt lat="43.5162" lon="6.24247">
        <ele>150.2</ele>
        <time>2025-07-25T08:51:54.952Z</time>
      </trkpt>
      <trkpt lat="43.51623" lon="6.24238">
        <ele>150.7</ele>
        <time>2025-07-25T08:51:54.952Z</time>
      </trkpt>
      <trkpt lat="43.51625" lon="6.24228">
        <ele>151.2</ele>
        <time>2025-07-25T08:51:54.952Z</time>
      </trkpt>
      <trkpt lat="43.51621" lon="6.24228">
        <ele>151.3</ele>
        <time>2025-07-25T08:51:54.952Z</time>
      </trkpt>
      <trkpt lat="43.51616" lon="6.24228">
        <ele>151.4</ele>
        <time>2025-07-25T08:51:54.952Z</time>
      </trkpt>
      <trkpt lat="43.51612" lon="6.24228">
        <ele>151.6</ele>
        <time>2025-07-25T08:51:54.952Z</time>
      </trkpt>
      <trkpt lat="43.51607" lon="6.24228">
        <ele>151.6</ele>
        <time>2025-07-25T08:51:54.952Z</time>
      </trkpt>
      <trkpt lat="43.51603" lon="6.24227">
        <ele>151.6</ele>
        <time>2025-07-25T08:51:54.952Z</time>
      </trkpt>
      <trkpt lat="43.51598" lon="6.24227">
        <ele>151.6</ele>
        <time>2025-07-25T08:51:54.952Z</time>
      </trkpt>
      <trkpt lat="43.51594" lon="6.24227">
        <ele>151.6</ele>
        <time>2025-07-25T08:51:54.952Z</time>
      </trkpt>
      <trkpt lat="43.51589" lon="6.24227">
        <ele>151.5</ele>
        <time>2025-07-25T08:51:54.952Z</time>
      </trkpt>
    </trkseg>
  </trk>
</gpx>